<?xml version="1.0" encoding="UTF-8" standalone="no" ?>
<gpx xmlns="http://www.topografix.com/GPX/1/1" xmlns:xsi="http://www.w3.org/2001/XMLSchema-instance" xsi:schemaLocation="http://www.topografix.com/GPX/1/1 http://www.topografix.com/GPX/1/1/gpx.xsd" version="1.1" creator="VisuGPX - https://www.visugpx.com">
  <metadata>
    <name>2016-07-22 17:16:01</name>
    <desc><![CDATA[

]]></desc>
  </metadata>
  <wpt lat="45.66375" lon="6.49438">
    <ele>2235.8359375</ele>
    <name><![CDATA[Col Des Lacs]]></name>
    <type><![CDATA[user]]></type>
  </wpt>
  <wpt lat="45.62971" lon="6.62588">
    <ele>2392.7265625</ele>
    <name><![CDATA[Col Du Coin]]></name>
    <type><![CDATA[user]]></type>
  </wpt>
  <wpt lat="45.63654" lon="6.63917">
    <ele>2252.921875</ele>
    <name><![CDATA[Lac d\'Amour]]></name>
    <type><![CDATA[user]]></type>
  </wpt>
  <wpt lat="45.62651" lon="6.60129">
    <ele>1903.71484375</ele>
    <name><![CDATA[Lac Des Fées]]></name>
    <type><![CDATA[user]]></type>
  </wpt>
  <wpt lat="45.6183" lon="6.60849">
    <ele>2053.33984375</ele>
    <name><![CDATA[Refuge de la Coire]]></name>
    <type><![CDATA[user]]></type>
  </wpt>
  <wpt lat="45.65707" lon="6.53357">
    <ele>1881.625</ele>
    <name><![CDATA[Refuge Des Arolles]]></name>
    <type><![CDATA[user]]></type>
  </wpt>
  <trk>
    <name><![CDATA[2016-07-22 17:16:01]]></name>
    <trkseg>
      <trkpt lat="45.61832" lon="6.60829">
        <ele>2108.79</ele>
        <time>2016-07-22T07:00:27Z</time>
      </trkpt>
      <trkpt lat="45.61837" lon="6.60816">
        <ele>2066.97</ele>
        <time>2016-07-22T07:01:04Z</time>
      </trkpt>
      <trkpt lat="45.61834" lon="6.60799">
        <ele>2069.38</ele>
        <time>2016-07-22T07:01:33Z</time>
      </trkpt>
      <trkpt lat="45.61828" lon="6.6079">
        <ele>2070.34</ele>
        <time>2016-07-22T07:01:46Z</time>
      </trkpt>
      <trkpt lat="45.61827" lon="6.60776">
        <ele>2072.26</ele>
        <time>2016-07-22T07:01:57Z</time>
      </trkpt>
      <trkpt lat="45.61827" lon="6.60762">
        <ele>2073.22</ele>
        <time>2016-07-22T07:02:09Z</time>
      </trkpt>
      <trkpt lat="45.61824" lon="6.60749">
        <ele>2075.62</ele>
        <time>2016-07-22T07:02:22Z</time>
      </trkpt>
      <trkpt lat="45.61821" lon="6.60737">
        <ele>2077.55</ele>
        <time>2016-07-22T07:02:41Z</time>
      </trkpt>
      <trkpt lat="45.61822" lon="6.60723">
        <ele>2081.39</ele>
        <time>2016-07-22T07:02:59Z</time>
      </trkpt>
      <trkpt lat="45.61822" lon="6.60711">
        <ele>2082.35</ele>
        <time>2016-07-22T07:03:16Z</time>
      </trkpt>
      <trkpt lat="45.61822" lon="6.607">
        <ele>2084.76</ele>
        <time>2016-07-22T07:03:33Z</time>
      </trkpt>
      <trkpt lat="45.61822" lon="6.6069">
        <ele>2086.2</ele>
        <time>2016-07-22T07:03:56Z</time>
      </trkpt>
      <trkpt lat="45.61827" lon="6.6068">
        <ele>2089.08</ele>
        <time>2016-07-22T07:04:12Z</time>
      </trkpt>
      <trkpt lat="45.61831" lon="6.60669">
        <ele>2091</ele>
        <time>2016-07-22T07:04:27Z</time>
      </trkpt>
      <trkpt lat="45.61827" lon="6.60673">
        <ele>2091.49</ele>
        <time>2016-07-22T07:04:46Z</time>
      </trkpt>
      <trkpt lat="45.61828" lon="6.60674">
        <ele>2090.04</ele>
        <time>2016-07-22T07:05:00Z</time>
      </trkpt>
      <trkpt lat="45.6183" lon="6.60663">
        <ele>2091.97</ele>
        <time>2016-07-22T07:05:23Z</time>
      </trkpt>
      <trkpt lat="45.61827" lon="6.60649">
        <ele>2094.37</ele>
        <time>2016-07-22T07:05:44Z</time>
      </trkpt>
      <trkpt lat="45.61825" lon="6.60635">
        <ele>2096.29</ele>
        <time>2016-07-22T07:05:58Z</time>
      </trkpt>
      <trkpt lat="45.61827" lon="6.60621">
        <ele>2098.7</ele>
        <time>2016-07-22T07:06:12Z</time>
      </trkpt>
      <trkpt lat="45.61829" lon="6.6061">
        <ele>2100.14</ele>
        <time>2016-07-22T07:06:26Z</time>
      </trkpt>
      <trkpt lat="45.61834" lon="6.60598">
        <ele>2102.54</ele>
        <time>2016-07-22T07:06:43Z</time>
      </trkpt>
      <trkpt lat="45.6184" lon="6.60587">
        <ele>2105.42</ele>
        <time>2016-07-22T07:07:00Z</time>
      </trkpt>
      <trkpt lat="45.61839" lon="6.60574">
        <ele>2107.35</ele>
        <time>2016-07-22T07:07:15Z</time>
      </trkpt>
      <trkpt lat="45.61836" lon="6.60569">
        <ele>2108.31</ele>
        <time>2016-07-22T07:09:15Z</time>
      </trkpt>
      <trkpt lat="45.61831" lon="6.60556">
        <ele>2108.31</ele>
        <time>2016-07-22T07:09:24Z</time>
      </trkpt>
      <trkpt lat="45.61825" lon="6.60546">
        <ele>2108.31</ele>
        <time>2016-07-22T07:09:32Z</time>
      </trkpt>
      <trkpt lat="45.61817" lon="6.60537">
        <ele>2108.31</ele>
        <time>2016-07-22T07:09:40Z</time>
      </trkpt>
      <trkpt lat="45.61813" lon="6.60528">
        <ele>2107.35</ele>
        <time>2016-07-22T07:09:59Z</time>
      </trkpt>
      <trkpt lat="45.61801" lon="6.60526">
        <ele>2106.87</ele>
        <time>2016-07-22T07:10:07Z</time>
      </trkpt>
      <trkpt lat="45.61792" lon="6.60523">
        <ele>2105.91</ele>
        <time>2016-07-22T07:10:14Z</time>
      </trkpt>
      <trkpt lat="45.61784" lon="6.60518">
        <ele>2104.94</ele>
        <time>2016-07-22T07:10:21Z</time>
      </trkpt>
      <trkpt lat="45.61779" lon="6.60507">
        <ele>2104.46</ele>
        <time>2016-07-22T07:10:29Z</time>
      </trkpt>
      <trkpt lat="45.61777" lon="6.60494">
        <ele>2103.98</ele>
        <time>2016-07-22T07:10:47Z</time>
      </trkpt>
      <trkpt lat="45.61775" lon="6.60481">
        <ele>2103.98</ele>
        <time>2016-07-22T07:10:54Z</time>
      </trkpt>
      <trkpt lat="45.61775" lon="6.60466">
        <ele>2103.98</ele>
        <time>2016-07-22T07:11:02Z</time>
      </trkpt>
      <trkpt lat="45.61775" lon="6.60452">
        <ele>2103.98</ele>
        <time>2016-07-22T07:11:10Z</time>
      </trkpt>
      <trkpt lat="45.61774" lon="6.60438">
        <ele>2103.98</ele>
        <time>2016-07-22T07:11:18Z</time>
      </trkpt>
      <trkpt lat="45.6177" lon="6.60425">
        <ele>2105.91</ele>
        <time>2016-07-22T07:11:26Z</time>
      </trkpt>
      <trkpt lat="45.61763" lon="6.60413">
        <ele>2106.39</ele>
        <time>2016-07-22T07:11:33Z</time>
      </trkpt>
      <trkpt lat="45.61756" lon="6.60402">
        <ele>2107.35</ele>
        <time>2016-07-22T07:11:41Z</time>
      </trkpt>
      <trkpt lat="45.6175" lon="6.60391">
        <ele>2107.83</ele>
        <time>2016-07-22T07:11:49Z</time>
      </trkpt>
      <trkpt lat="45.61746" lon="6.60379">
        <ele>2108.79</ele>
        <time>2016-07-22T07:11:56Z</time>
      </trkpt>
      <trkpt lat="45.61745" lon="6.60366">
        <ele>2109.27</ele>
        <time>2016-07-22T07:12:03Z</time>
      </trkpt>
      <trkpt lat="45.61744" lon="6.60352">
        <ele>2109.27</ele>
        <time>2016-07-22T07:12:11Z</time>
      </trkpt>
      <trkpt lat="45.61743" lon="6.60339">
        <ele>2109.75</ele>
        <time>2016-07-22T07:12:19Z</time>
      </trkpt>
      <trkpt lat="45.61739" lon="6.60325">
        <ele>2109.75</ele>
        <time>2016-07-22T07:12:27Z</time>
      </trkpt>
      <trkpt lat="45.61733" lon="6.60314">
        <ele>2110.23</ele>
        <time>2016-07-22T07:12:35Z</time>
      </trkpt>
      <trkpt lat="45.61727" lon="6.60302">
        <ele>2110.23</ele>
        <time>2016-07-22T07:12:43Z</time>
      </trkpt>
      <trkpt lat="45.61721" lon="6.60292">
        <ele>2110.23</ele>
        <time>2016-07-22T07:12:50Z</time>
      </trkpt>
      <trkpt lat="45.61714" lon="6.60282">
        <ele>2110.23</ele>
        <time>2016-07-22T07:12:58Z</time>
      </trkpt>
      <trkpt lat="45.6171" lon="6.6027">
        <ele>2110.23</ele>
        <time>2016-07-22T07:13:08Z</time>
      </trkpt>
      <trkpt lat="45.61716" lon="6.60258">
        <ele>2110.23</ele>
        <time>2016-07-22T07:13:17Z</time>
      </trkpt>
      <trkpt lat="45.61723" lon="6.60249">
        <ele>2107.83</ele>
        <time>2016-07-22T07:13:27Z</time>
      </trkpt>
      <trkpt lat="45.61731" lon="6.6024">
        <ele>2106.87</ele>
        <time>2016-07-22T07:13:36Z</time>
      </trkpt>
      <trkpt lat="45.6174" lon="6.60231">
        <ele>2105.91</ele>
        <time>2016-07-22T07:13:46Z</time>
      </trkpt>
      <trkpt lat="45.61747" lon="6.6022">
        <ele>2104.94</ele>
        <time>2016-07-22T07:13:56Z</time>
      </trkpt>
      <trkpt lat="45.61753" lon="6.6021">
        <ele>2103.5</ele>
        <time>2016-07-22T07:14:05Z</time>
      </trkpt>
      <trkpt lat="45.61759" lon="6.60201">
        <ele>2102.54</ele>
        <time>2016-07-22T07:14:14Z</time>
      </trkpt>
      <trkpt lat="45.61766" lon="6.60193">
        <ele>2102.54</ele>
        <time>2016-07-22T07:14:23Z</time>
      </trkpt>
      <trkpt lat="45.61773" lon="6.60183">
        <ele>2100.62</ele>
        <time>2016-07-22T07:14:33Z</time>
      </trkpt>
      <trkpt lat="45.61781" lon="6.60174">
        <ele>2099.18</ele>
        <time>2016-07-22T07:14:43Z</time>
      </trkpt>
      <trkpt lat="45.61787" lon="6.60164">
        <ele>2098.7</ele>
        <time>2016-07-22T07:14:53Z</time>
      </trkpt>
      <trkpt lat="45.61791" lon="6.60151">
        <ele>2097.25</ele>
        <time>2016-07-22T07:15:02Z</time>
      </trkpt>
      <trkpt lat="45.61798" lon="6.60141">
        <ele>2096.29</ele>
        <time>2016-07-22T07:15:12Z</time>
      </trkpt>
      <trkpt lat="45.61801" lon="6.60129">
        <ele>2096.29</ele>
        <time>2016-07-22T07:15:21Z</time>
      </trkpt>
      <trkpt lat="45.61805" lon="6.60116">
        <ele>2094.85</ele>
        <time>2016-07-22T07:15:34Z</time>
      </trkpt>
      <trkpt lat="45.6181" lon="6.60104">
        <ele>2094.37</ele>
        <time>2016-07-22T07:15:42Z</time>
      </trkpt>
      <trkpt lat="45.61814" lon="6.60093">
        <ele>2093.89</ele>
        <time>2016-07-22T07:15:50Z</time>
      </trkpt>
      <trkpt lat="45.61821" lon="6.60081">
        <ele>2091.97</ele>
        <time>2016-07-22T07:15:59Z</time>
      </trkpt>
      <trkpt lat="45.61827" lon="6.60069">
        <ele>2091.49</ele>
        <time>2016-07-22T07:16:08Z</time>
      </trkpt>
      <trkpt lat="45.61832" lon="6.60059">
        <ele>2090.52</ele>
        <time>2016-07-22T07:16:16Z</time>
      </trkpt>
      <trkpt lat="45.61839" lon="6.6005">
        <ele>2089.56</ele>
        <time>2016-07-22T07:16:24Z</time>
      </trkpt>
      <trkpt lat="45.61845" lon="6.60038">
        <ele>2089.08</ele>
        <time>2016-07-22T07:16:33Z</time>
      </trkpt>
      <trkpt lat="45.61853" lon="6.60027">
        <ele>2087.64</ele>
        <time>2016-07-22T07:16:42Z</time>
      </trkpt>
      <trkpt lat="45.61861" lon="6.60019">
        <ele>2087.16</ele>
        <time>2016-07-22T07:16:50Z</time>
      </trkpt>
      <trkpt lat="45.61869" lon="6.60009">
        <ele>2086.2</ele>
        <time>2016-07-22T07:16:59Z</time>
      </trkpt>
      <trkpt lat="45.61877" lon="6.60004">
        <ele>2085.72</ele>
        <time>2016-07-22T07:17:07Z</time>
      </trkpt>
      <trkpt lat="45.61886" lon="6.59998">
        <ele>2084.28</ele>
        <time>2016-07-22T07:17:16Z</time>
      </trkpt>
      <trkpt lat="45.61895" lon="6.59995">
        <ele>2083.79</ele>
        <time>2016-07-22T07:17:24Z</time>
      </trkpt>
      <trkpt lat="45.61903" lon="6.5999">
        <ele>2082.35</ele>
        <time>2016-07-22T07:17:32Z</time>
      </trkpt>
      <trkpt lat="45.61912" lon="6.59986">
        <ele>2081.39</ele>
        <time>2016-07-22T07:17:41Z</time>
      </trkpt>
      <trkpt lat="45.61921" lon="6.59981">
        <ele>2080.91</ele>
        <time>2016-07-22T07:17:49Z</time>
      </trkpt>
      <trkpt lat="45.61929" lon="6.59977">
        <ele>2079.47</ele>
        <time>2016-07-22T07:17:57Z</time>
      </trkpt>
      <trkpt lat="45.61938" lon="6.59971">
        <ele>2078.99</ele>
        <time>2016-07-22T07:18:05Z</time>
      </trkpt>
      <trkpt lat="45.61946" lon="6.59965">
        <ele>2078.51</ele>
        <time>2016-07-22T07:18:13Z</time>
      </trkpt>
      <trkpt lat="45.61955" lon="6.59959">
        <ele>2077.07</ele>
        <time>2016-07-22T07:18:21Z</time>
      </trkpt>
      <trkpt lat="45.61965" lon="6.59957">
        <ele>2076.1</ele>
        <time>2016-07-22T07:18:30Z</time>
      </trkpt>
      <trkpt lat="45.61974" lon="6.59958">
        <ele>2076.59</ele>
        <time>2016-07-22T07:18:44Z</time>
      </trkpt>
      <trkpt lat="45.61978" lon="6.59967">
        <ele>2074.18</ele>
        <time>2016-07-22T07:19:56Z</time>
      </trkpt>
      <trkpt lat="45.61979" lon="6.5998">
        <ele>2074.18</ele>
        <time>2016-07-22T07:20:05Z</time>
      </trkpt>
      <trkpt lat="45.61977" lon="6.59994">
        <ele>2071.78</ele>
        <time>2016-07-22T07:20:15Z</time>
      </trkpt>
      <trkpt lat="45.6198" lon="6.59998">
        <ele>2069.38</ele>
        <time>2016-07-22T07:20:27Z</time>
      </trkpt>
      <trkpt lat="45.61989" lon="6.59993">
        <ele>2066.01</ele>
        <time>2016-07-22T07:20:42Z</time>
      </trkpt>
      <trkpt lat="45.61998" lon="6.59987">
        <ele>2062.65</ele>
        <time>2016-07-22T07:21:00Z</time>
      </trkpt>
      <trkpt lat="45.62003" lon="6.59998">
        <ele>2059.76</ele>
        <time>2016-07-22T07:21:14Z</time>
      </trkpt>
      <trkpt lat="45.62006" lon="6.60008">
        <ele>2056.4</ele>
        <time>2016-07-22T07:21:28Z</time>
      </trkpt>
      <trkpt lat="45.62013" lon="6.60001">
        <ele>2053.51</ele>
        <time>2016-07-22T07:21:58Z</time>
      </trkpt>
      <trkpt lat="45.62017" lon="6.60014">
        <ele>2048.71</ele>
        <time>2016-07-22T07:22:26Z</time>
      </trkpt>
      <trkpt lat="45.62025" lon="6.60007">
        <ele>2046.3</ele>
        <time>2016-07-22T07:22:46Z</time>
      </trkpt>
      <trkpt lat="45.62034" lon="6.60003">
        <ele>2042.94</ele>
        <time>2016-07-22T07:23:00Z</time>
      </trkpt>
      <trkpt lat="45.62055" lon="6.60002">
        <ele>2039.09</ele>
        <time>2016-07-22T07:23:36Z</time>
      </trkpt>
      <trkpt lat="45.62055" lon="6.60004">
        <ele>2035.73</ele>
        <time>2016-07-22T07:25:04Z</time>
      </trkpt>
      <trkpt lat="45.62076" lon="6.60005">
        <ele>2029.96</ele>
        <time>2016-07-22T07:25:53Z</time>
      </trkpt>
      <trkpt lat="45.62102" lon="6.59993">
        <ele>2024.19</ele>
        <time>2016-07-22T07:26:35Z</time>
      </trkpt>
      <trkpt lat="45.62105" lon="6.60006">
        <ele>2021.31</ele>
        <time>2016-07-22T07:26:48Z</time>
      </trkpt>
      <trkpt lat="45.62096" lon="6.6002">
        <ele>2019.87</ele>
        <time>2016-07-22T07:27:13Z</time>
      </trkpt>
      <trkpt lat="45.62115" lon="6.60015">
        <ele>2013.62</ele>
        <time>2016-07-22T07:27:51Z</time>
      </trkpt>
      <trkpt lat="45.62122" lon="6.60026">
        <ele>2008.81</ele>
        <time>2016-07-22T07:28:14Z</time>
      </trkpt>
      <trkpt lat="45.62132" lon="6.60032">
        <ele>2008.33</ele>
        <time>2016-07-22T07:28:29Z</time>
      </trkpt>
      <trkpt lat="45.62144" lon="6.60031">
        <ele>2006.41</ele>
        <time>2016-07-22T07:28:46Z</time>
      </trkpt>
      <trkpt lat="45.62158" lon="6.60035">
        <ele>2002.08</ele>
        <time>2016-07-22T07:29:13Z</time>
      </trkpt>
      <trkpt lat="45.62163" lon="6.60026">
        <ele>1999.2</ele>
        <time>2016-07-22T07:30:46Z</time>
      </trkpt>
      <trkpt lat="45.6217" lon="6.60007">
        <ele>1994.87</ele>
        <time>2016-07-22T07:31:22Z</time>
      </trkpt>
      <trkpt lat="45.6218" lon="6.60005">
        <ele>1992.95</ele>
        <time>2016-07-22T07:31:37Z</time>
      </trkpt>
      <trkpt lat="45.62198" lon="6.59995">
        <ele>1987.66</ele>
        <time>2016-07-22T07:32:13Z</time>
      </trkpt>
      <trkpt lat="45.62209" lon="6.59986">
        <ele>1985.26</ele>
        <time>2016-07-22T07:32:30Z</time>
      </trkpt>
      <trkpt lat="45.6222" lon="6.59976">
        <ele>1981.41</ele>
        <time>2016-07-22T07:32:49Z</time>
      </trkpt>
      <trkpt lat="45.62227" lon="6.59969">
        <ele>1979.49</ele>
        <time>2016-07-22T07:33:02Z</time>
      </trkpt>
      <trkpt lat="45.62231" lon="6.59957">
        <ele>1977.57</ele>
        <time>2016-07-22T07:33:15Z</time>
      </trkpt>
      <trkpt lat="45.62241" lon="6.59956">
        <ele>1975.17</ele>
        <time>2016-07-22T07:33:26Z</time>
      </trkpt>
      <trkpt lat="45.62255" lon="6.59952">
        <ele>1971.32</ele>
        <time>2016-07-22T07:33:45Z</time>
      </trkpt>
      <trkpt lat="45.62264" lon="6.59953">
        <ele>1969.88</ele>
        <time>2016-07-22T07:33:58Z</time>
      </trkpt>
      <trkpt lat="45.6227" lon="6.59938">
        <ele>1967.96</ele>
        <time>2016-07-22T07:34:12Z</time>
      </trkpt>
      <trkpt lat="45.6228" lon="6.5993">
        <ele>1967.48</ele>
        <time>2016-07-22T07:34:25Z</time>
      </trkpt>
      <trkpt lat="45.62285" lon="6.59931">
        <ele>1966.99</ele>
        <time>2016-07-22T07:35:07Z</time>
      </trkpt>
      <trkpt lat="45.62292" lon="6.59942">
        <ele>1964.59</ele>
        <time>2016-07-22T07:35:17Z</time>
      </trkpt>
      <trkpt lat="45.62298" lon="6.59954">
        <ele>1963.15</ele>
        <time>2016-07-22T07:35:31Z</time>
      </trkpt>
      <trkpt lat="45.62307" lon="6.59956">
        <ele>1965.07</ele>
        <time>2016-07-22T07:36:03Z</time>
      </trkpt>
      <trkpt lat="45.62317" lon="6.59961">
        <ele>1965.07</ele>
        <time>2016-07-22T07:36:12Z</time>
      </trkpt>
      <trkpt lat="45.62324" lon="6.59965">
        <ele>1965.07</ele>
        <time>2016-07-22T07:36:24Z</time>
      </trkpt>
      <trkpt lat="45.6233" lon="6.59965">
        <ele>1965.07</ele>
        <time>2016-07-22T07:36:51Z</time>
      </trkpt>
      <trkpt lat="45.62337" lon="6.59959">
        <ele>1965.07</ele>
        <time>2016-07-22T07:37:02Z</time>
      </trkpt>
      <trkpt lat="45.62348" lon="6.59956">
        <ele>1962.19</ele>
        <time>2016-07-22T07:37:13Z</time>
      </trkpt>
      <trkpt lat="45.62355" lon="6.59957">
        <ele>1960.27</ele>
        <time>2016-07-22T07:38:14Z</time>
      </trkpt>
      <trkpt lat="45.62362" lon="6.59967">
        <ele>1958.34</ele>
        <time>2016-07-22T07:38:28Z</time>
      </trkpt>
      <trkpt lat="45.62369" lon="6.59964">
        <ele>1956.9</ele>
        <time>2016-07-22T07:39:02Z</time>
      </trkpt>
      <trkpt lat="45.62379" lon="6.59959">
        <ele>1955.46</ele>
        <time>2016-07-22T07:39:12Z</time>
      </trkpt>
      <trkpt lat="45.62388" lon="6.59951">
        <ele>1954.98</ele>
        <time>2016-07-22T07:39:23Z</time>
      </trkpt>
      <trkpt lat="45.62395" lon="6.59943">
        <ele>1954.5</ele>
        <time>2016-07-22T07:40:10Z</time>
      </trkpt>
      <trkpt lat="45.624" lon="6.59933">
        <ele>1953.06</ele>
        <time>2016-07-22T07:40:21Z</time>
      </trkpt>
      <trkpt lat="45.62408" lon="6.59924">
        <ele>1950.65</ele>
        <time>2016-07-22T07:40:31Z</time>
      </trkpt>
      <trkpt lat="45.62418" lon="6.59925">
        <ele>1949.21</ele>
        <time>2016-07-22T07:40:40Z</time>
      </trkpt>
      <trkpt lat="45.62428" lon="6.5993">
        <ele>1946.81</ele>
        <time>2016-07-22T07:40:48Z</time>
      </trkpt>
      <trkpt lat="45.62436" lon="6.59937">
        <ele>1944.88</ele>
        <time>2016-07-22T07:40:56Z</time>
      </trkpt>
      <trkpt lat="45.62444" lon="6.59941">
        <ele>1941.52</ele>
        <time>2016-07-22T07:41:09Z</time>
      </trkpt>
      <trkpt lat="45.6245" lon="6.59953">
        <ele>1938.64</ele>
        <time>2016-07-22T07:41:20Z</time>
      </trkpt>
      <trkpt lat="45.62456" lon="6.59964">
        <ele>1936.71</ele>
        <time>2016-07-22T07:41:29Z</time>
      </trkpt>
      <trkpt lat="45.62462" lon="6.59975">
        <ele>1934.79</ele>
        <time>2016-07-22T07:41:40Z</time>
      </trkpt>
      <trkpt lat="45.62472" lon="6.59978">
        <ele>1931.43</ele>
        <time>2016-07-22T07:41:51Z</time>
      </trkpt>
      <trkpt lat="45.62479" lon="6.59983">
        <ele>1929.5</ele>
        <time>2016-07-22T07:42:00Z</time>
      </trkpt>
      <trkpt lat="45.62486" lon="6.59993">
        <ele>1929.02</ele>
        <time>2016-07-22T07:42:09Z</time>
      </trkpt>
      <trkpt lat="45.62495" lon="6.59996">
        <ele>1929.02</ele>
        <time>2016-07-22T07:42:17Z</time>
      </trkpt>
      <trkpt lat="45.62504" lon="6.60003">
        <ele>1929.02</ele>
        <time>2016-07-22T07:42:25Z</time>
      </trkpt>
      <trkpt lat="45.62513" lon="6.60006">
        <ele>1928.54</ele>
        <time>2016-07-22T07:42:33Z</time>
      </trkpt>
      <trkpt lat="45.62523" lon="6.60009">
        <ele>1928.06</ele>
        <time>2016-07-22T07:42:41Z</time>
      </trkpt>
      <trkpt lat="45.62532" lon="6.60009">
        <ele>1927.58</ele>
        <time>2016-07-22T07:42:48Z</time>
      </trkpt>
      <trkpt lat="45.62542" lon="6.60013">
        <ele>1926.62</ele>
        <time>2016-07-22T07:42:56Z</time>
      </trkpt>
      <trkpt lat="45.62551" lon="6.60022">
        <ele>1925.66</ele>
        <time>2016-07-22T07:43:04Z</time>
      </trkpt>
      <trkpt lat="45.62559" lon="6.60032">
        <ele>1925.18</ele>
        <time>2016-07-22T07:43:14Z</time>
      </trkpt>
      <trkpt lat="45.62568" lon="6.60036">
        <ele>1925.18</ele>
        <time>2016-07-22T07:43:26Z</time>
      </trkpt>
      <trkpt lat="45.62577" lon="6.60043">
        <ele>1925.18</ele>
        <time>2016-07-22T07:43:40Z</time>
      </trkpt>
      <trkpt lat="45.6258" lon="6.60062">
        <ele>1923.25</ele>
        <time>2016-07-22T07:44:08Z</time>
      </trkpt>
      <trkpt lat="45.6258" lon="6.60077">
        <ele>1923.25</ele>
        <time>2016-07-22T07:44:20Z</time>
      </trkpt>
      <trkpt lat="45.62584" lon="6.6009">
        <ele>1923.25</ele>
        <time>2016-07-22T07:44:33Z</time>
      </trkpt>
      <trkpt lat="45.62593" lon="6.6009">
        <ele>1920.85</ele>
        <time>2016-07-22T07:44:46Z</time>
      </trkpt>
      <trkpt lat="45.62601" lon="6.60085">
        <ele>1919.89</ele>
        <time>2016-07-22T07:45:12Z</time>
      </trkpt>
      <trkpt lat="45.62592" lon="6.60095">
        <ele>1919.41</ele>
        <time>2016-07-22T07:46:46Z</time>
      </trkpt>
      <trkpt lat="45.62586" lon="6.60107">
        <ele>1920.37</ele>
        <time>2016-07-22T07:46:53Z</time>
      </trkpt>
      <trkpt lat="45.6258" lon="6.60118">
        <ele>1921.33</ele>
        <time>2016-07-22T07:47:01Z</time>
      </trkpt>
      <trkpt lat="45.62574" lon="6.6013">
        <ele>1921.81</ele>
        <time>2016-07-22T07:47:10Z</time>
      </trkpt>
      <trkpt lat="45.62571" lon="6.60142">
        <ele>1922.77</ele>
        <time>2016-07-22T07:47:19Z</time>
      </trkpt>
      <trkpt lat="45.62572" lon="6.60155">
        <ele>1924.22</ele>
        <time>2016-07-22T07:47:28Z</time>
      </trkpt>
      <trkpt lat="45.62577" lon="6.60168">
        <ele>1926.14</ele>
        <time>2016-07-22T07:47:37Z</time>
      </trkpt>
      <trkpt lat="45.62583" lon="6.60182">
        <ele>1927.58</ele>
        <time>2016-07-22T07:47:56Z</time>
      </trkpt>
      <trkpt lat="45.62585" lon="6.60196">
        <ele>1928.54</ele>
        <time>2016-07-22T07:48:04Z</time>
      </trkpt>
      <trkpt lat="45.62588" lon="6.60209">
        <ele>1929.5</ele>
        <time>2016-07-22T07:48:12Z</time>
      </trkpt>
      <trkpt lat="45.62591" lon="6.60222">
        <ele>1931.43</ele>
        <time>2016-07-22T07:48:20Z</time>
      </trkpt>
      <trkpt lat="45.62596" lon="6.60234">
        <ele>1932.87</ele>
        <time>2016-07-22T07:48:29Z</time>
      </trkpt>
      <trkpt lat="45.62601" lon="6.60245">
        <ele>1933.83</ele>
        <time>2016-07-22T07:48:38Z</time>
      </trkpt>
      <trkpt lat="45.62608" lon="6.60258">
        <ele>1932.87</ele>
        <time>2016-07-22T07:49:09Z</time>
      </trkpt>
      <trkpt lat="45.6261" lon="6.60251">
        <ele>1929.5</ele>
        <time>2016-07-22T07:49:31Z</time>
      </trkpt>
      <trkpt lat="45.62612" lon="6.60237">
        <ele>1926.62</ele>
        <time>2016-07-22T07:49:53Z</time>
      </trkpt>
      <trkpt lat="45.6262" lon="6.60237">
        <ele>1923.74</ele>
        <time>2016-07-22T07:50:09Z</time>
      </trkpt>
      <trkpt lat="45.62629" lon="6.60239">
        <ele>1923.25</ele>
        <time>2016-07-22T07:50:21Z</time>
      </trkpt>
      <trkpt lat="45.62638" lon="6.60239">
        <ele>1922.77</ele>
        <time>2016-07-22T07:50:42Z</time>
      </trkpt>
      <trkpt lat="45.62636" lon="6.60237">
        <ele>1921.33</ele>
        <time>2016-07-22T07:51:29Z</time>
      </trkpt>
      <trkpt lat="45.62637" lon="6.60231">
        <ele>1918.93</ele>
        <time>2016-07-22T07:54:55Z</time>
      </trkpt>
      <trkpt lat="45.62646" lon="6.60226">
        <ele>1916.04</ele>
        <time>2016-07-22T07:56:30Z</time>
      </trkpt>
      <trkpt lat="45.62653" lon="6.60219">
        <ele>1912.68</ele>
        <time>2016-07-22T07:56:54Z</time>
      </trkpt>
      <trkpt lat="45.6266" lon="6.60221">
        <ele>1912.68</ele>
        <time>2016-07-22T07:57:12Z</time>
      </trkpt>
      <trkpt lat="45.62667" lon="6.60222">
        <ele>1913.16</ele>
        <time>2016-07-22T07:57:29Z</time>
      </trkpt>
      <trkpt lat="45.62673" lon="6.60211">
        <ele>1909.8</ele>
        <time>2016-07-22T07:57:40Z</time>
      </trkpt>
      <trkpt lat="45.6268" lon="6.60201">
        <ele>1909.32</ele>
        <time>2016-07-22T07:57:49Z</time>
      </trkpt>
      <trkpt lat="45.62686" lon="6.60192">
        <ele>1909.32</ele>
        <time>2016-07-22T07:57:58Z</time>
      </trkpt>
      <trkpt lat="45.62693" lon="6.60182">
        <ele>1909.32</ele>
        <time>2016-07-22T07:58:11Z</time>
      </trkpt>
      <trkpt lat="45.62697" lon="6.60168">
        <ele>1910.76</ele>
        <time>2016-07-22T07:58:24Z</time>
      </trkpt>
      <trkpt lat="45.62699" lon="6.60154">
        <ele>1910.28</ele>
        <time>2016-07-22T07:58:33Z</time>
      </trkpt>
      <trkpt lat="45.62699" lon="6.60141">
        <ele>1909.32</ele>
        <time>2016-07-22T07:58:42Z</time>
      </trkpt>
      <trkpt lat="45.627" lon="6.60127">
        <ele>1908.35</ele>
        <time>2016-07-22T07:58:52Z</time>
      </trkpt>
      <trkpt lat="45.627" lon="6.60113">
        <ele>1908.35</ele>
        <time>2016-07-22T07:59:01Z</time>
      </trkpt>
      <trkpt lat="45.627" lon="6.60097">
        <ele>1907.39</ele>
        <time>2016-07-22T07:59:11Z</time>
      </trkpt>
      <trkpt lat="45.62703" lon="6.60086">
        <ele>1906.43</ele>
        <time>2016-07-22T07:59:31Z</time>
      </trkpt>
      <trkpt lat="45.62695" lon="6.60081">
        <ele>1905.95</ele>
        <time>2016-07-22T07:59:41Z</time>
      </trkpt>
      <trkpt lat="45.62686" lon="6.60075">
        <ele>1907.87</ele>
        <time>2016-07-22T07:59:49Z</time>
      </trkpt>
      <trkpt lat="45.62677" lon="6.6007">
        <ele>1907.87</ele>
        <time>2016-07-22T07:59:58Z</time>
      </trkpt>
      <trkpt lat="45.62668" lon="6.60071">
        <ele>1905.95</ele>
        <time>2016-07-22T08:00:06Z</time>
      </trkpt>
      <trkpt lat="45.62657" lon="6.60073">
        <ele>1907.39</ele>
        <time>2016-07-22T08:00:14Z</time>
      </trkpt>
      <trkpt lat="45.62647" lon="6.60076">
        <ele>1906.91</ele>
        <time>2016-07-22T08:00:22Z</time>
      </trkpt>
      <trkpt lat="45.62637" lon="6.60077">
        <ele>1906.91</ele>
        <time>2016-07-22T08:00:31Z</time>
      </trkpt>
      <trkpt lat="45.62627" lon="6.60077">
        <ele>1907.87</ele>
        <time>2016-07-22T08:00:39Z</time>
      </trkpt>
      <trkpt lat="45.62617" lon="6.60084">
        <ele>1910.76</ele>
        <time>2016-07-22T08:00:49Z</time>
      </trkpt>
      <trkpt lat="45.62609" lon="6.6009">
        <ele>1912.68</ele>
        <time>2016-07-22T08:01:01Z</time>
      </trkpt>
      <trkpt lat="45.62599" lon="6.60087">
        <ele>1916.04</ele>
        <time>2016-07-22T08:01:16Z</time>
      </trkpt>
      <trkpt lat="45.62594" lon="6.60089">
        <ele>1917.49</ele>
        <time>2016-07-22T08:01:42Z</time>
      </trkpt>
      <trkpt lat="45.62598" lon="6.60087">
        <ele>1917.49</ele>
        <time>2016-07-22T08:02:09Z</time>
      </trkpt>
      <trkpt lat="45.62597" lon="6.60075">
        <ele>1917.01</ele>
        <time>2016-07-22T08:04:04Z</time>
      </trkpt>
      <trkpt lat="45.62602" lon="6.60063">
        <ele>1915.56</ele>
        <time>2016-07-22T08:04:14Z</time>
      </trkpt>
      <trkpt lat="45.62608" lon="6.60051">
        <ele>1915.08</ele>
        <time>2016-07-22T08:04:23Z</time>
      </trkpt>
      <trkpt lat="45.62614" lon="6.60041">
        <ele>1914.6</ele>
        <time>2016-07-22T08:04:32Z</time>
      </trkpt>
      <trkpt lat="45.62621" lon="6.60035">
        <ele>1913.64</ele>
        <time>2016-07-22T08:04:40Z</time>
      </trkpt>
      <trkpt lat="45.6263" lon="6.6003">
        <ele>1913.16</ele>
        <time>2016-07-22T08:04:49Z</time>
      </trkpt>
      <trkpt lat="45.62639" lon="6.60027">
        <ele>1912.68</ele>
        <time>2016-07-22T08:04:57Z</time>
      </trkpt>
      <trkpt lat="45.62649" lon="6.60026">
        <ele>1911.72</ele>
        <time>2016-07-22T08:05:06Z</time>
      </trkpt>
      <trkpt lat="45.62659" lon="6.60025">
        <ele>1910.76</ele>
        <time>2016-07-22T08:05:14Z</time>
      </trkpt>
      <trkpt lat="45.62668" lon="6.60026">
        <ele>1910.28</ele>
        <time>2016-07-22T08:05:22Z</time>
      </trkpt>
      <trkpt lat="45.62678" lon="6.60026">
        <ele>1909.8</ele>
        <time>2016-07-22T08:05:30Z</time>
      </trkpt>
      <trkpt lat="45.62687" lon="6.60027">
        <ele>1908.83</ele>
        <time>2016-07-22T08:05:39Z</time>
      </trkpt>
      <trkpt lat="45.62696" lon="6.60031">
        <ele>1907.39</ele>
        <time>2016-07-22T08:05:47Z</time>
      </trkpt>
      <trkpt lat="45.62704" lon="6.60035">
        <ele>1906.43</ele>
        <time>2016-07-22T08:05:55Z</time>
      </trkpt>
      <trkpt lat="45.62711" lon="6.60044">
        <ele>1905.95</ele>
        <time>2016-07-22T08:06:03Z</time>
      </trkpt>
      <trkpt lat="45.6272" lon="6.60052">
        <ele>1905.95</ele>
        <time>2016-07-22T08:06:13Z</time>
      </trkpt>
      <trkpt lat="45.62718" lon="6.60038">
        <ele>1903.55</ele>
        <time>2016-07-22T08:06:24Z</time>
      </trkpt>
      <trkpt lat="45.62719" lon="6.60026">
        <ele>1901.14</ele>
        <time>2016-07-22T08:06:33Z</time>
      </trkpt>
      <trkpt lat="45.62713" lon="6.60015">
        <ele>1897.78</ele>
        <time>2016-07-22T08:06:43Z</time>
      </trkpt>
      <trkpt lat="45.62715" lon="6.60002">
        <ele>1895.38</ele>
        <time>2016-07-22T08:06:53Z</time>
      </trkpt>
      <trkpt lat="45.62714" lon="6.59988">
        <ele>1893.93</ele>
        <time>2016-07-22T08:07:03Z</time>
      </trkpt>
      <trkpt lat="45.62711" lon="6.59977">
        <ele>1890.57</ele>
        <time>2016-07-22T08:07:15Z</time>
      </trkpt>
      <trkpt lat="45.62708" lon="6.59967">
        <ele>1887.69</ele>
        <time>2016-07-22T08:07:27Z</time>
      </trkpt>
      <trkpt lat="45.62701" lon="6.59956">
        <ele>1884.8</ele>
        <time>2016-07-22T08:07:38Z</time>
      </trkpt>
      <trkpt lat="45.62694" lon="6.59947">
        <ele>1883.84</ele>
        <time>2016-07-22T08:07:48Z</time>
      </trkpt>
      <trkpt lat="45.62685" lon="6.59944">
        <ele>1882.88</ele>
        <time>2016-07-22T08:07:58Z</time>
      </trkpt>
      <trkpt lat="45.62678" lon="6.59937">
        <ele>1880.96</ele>
        <time>2016-07-22T08:08:08Z</time>
      </trkpt>
      <trkpt lat="45.62681" lon="6.59922">
        <ele>1877.59</ele>
        <time>2016-07-22T08:08:20Z</time>
      </trkpt>
      <trkpt lat="45.62685" lon="6.5991">
        <ele>1875.19</ele>
        <time>2016-07-22T08:08:32Z</time>
      </trkpt>
      <trkpt lat="45.62681" lon="6.59902">
        <ele>1873.27</ele>
        <time>2016-07-22T08:08:43Z</time>
      </trkpt>
      <trkpt lat="45.62677" lon="6.599">
        <ele>1871.34</ele>
        <time>2016-07-22T08:08:56Z</time>
      </trkpt>
      <trkpt lat="45.62676" lon="6.59884">
        <ele>1868.46</ele>
        <time>2016-07-22T08:09:08Z</time>
      </trkpt>
      <trkpt lat="45.62681" lon="6.59879">
        <ele>1866.06</ele>
        <time>2016-07-22T08:09:19Z</time>
      </trkpt>
      <trkpt lat="45.62689" lon="6.59874">
        <ele>1863.65</ele>
        <time>2016-07-22T08:09:34Z</time>
      </trkpt>
      <trkpt lat="45.62697" lon="6.59867">
        <ele>1861.73</ele>
        <time>2016-07-22T08:09:44Z</time>
      </trkpt>
      <trkpt lat="45.62701" lon="6.59853">
        <ele>1857.4</ele>
        <time>2016-07-22T08:09:56Z</time>
      </trkpt>
      <trkpt lat="45.62705" lon="6.5984">
        <ele>1855</ele>
        <time>2016-07-22T08:10:07Z</time>
      </trkpt>
      <trkpt lat="45.62705" lon="6.59826">
        <ele>1853.08</ele>
        <time>2016-07-22T08:10:19Z</time>
      </trkpt>
      <trkpt lat="45.62704" lon="6.59812">
        <ele>1851.16</ele>
        <time>2016-07-22T08:10:28Z</time>
      </trkpt>
      <trkpt lat="45.62709" lon="6.59803">
        <ele>1849.23</ele>
        <time>2016-07-22T08:10:38Z</time>
      </trkpt>
      <trkpt lat="45.62715" lon="6.59813">
        <ele>1848.75</ele>
        <time>2016-07-22T08:10:47Z</time>
      </trkpt>
      <trkpt lat="45.62721" lon="6.59806">
        <ele>1848.75</ele>
        <time>2016-07-22T08:11:31Z</time>
      </trkpt>
      <trkpt lat="45.62725" lon="6.59804">
        <ele>1849.23</ele>
        <time>2016-07-22T08:11:55Z</time>
      </trkpt>
      <trkpt lat="45.62733" lon="6.59795">
        <ele>1848.75</ele>
        <time>2016-07-22T08:12:04Z</time>
      </trkpt>
      <trkpt lat="45.62727" lon="6.59781">
        <ele>1846.35</ele>
        <time>2016-07-22T08:12:13Z</time>
      </trkpt>
      <trkpt lat="45.62726" lon="6.59766">
        <ele>1844.91</ele>
        <time>2016-07-22T08:12:22Z</time>
      </trkpt>
      <trkpt lat="45.62729" lon="6.59751">
        <ele>1843.95</ele>
        <time>2016-07-22T08:12:31Z</time>
      </trkpt>
      <trkpt lat="45.62732" lon="6.59739">
        <ele>1842.98</ele>
        <time>2016-07-22T08:12:39Z</time>
      </trkpt>
      <trkpt lat="45.62735" lon="6.59726">
        <ele>1842.02</ele>
        <time>2016-07-22T08:12:47Z</time>
      </trkpt>
      <trkpt lat="45.6274" lon="6.59714">
        <ele>1842.02</ele>
        <time>2016-07-22T08:12:55Z</time>
      </trkpt>
      <trkpt lat="45.62745" lon="6.59702">
        <ele>1841.54</ele>
        <time>2016-07-22T08:13:03Z</time>
      </trkpt>
      <trkpt lat="45.62749" lon="6.59689">
        <ele>1841.06</ele>
        <time>2016-07-22T08:13:11Z</time>
      </trkpt>
      <trkpt lat="45.62753" lon="6.59677">
        <ele>1840.1</ele>
        <time>2016-07-22T08:13:19Z</time>
      </trkpt>
      <trkpt lat="45.62757" lon="6.59666">
        <ele>1840.1</ele>
        <time>2016-07-22T08:13:27Z</time>
      </trkpt>
      <trkpt lat="45.62762" lon="6.59654">
        <ele>1840.1</ele>
        <time>2016-07-22T08:13:37Z</time>
      </trkpt>
      <trkpt lat="45.62766" lon="6.59642">
        <ele>1839.62</ele>
        <time>2016-07-22T08:13:45Z</time>
      </trkpt>
      <trkpt lat="45.62771" lon="6.59632">
        <ele>1839.14</ele>
        <time>2016-07-22T08:13:53Z</time>
      </trkpt>
      <trkpt lat="45.62777" lon="6.59622">
        <ele>1839.14</ele>
        <time>2016-07-22T08:14:01Z</time>
      </trkpt>
      <trkpt lat="45.62784" lon="6.59613">
        <ele>1838.18</ele>
        <time>2016-07-22T08:14:09Z</time>
      </trkpt>
      <trkpt lat="45.62792" lon="6.59604">
        <ele>1838.18</ele>
        <time>2016-07-22T08:14:17Z</time>
      </trkpt>
      <trkpt lat="45.62801" lon="6.596">
        <ele>1837.7</ele>
        <time>2016-07-22T08:14:25Z</time>
      </trkpt>
      <trkpt lat="45.6281" lon="6.59595">
        <ele>1837.22</ele>
        <time>2016-07-22T08:14:33Z</time>
      </trkpt>
      <trkpt lat="45.62819" lon="6.59594">
        <ele>1836.74</ele>
        <time>2016-07-22T08:14:42Z</time>
      </trkpt>
      <trkpt lat="45.62828" lon="6.59589">
        <ele>1834.81</ele>
        <time>2016-07-22T08:14:51Z</time>
      </trkpt>
      <trkpt lat="45.62836" lon="6.59581">
        <ele>1833.85</ele>
        <time>2016-07-22T08:15:01Z</time>
      </trkpt>
      <trkpt lat="45.62844" lon="6.59573">
        <ele>1832.41</ele>
        <time>2016-07-22T08:15:11Z</time>
      </trkpt>
      <trkpt lat="45.62847" lon="6.59575">
        <ele>1826.16</ele>
        <time>2016-07-22T08:41:14Z</time>
      </trkpt>
      <trkpt lat="45.62848" lon="6.59575">
        <ele>1826.16</ele>
        <time>2016-07-22T08:42:42Z</time>
      </trkpt>
      <trkpt lat="45.62855" lon="6.59563">
        <ele>1827.12</ele>
        <time>2016-07-22T08:42:52Z</time>
      </trkpt>
      <trkpt lat="45.62859" lon="6.59553">
        <ele>1824.24</ele>
        <time>2016-07-22T08:43:02Z</time>
      </trkpt>
      <trkpt lat="45.62863" lon="6.59542">
        <ele>1822.32</ele>
        <time>2016-07-22T08:43:32Z</time>
      </trkpt>
      <trkpt lat="45.62872" lon="6.59539">
        <ele>1820.39</ele>
        <time>2016-07-22T08:43:41Z</time>
      </trkpt>
      <trkpt lat="45.6288" lon="6.59537">
        <ele>1816.55</ele>
        <time>2016-07-22T08:43:50Z</time>
      </trkpt>
      <trkpt lat="45.6289" lon="6.59538">
        <ele>1815.11</ele>
        <time>2016-07-22T08:43:58Z</time>
      </trkpt>
      <trkpt lat="45.629" lon="6.59542">
        <ele>1813.18</ele>
        <time>2016-07-22T08:44:06Z</time>
      </trkpt>
      <trkpt lat="45.6291" lon="6.59543">
        <ele>1811.74</ele>
        <time>2016-07-22T08:44:15Z</time>
      </trkpt>
      <trkpt lat="45.62918" lon="6.59539">
        <ele>1809.34</ele>
        <time>2016-07-22T08:44:23Z</time>
      </trkpt>
      <trkpt lat="45.62927" lon="6.59539">
        <ele>1807.42</ele>
        <time>2016-07-22T08:44:38Z</time>
      </trkpt>
      <trkpt lat="45.62936" lon="6.59536">
        <ele>1806.45</ele>
        <time>2016-07-22T08:44:46Z</time>
      </trkpt>
      <trkpt lat="45.62945" lon="6.59529">
        <ele>1804.05</ele>
        <time>2016-07-22T08:44:54Z</time>
      </trkpt>
      <trkpt lat="45.62954" lon="6.59524">
        <ele>1803.09</ele>
        <time>2016-07-22T08:45:01Z</time>
      </trkpt>
      <trkpt lat="45.62961" lon="6.59514">
        <ele>1801.65</ele>
        <time>2016-07-22T08:45:09Z</time>
      </trkpt>
      <trkpt lat="45.62969" lon="6.59505">
        <ele>1799.73</ele>
        <time>2016-07-22T08:45:17Z</time>
      </trkpt>
      <trkpt lat="45.62975" lon="6.59493">
        <ele>1797.32</ele>
        <time>2016-07-22T08:45:30Z</time>
      </trkpt>
      <trkpt lat="45.62983" lon="6.59483">
        <ele>1794.44</ele>
        <time>2016-07-22T08:45:41Z</time>
      </trkpt>
      <trkpt lat="45.62991" lon="6.59489">
        <ele>1793</ele>
        <time>2016-07-22T08:45:51Z</time>
      </trkpt>
      <trkpt lat="45.62994" lon="6.59502">
        <ele>1790.11</ele>
        <time>2016-07-22T08:46:02Z</time>
      </trkpt>
      <trkpt lat="45.62994" lon="6.59518">
        <ele>1788.19</ele>
        <time>2016-07-22T08:46:11Z</time>
      </trkpt>
      <trkpt lat="45.62989" lon="6.59531">
        <ele>1787.23</ele>
        <time>2016-07-22T08:46:21Z</time>
      </trkpt>
      <trkpt lat="45.62993" lon="6.59544">
        <ele>1787.23</ele>
        <time>2016-07-22T08:46:32Z</time>
      </trkpt>
      <trkpt lat="45.63001" lon="6.59535">
        <ele>1786.27</ele>
        <time>2016-07-22T08:46:43Z</time>
      </trkpt>
      <trkpt lat="45.63011" lon="6.59529">
        <ele>1786.27</ele>
        <time>2016-07-22T08:46:53Z</time>
      </trkpt>
      <trkpt lat="45.63019" lon="6.59523">
        <ele>1786.27</ele>
        <time>2016-07-22T08:47:04Z</time>
      </trkpt>
      <trkpt lat="45.63027" lon="6.59514">
        <ele>1783.86</ele>
        <time>2016-07-22T08:47:15Z</time>
      </trkpt>
      <trkpt lat="45.63035" lon="6.59513">
        <ele>1782.42</ele>
        <time>2016-07-22T08:47:25Z</time>
      </trkpt>
      <trkpt lat="45.63044" lon="6.5952">
        <ele>1781.46</ele>
        <time>2016-07-22T08:47:37Z</time>
      </trkpt>
      <trkpt lat="45.63051" lon="6.59529">
        <ele>1780.98</ele>
        <time>2016-07-22T08:47:51Z</time>
      </trkpt>
      <trkpt lat="45.63056" lon="6.59541">
        <ele>1782.9</ele>
        <time>2016-07-22T08:48:02Z</time>
      </trkpt>
      <trkpt lat="45.63063" lon="6.59551">
        <ele>1783.38</ele>
        <time>2016-07-22T08:48:14Z</time>
      </trkpt>
      <trkpt lat="45.63072" lon="6.59559">
        <ele>1784.34</ele>
        <time>2016-07-22T08:48:28Z</time>
      </trkpt>
      <trkpt lat="45.63081" lon="6.59564">
        <ele>1785.79</ele>
        <time>2016-07-22T08:48:41Z</time>
      </trkpt>
      <trkpt lat="45.6309" lon="6.59561">
        <ele>1785.79</ele>
        <time>2016-07-22T08:48:54Z</time>
      </trkpt>
      <trkpt lat="45.631" lon="6.59558">
        <ele>1785.79</ele>
        <time>2016-07-22T08:49:04Z</time>
      </trkpt>
      <trkpt lat="45.63111" lon="6.59561">
        <ele>1783.38</ele>
        <time>2016-07-22T08:49:14Z</time>
      </trkpt>
      <trkpt lat="45.63121" lon="6.59564">
        <ele>1783.86</ele>
        <time>2016-07-22T08:49:24Z</time>
      </trkpt>
      <trkpt lat="45.63131" lon="6.59572">
        <ele>1783.38</ele>
        <time>2016-07-22T08:49:36Z</time>
      </trkpt>
      <trkpt lat="45.6314" lon="6.59573">
        <ele>1781.46</ele>
        <time>2016-07-22T08:49:49Z</time>
      </trkpt>
      <trkpt lat="45.63138" lon="6.59559">
        <ele>1780.98</ele>
        <time>2016-07-22T08:49:59Z</time>
      </trkpt>
      <trkpt lat="45.63135" lon="6.59554">
        <ele>1780.98</ele>
        <time>2016-07-22T08:51:04Z</time>
      </trkpt>
      <trkpt lat="45.63137" lon="6.59539">
        <ele>1780.98</ele>
        <time>2016-07-22T08:51:13Z</time>
      </trkpt>
      <trkpt lat="45.63146" lon="6.59531">
        <ele>1781.94</ele>
        <time>2016-07-22T08:51:22Z</time>
      </trkpt>
      <trkpt lat="45.63152" lon="6.5952">
        <ele>1782.9</ele>
        <time>2016-07-22T08:51:34Z</time>
      </trkpt>
      <trkpt lat="45.63153" lon="6.59503">
        <ele>1780.98</ele>
        <time>2016-07-22T08:51:53Z</time>
      </trkpt>
      <trkpt lat="45.63153" lon="6.59489">
        <ele>1778.1</ele>
        <time>2016-07-22T08:52:08Z</time>
      </trkpt>
      <trkpt lat="45.63173" lon="6.5948">
        <ele>1772.81</ele>
        <time>2016-07-22T08:53:46Z</time>
      </trkpt>
      <trkpt lat="45.63184" lon="6.59456">
        <ele>1768.48</ele>
        <time>2016-07-22T08:54:17Z</time>
      </trkpt>
      <trkpt lat="45.63182" lon="6.59436">
        <ele>1768.96</ele>
        <time>2016-07-22T08:54:35Z</time>
      </trkpt>
      <trkpt lat="45.63191" lon="6.59422">
        <ele>1769.92</ele>
        <time>2016-07-22T08:54:46Z</time>
      </trkpt>
      <trkpt lat="45.63193" lon="6.59403">
        <ele>1769.92</ele>
        <time>2016-07-22T08:54:56Z</time>
      </trkpt>
      <trkpt lat="45.63194" lon="6.59388">
        <ele>1769.92</ele>
        <time>2016-07-22T08:55:06Z</time>
      </trkpt>
      <trkpt lat="45.63199" lon="6.59374">
        <ele>1769.92</ele>
        <time>2016-07-22T08:55:15Z</time>
      </trkpt>
      <trkpt lat="45.63204" lon="6.59361">
        <ele>1769.92</ele>
        <time>2016-07-22T08:55:24Z</time>
      </trkpt>
      <trkpt lat="45.63209" lon="6.59349">
        <ele>1769.92</ele>
        <time>2016-07-22T08:55:32Z</time>
      </trkpt>
      <trkpt lat="45.63215" lon="6.59333">
        <ele>1768</ele>
        <time>2016-07-22T08:55:45Z</time>
      </trkpt>
      <trkpt lat="45.63217" lon="6.59312">
        <ele>1764.64</ele>
        <time>2016-07-22T08:56:03Z</time>
      </trkpt>
      <trkpt lat="45.63221" lon="6.59296">
        <ele>1762.23</ele>
        <time>2016-07-22T08:56:13Z</time>
      </trkpt>
      <trkpt lat="45.63228" lon="6.59286">
        <ele>1760.31</ele>
        <time>2016-07-22T08:56:43Z</time>
      </trkpt>
      <trkpt lat="45.63236" lon="6.59279">
        <ele>1760.31</ele>
        <time>2016-07-22T08:56:55Z</time>
      </trkpt>
      <trkpt lat="45.63246" lon="6.59283">
        <ele>1758.39</ele>
        <time>2016-07-22T08:57:08Z</time>
      </trkpt>
      <trkpt lat="45.63251" lon="6.59271">
        <ele>1757.91</ele>
        <time>2016-07-22T08:57:18Z</time>
      </trkpt>
      <trkpt lat="45.63253" lon="6.59257">
        <ele>1755.02</ele>
        <time>2016-07-22T08:57:28Z</time>
      </trkpt>
      <trkpt lat="45.6326" lon="6.59248">
        <ele>1752.62</ele>
        <time>2016-07-22T08:57:36Z</time>
      </trkpt>
      <trkpt lat="45.63269" lon="6.59238">
        <ele>1750.7</ele>
        <time>2016-07-22T08:57:47Z</time>
      </trkpt>
      <trkpt lat="45.63275" lon="6.59224">
        <ele>1745.89</ele>
        <time>2016-07-22T08:58:05Z</time>
      </trkpt>
      <trkpt lat="45.63283" lon="6.59214">
        <ele>1742.05</ele>
        <time>2016-07-22T08:58:30Z</time>
      </trkpt>
      <trkpt lat="45.63286" lon="6.59202">
        <ele>1738.68</ele>
        <time>2016-07-22T08:58:48Z</time>
      </trkpt>
      <trkpt lat="45.63285" lon="6.59191">
        <ele>1737.72</ele>
        <time>2016-07-22T08:59:00Z</time>
      </trkpt>
      <trkpt lat="45.63292" lon="6.59179">
        <ele>1736.28</ele>
        <time>2016-07-22T08:59:23Z</time>
      </trkpt>
      <trkpt lat="45.63282" lon="6.59174">
        <ele>1732.91</ele>
        <time>2016-07-22T08:59:39Z</time>
      </trkpt>
      <trkpt lat="45.63287" lon="6.59164">
        <ele>1730.03</ele>
        <time>2016-07-22T09:01:06Z</time>
      </trkpt>
      <trkpt lat="45.63294" lon="6.59155">
        <ele>1728.59</ele>
        <time>2016-07-22T09:01:15Z</time>
      </trkpt>
      <trkpt lat="45.63303" lon="6.59148">
        <ele>1727.15</ele>
        <time>2016-07-22T09:01:25Z</time>
      </trkpt>
      <trkpt lat="45.63311" lon="6.59141">
        <ele>1725.22</ele>
        <time>2016-07-22T09:01:37Z</time>
      </trkpt>
      <trkpt lat="45.63321" lon="6.59135">
        <ele>1724.26</ele>
        <time>2016-07-22T09:01:47Z</time>
      </trkpt>
      <trkpt lat="45.63331" lon="6.59131">
        <ele>1722.82</ele>
        <time>2016-07-22T09:01:57Z</time>
      </trkpt>
      <trkpt lat="45.63342" lon="6.59126">
        <ele>1720.9</ele>
        <time>2016-07-22T09:02:08Z</time>
      </trkpt>
      <trkpt lat="45.63351" lon="6.59121">
        <ele>1719.46</ele>
        <time>2016-07-22T09:02:18Z</time>
      </trkpt>
      <trkpt lat="45.63358" lon="6.5911">
        <ele>1718.49</ele>
        <time>2016-07-22T09:02:28Z</time>
      </trkpt>
      <trkpt lat="45.63365" lon="6.59099">
        <ele>1718.01</ele>
        <time>2016-07-22T09:02:37Z</time>
      </trkpt>
      <trkpt lat="45.63372" lon="6.59089">
        <ele>1717.53</ele>
        <time>2016-07-22T09:02:47Z</time>
      </trkpt>
      <trkpt lat="45.63381" lon="6.59082">
        <ele>1715.61</ele>
        <time>2016-07-22T09:02:57Z</time>
      </trkpt>
      <trkpt lat="45.6339" lon="6.59078">
        <ele>1714.17</ele>
        <time>2016-07-22T09:03:06Z</time>
      </trkpt>
      <trkpt lat="45.634" lon="6.59071">
        <ele>1712.73</ele>
        <time>2016-07-22T09:03:17Z</time>
      </trkpt>
      <trkpt lat="45.63408" lon="6.59059">
        <ele>1711.76</ele>
        <time>2016-07-22T09:03:27Z</time>
      </trkpt>
      <trkpt lat="45.63415" lon="6.59048">
        <ele>1710.8</ele>
        <time>2016-07-22T09:03:36Z</time>
      </trkpt>
      <trkpt lat="45.63423" lon="6.59042">
        <ele>1707.92</ele>
        <time>2016-07-22T09:03:45Z</time>
      </trkpt>
      <trkpt lat="45.63432" lon="6.59045">
        <ele>1706.48</ele>
        <time>2016-07-22T09:03:54Z</time>
      </trkpt>
      <trkpt lat="45.63443" lon="6.59048">
        <ele>1706.96</ele>
        <time>2016-07-22T09:04:03Z</time>
      </trkpt>
      <trkpt lat="45.63454" lon="6.59046">
        <ele>1706</ele>
        <time>2016-07-22T09:04:12Z</time>
      </trkpt>
      <trkpt lat="45.63464" lon="6.59036">
        <ele>1705.04</ele>
        <time>2016-07-22T09:04:23Z</time>
      </trkpt>
      <trkpt lat="45.63474" lon="6.59033">
        <ele>1703.59</ele>
        <time>2016-07-22T09:04:34Z</time>
      </trkpt>
      <trkpt lat="45.63482" lon="6.59023">
        <ele>1702.63</ele>
        <time>2016-07-22T09:04:47Z</time>
      </trkpt>
      <trkpt lat="45.63489" lon="6.59011">
        <ele>1699.75</ele>
        <time>2016-07-22T09:04:59Z</time>
      </trkpt>
      <trkpt lat="45.63495" lon="6.58999">
        <ele>1697.83</ele>
        <time>2016-07-22T09:05:30Z</time>
      </trkpt>
      <trkpt lat="45.63503" lon="6.5899">
        <ele>1695.9</ele>
        <time>2016-07-22T09:05:40Z</time>
      </trkpt>
      <trkpt lat="45.6351" lon="6.58977">
        <ele>1695.42</ele>
        <time>2016-07-22T09:05:53Z</time>
      </trkpt>
      <trkpt lat="45.63518" lon="6.5897">
        <ele>1695.42</ele>
        <time>2016-07-22T09:06:02Z</time>
      </trkpt>
      <trkpt lat="45.63525" lon="6.58959">
        <ele>1694.94</ele>
        <time>2016-07-22T09:06:13Z</time>
      </trkpt>
      <trkpt lat="45.63529" lon="6.58946">
        <ele>1692.06</ele>
        <time>2016-07-22T09:06:23Z</time>
      </trkpt>
      <trkpt lat="45.63538" lon="6.58944">
        <ele>1692.06</ele>
        <time>2016-07-22T09:06:33Z</time>
      </trkpt>
      <trkpt lat="45.63548" lon="6.58941">
        <ele>1690.62</ele>
        <time>2016-07-22T09:06:43Z</time>
      </trkpt>
      <trkpt lat="45.63556" lon="6.58934">
        <ele>1690.14</ele>
        <time>2016-07-22T09:06:55Z</time>
      </trkpt>
      <trkpt lat="45.63564" lon="6.58926">
        <ele>1689.65</ele>
        <time>2016-07-22T09:07:05Z</time>
      </trkpt>
      <trkpt lat="45.63574" lon="6.58917">
        <ele>1690.62</ele>
        <time>2016-07-22T09:07:17Z</time>
      </trkpt>
      <trkpt lat="45.63584" lon="6.58914">
        <ele>1691.58</ele>
        <time>2016-07-22T09:07:27Z</time>
      </trkpt>
      <trkpt lat="45.63593" lon="6.58913">
        <ele>1690.62</ele>
        <time>2016-07-22T09:07:36Z</time>
      </trkpt>
      <trkpt lat="45.636" lon="6.58903">
        <ele>1688.69</ele>
        <time>2016-07-22T09:07:45Z</time>
      </trkpt>
      <trkpt lat="45.63605" lon="6.58892">
        <ele>1685.81</ele>
        <time>2016-07-22T09:07:55Z</time>
      </trkpt>
      <trkpt lat="45.63611" lon="6.58881">
        <ele>1682.93</ele>
        <time>2016-07-22T09:08:05Z</time>
      </trkpt>
      <trkpt lat="45.63617" lon="6.58872">
        <ele>1682.44</ele>
        <time>2016-07-22T09:08:36Z</time>
      </trkpt>
      <trkpt lat="45.63618" lon="6.58873">
        <ele>1681.96</ele>
        <time>2016-07-22T09:10:37Z</time>
      </trkpt>
      <trkpt lat="45.63616" lon="6.58873">
        <ele>1681.48</ele>
        <time>2016-07-22T09:13:35Z</time>
      </trkpt>
      <trkpt lat="45.63622" lon="6.58868">
        <ele>1681</ele>
        <time>2016-07-22T09:14:42Z</time>
      </trkpt>
      <trkpt lat="45.63631" lon="6.58865">
        <ele>1681</ele>
        <time>2016-07-22T09:14:49Z</time>
      </trkpt>
      <trkpt lat="45.6364" lon="6.58864">
        <ele>1680.04</ele>
        <time>2016-07-22T09:14:55Z</time>
      </trkpt>
      <trkpt lat="45.63649" lon="6.58859">
        <ele>1678.12</ele>
        <time>2016-07-22T09:15:02Z</time>
      </trkpt>
      <trkpt lat="45.63659" lon="6.58852">
        <ele>1676.68</ele>
        <time>2016-07-22T09:15:09Z</time>
      </trkpt>
      <trkpt lat="45.63667" lon="6.58845">
        <ele>1674.75</ele>
        <time>2016-07-22T09:15:16Z</time>
      </trkpt>
      <trkpt lat="45.63676" lon="6.58838">
        <ele>1672.83</ele>
        <time>2016-07-22T09:15:23Z</time>
      </trkpt>
      <trkpt lat="45.63686" lon="6.58832">
        <ele>1670.91</ele>
        <time>2016-07-22T09:15:30Z</time>
      </trkpt>
      <trkpt lat="45.63696" lon="6.58828">
        <ele>1669.47</ele>
        <time>2016-07-22T09:15:37Z</time>
      </trkpt>
      <trkpt lat="45.63704" lon="6.58823">
        <ele>1668.02</ele>
        <time>2016-07-22T09:15:43Z</time>
      </trkpt>
      <trkpt lat="45.63714" lon="6.58821">
        <ele>1666.58</ele>
        <time>2016-07-22T09:15:50Z</time>
      </trkpt>
      <trkpt lat="45.63721" lon="6.58829">
        <ele>1665.62</ele>
        <time>2016-07-22T09:15:58Z</time>
      </trkpt>
      <trkpt lat="45.63731" lon="6.58832">
        <ele>1662.74</ele>
        <time>2016-07-22T09:16:06Z</time>
      </trkpt>
      <trkpt lat="45.6374" lon="6.58834">
        <ele>1659.37</ele>
        <time>2016-07-22T09:16:17Z</time>
      </trkpt>
      <trkpt lat="45.63741" lon="6.58825">
        <ele>1657.93</ele>
        <time>2016-07-22T09:17:07Z</time>
      </trkpt>
      <trkpt lat="45.63736" lon="6.58814">
        <ele>1657.93</ele>
        <time>2016-07-22T09:17:14Z</time>
      </trkpt>
      <trkpt lat="45.63736" lon="6.58803">
        <ele>1656.97</ele>
        <time>2016-07-22T09:17:22Z</time>
      </trkpt>
      <trkpt lat="45.63745" lon="6.5881">
        <ele>1656.01</ele>
        <time>2016-07-22T09:17:29Z</time>
      </trkpt>
      <trkpt lat="45.63756" lon="6.58811">
        <ele>1654.57</ele>
        <time>2016-07-22T09:17:36Z</time>
      </trkpt>
      <trkpt lat="45.63765" lon="6.58813">
        <ele>1653.6</ele>
        <time>2016-07-22T09:17:43Z</time>
      </trkpt>
      <trkpt lat="45.63774" lon="6.58812">
        <ele>1652.64</ele>
        <time>2016-07-22T09:17:50Z</time>
      </trkpt>
      <trkpt lat="45.63779" lon="6.588">
        <ele>1651.68</ele>
        <time>2016-07-22T09:18:01Z</time>
      </trkpt>
      <trkpt lat="45.63777" lon="6.58785">
        <ele>1648.8</ele>
        <time>2016-07-22T09:18:10Z</time>
      </trkpt>
      <trkpt lat="45.63774" lon="6.58774">
        <ele>1648.32</ele>
        <time>2016-07-22T09:18:17Z</time>
      </trkpt>
      <trkpt lat="45.63772" lon="6.58763">
        <ele>1647.36</ele>
        <time>2016-07-22T09:18:24Z</time>
      </trkpt>
      <trkpt lat="45.63773" lon="6.5875">
        <ele>1644.95</ele>
        <time>2016-07-22T09:18:31Z</time>
      </trkpt>
      <trkpt lat="45.63777" lon="6.58736">
        <ele>1643.03</ele>
        <time>2016-07-22T09:18:38Z</time>
      </trkpt>
      <trkpt lat="45.63784" lon="6.58727">
        <ele>1640.15</ele>
        <time>2016-07-22T09:18:45Z</time>
      </trkpt>
      <trkpt lat="45.63792" lon="6.58718">
        <ele>1637.26</ele>
        <time>2016-07-22T09:18:52Z</time>
      </trkpt>
      <trkpt lat="45.63798" lon="6.58706">
        <ele>1634.86</ele>
        <time>2016-07-22T09:19:00Z</time>
      </trkpt>
      <trkpt lat="45.63806" lon="6.58698">
        <ele>1631.98</ele>
        <time>2016-07-22T09:19:08Z</time>
      </trkpt>
      <trkpt lat="45.63814" lon="6.5869">
        <ele>1629.09</ele>
        <time>2016-07-22T09:19:16Z</time>
      </trkpt>
      <trkpt lat="45.63822" lon="6.58682">
        <ele>1627.65</ele>
        <time>2016-07-22T09:19:23Z</time>
      </trkpt>
      <trkpt lat="45.6383" lon="6.58678">
        <ele>1625.73</ele>
        <time>2016-07-22T09:19:30Z</time>
      </trkpt>
      <trkpt lat="45.63841" lon="6.58673">
        <ele>1624.28</ele>
        <time>2016-07-22T09:19:38Z</time>
      </trkpt>
      <trkpt lat="45.6385" lon="6.58669">
        <ele>1623.32</ele>
        <time>2016-07-22T09:19:45Z</time>
      </trkpt>
      <trkpt lat="45.63859" lon="6.58665">
        <ele>1623.32</ele>
        <time>2016-07-22T09:19:52Z</time>
      </trkpt>
      <trkpt lat="45.63869" lon="6.58663">
        <ele>1622.84</ele>
        <time>2016-07-22T09:20:00Z</time>
      </trkpt>
      <trkpt lat="45.63879" lon="6.5866">
        <ele>1621.4</ele>
        <time>2016-07-22T09:20:07Z</time>
      </trkpt>
      <trkpt lat="45.63889" lon="6.58657">
        <ele>1620.44</ele>
        <time>2016-07-22T09:20:14Z</time>
      </trkpt>
      <trkpt lat="45.63899" lon="6.58654">
        <ele>1619</ele>
        <time>2016-07-22T09:20:22Z</time>
      </trkpt>
      <trkpt lat="45.63908" lon="6.58647">
        <ele>1617.56</ele>
        <time>2016-07-22T09:20:34Z</time>
      </trkpt>
      <trkpt lat="45.63916" lon="6.58638">
        <ele>1615.63</ele>
        <time>2016-07-22T09:20:48Z</time>
      </trkpt>
      <trkpt lat="45.63925" lon="6.5863">
        <ele>1612.75</ele>
        <time>2016-07-22T09:21:01Z</time>
      </trkpt>
      <trkpt lat="45.63933" lon="6.58622">
        <ele>1610.83</ele>
        <time>2016-07-22T09:21:13Z</time>
      </trkpt>
      <trkpt lat="45.63942" lon="6.58618">
        <ele>1608.9</ele>
        <time>2016-07-22T09:21:29Z</time>
      </trkpt>
      <trkpt lat="45.6395" lon="6.58611">
        <ele>1606.98</ele>
        <time>2016-07-22T09:21:41Z</time>
      </trkpt>
      <trkpt lat="45.6396" lon="6.58609">
        <ele>1606.5</ele>
        <time>2016-07-22T09:21:52Z</time>
      </trkpt>
      <trkpt lat="45.63969" lon="6.58602">
        <ele>1606.02</ele>
        <time>2016-07-22T09:22:02Z</time>
      </trkpt>
      <trkpt lat="45.63977" lon="6.58594">
        <ele>1605.54</ele>
        <time>2016-07-22T09:22:14Z</time>
      </trkpt>
      <trkpt lat="45.63985" lon="6.58589">
        <ele>1604.58</ele>
        <time>2016-07-22T09:22:24Z</time>
      </trkpt>
      <trkpt lat="45.63993" lon="6.58581">
        <ele>1604.58</ele>
        <time>2016-07-22T09:22:34Z</time>
      </trkpt>
      <trkpt lat="45.64001" lon="6.58574">
        <ele>1603.62</ele>
        <time>2016-07-22T09:22:44Z</time>
      </trkpt>
      <trkpt lat="45.6401" lon="6.58572">
        <ele>1602.17</ele>
        <time>2016-07-22T09:22:55Z</time>
      </trkpt>
      <trkpt lat="45.6402" lon="6.58576">
        <ele>1600.25</ele>
        <time>2016-07-22T09:23:07Z</time>
      </trkpt>
      <trkpt lat="45.64029" lon="6.58578">
        <ele>1598.33</ele>
        <time>2016-07-22T09:23:18Z</time>
      </trkpt>
      <trkpt lat="45.64039" lon="6.58571">
        <ele>1597.37</ele>
        <time>2016-07-22T09:23:29Z</time>
      </trkpt>
      <trkpt lat="45.64045" lon="6.58558">
        <ele>1596.89</ele>
        <time>2016-07-22T09:23:38Z</time>
      </trkpt>
      <trkpt lat="45.64051" lon="6.58546">
        <ele>1596.41</ele>
        <time>2016-07-22T09:23:47Z</time>
      </trkpt>
      <trkpt lat="45.64057" lon="6.58531">
        <ele>1596.41</ele>
        <time>2016-07-22T09:23:57Z</time>
      </trkpt>
      <trkpt lat="45.64062" lon="6.58518">
        <ele>1595.93</ele>
        <time>2016-07-22T09:24:10Z</time>
      </trkpt>
      <trkpt lat="45.64069" lon="6.58509">
        <ele>1594</ele>
        <time>2016-07-22T09:24:20Z</time>
      </trkpt>
      <trkpt lat="45.64079" lon="6.58501">
        <ele>1593.52</ele>
        <time>2016-07-22T09:24:33Z</time>
      </trkpt>
      <trkpt lat="45.64088" lon="6.58494">
        <ele>1592.08</ele>
        <time>2016-07-22T09:24:47Z</time>
      </trkpt>
      <trkpt lat="45.64097" lon="6.58482">
        <ele>1592.08</ele>
        <time>2016-07-22T09:25:00Z</time>
      </trkpt>
      <trkpt lat="45.64103" lon="6.5847">
        <ele>1592.08</ele>
        <time>2016-07-22T09:25:12Z</time>
      </trkpt>
      <trkpt lat="45.64109" lon="6.58461">
        <ele>1594</ele>
        <time>2016-07-22T09:25:23Z</time>
      </trkpt>
      <trkpt lat="45.64118" lon="6.5845">
        <ele>1595.45</ele>
        <time>2016-07-22T09:25:36Z</time>
      </trkpt>
      <trkpt lat="45.6413" lon="6.58443">
        <ele>1595.93</ele>
        <time>2016-07-22T09:25:48Z</time>
      </trkpt>
      <trkpt lat="45.64153" lon="6.5844">
        <ele>1594</ele>
        <time>2016-07-22T09:26:16Z</time>
      </trkpt>
      <trkpt lat="45.64164" lon="6.58429">
        <ele>1593.52</ele>
        <time>2016-07-22T09:26:30Z</time>
      </trkpt>
      <trkpt lat="45.64174" lon="6.58419">
        <ele>1592.56</ele>
        <time>2016-07-22T09:26:42Z</time>
      </trkpt>
      <trkpt lat="45.64178" lon="6.58399">
        <ele>1593.04</ele>
        <time>2016-07-22T09:27:01Z</time>
      </trkpt>
      <trkpt lat="45.64193" lon="6.58373">
        <ele>1591.12</ele>
        <time>2016-07-22T09:27:26Z</time>
      </trkpt>
      <trkpt lat="45.64206" lon="6.58361">
        <ele>1590.64</ele>
        <time>2016-07-22T09:27:50Z</time>
      </trkpt>
      <trkpt lat="45.64221" lon="6.58359">
        <ele>1589.2</ele>
        <time>2016-07-22T09:28:03Z</time>
      </trkpt>
      <trkpt lat="45.64232" lon="6.58346">
        <ele>1589.2</ele>
        <time>2016-07-22T09:28:36Z</time>
      </trkpt>
      <trkpt lat="45.6424" lon="6.58332">
        <ele>1586.31</ele>
        <time>2016-07-22T09:28:49Z</time>
      </trkpt>
      <trkpt lat="45.64251" lon="6.5833">
        <ele>1584.87</ele>
        <time>2016-07-22T09:29:00Z</time>
      </trkpt>
      <trkpt lat="45.64261" lon="6.58333">
        <ele>1583.43</ele>
        <time>2016-07-22T09:29:11Z</time>
      </trkpt>
      <trkpt lat="45.64272" lon="6.5834">
        <ele>1581.99</ele>
        <time>2016-07-22T09:29:22Z</time>
      </trkpt>
      <trkpt lat="45.64268" lon="6.58337">
        <ele>1580.54</ele>
        <time>2016-07-22T09:29:37Z</time>
      </trkpt>
      <trkpt lat="45.64255" lon="6.58331">
        <ele>1579.1</ele>
        <time>2016-07-22T09:29:49Z</time>
      </trkpt>
      <trkpt lat="45.64258" lon="6.58329">
        <ele>1578.14</ele>
        <time>2016-07-22T09:29:59Z</time>
      </trkpt>
      <trkpt lat="45.64269" lon="6.5833">
        <ele>1577.18</ele>
        <time>2016-07-22T09:30:09Z</time>
      </trkpt>
      <trkpt lat="45.64258" lon="6.58316">
        <ele>1575.74</ele>
        <time>2016-07-22T09:31:15Z</time>
      </trkpt>
      <trkpt lat="45.64242" lon="6.58302">
        <ele>1574.3</ele>
        <time>2016-07-22T09:31:37Z</time>
      </trkpt>
      <trkpt lat="45.64236" lon="6.58295">
        <ele>1573.33</ele>
        <time>2016-07-22T09:40:25Z</time>
      </trkpt>
      <trkpt lat="45.6424" lon="6.58297">
        <ele>1573.33</ele>
        <time>2016-07-22T09:46:18Z</time>
      </trkpt>
      <trkpt lat="45.64248" lon="6.58298">
        <ele>1575.74</ele>
        <time>2016-07-22T09:47:04Z</time>
      </trkpt>
      <trkpt lat="45.64259" lon="6.58305">
        <ele>1576.22</ele>
        <time>2016-07-22T09:47:13Z</time>
      </trkpt>
      <trkpt lat="45.64262" lon="6.58316">
        <ele>1577.66</ele>
        <time>2016-07-22T09:47:22Z</time>
      </trkpt>
      <trkpt lat="45.64254" lon="6.58315">
        <ele>1578.62</ele>
        <time>2016-07-22T09:47:31Z</time>
      </trkpt>
      <trkpt lat="45.64258" lon="6.58331">
        <ele>1578.62</ele>
        <time>2016-07-22T09:48:21Z</time>
      </trkpt>
      <trkpt lat="45.64267" lon="6.58339">
        <ele>1579.58</ele>
        <time>2016-07-22T09:48:29Z</time>
      </trkpt>
      <trkpt lat="45.6428" lon="6.58341">
        <ele>1580.54</ele>
        <time>2016-07-22T09:48:39Z</time>
      </trkpt>
      <trkpt lat="45.64292" lon="6.5834">
        <ele>1580.54</ele>
        <time>2016-07-22T09:48:46Z</time>
      </trkpt>
      <trkpt lat="45.64302" lon="6.58336">
        <ele>1578.14</ele>
        <time>2016-07-22T09:48:53Z</time>
      </trkpt>
      <trkpt lat="45.64311" lon="6.5833">
        <ele>1577.18</ele>
        <time>2016-07-22T09:49:01Z</time>
      </trkpt>
      <trkpt lat="45.64323" lon="6.5833">
        <ele>1577.18</ele>
        <time>2016-07-22T09:49:09Z</time>
      </trkpt>
      <trkpt lat="45.64331" lon="6.58336">
        <ele>1576.7</ele>
        <time>2016-07-22T09:49:16Z</time>
      </trkpt>
      <trkpt lat="45.64343" lon="6.58337">
        <ele>1575.74</ele>
        <time>2016-07-22T09:49:29Z</time>
      </trkpt>
      <trkpt lat="45.64336" lon="6.58337">
        <ele>1574.78</ele>
        <time>2016-07-22T09:49:39Z</time>
      </trkpt>
      <trkpt lat="45.64328" lon="6.5833">
        <ele>1576.7</ele>
        <time>2016-07-22T09:49:46Z</time>
      </trkpt>
      <trkpt lat="45.64332" lon="6.58334">
        <ele>1576.7</ele>
        <time>2016-07-22T09:49:58Z</time>
      </trkpt>
      <trkpt lat="45.64341" lon="6.58336">
        <ele>1575.26</ele>
        <time>2016-07-22T09:50:04Z</time>
      </trkpt>
      <trkpt lat="45.64351" lon="6.58334">
        <ele>1574.78</ele>
        <time>2016-07-22T09:50:12Z</time>
      </trkpt>
      <trkpt lat="45.6436" lon="6.58331">
        <ele>1573.82</ele>
        <time>2016-07-22T09:50:19Z</time>
      </trkpt>
      <trkpt lat="45.64375" lon="6.58323">
        <ele>1571.89</ele>
        <time>2016-07-22T09:50:31Z</time>
      </trkpt>
      <trkpt lat="45.64389" lon="6.58314">
        <ele>1570.45</ele>
        <time>2016-07-22T09:50:39Z</time>
      </trkpt>
      <trkpt lat="45.64401" lon="6.5831">
        <ele>1569.97</ele>
        <time>2016-07-22T09:50:54Z</time>
      </trkpt>
      <trkpt lat="45.6441" lon="6.58306">
        <ele>1569.01</ele>
        <time>2016-07-22T09:51:02Z</time>
      </trkpt>
      <trkpt lat="45.6442" lon="6.58309">
        <ele>1568.53</ele>
        <time>2016-07-22T09:51:10Z</time>
      </trkpt>
      <trkpt lat="45.64429" lon="6.58308">
        <ele>1568.05</ele>
        <time>2016-07-22T09:51:17Z</time>
      </trkpt>
      <trkpt lat="45.64439" lon="6.58307">
        <ele>1567.57</ele>
        <time>2016-07-22T09:51:24Z</time>
      </trkpt>
      <trkpt lat="45.6445" lon="6.58309">
        <ele>1567.09</ele>
        <time>2016-07-22T09:51:31Z</time>
      </trkpt>
      <trkpt lat="45.6446" lon="6.58311">
        <ele>1566.61</ele>
        <time>2016-07-22T09:51:38Z</time>
      </trkpt>
      <trkpt lat="45.6447" lon="6.58313">
        <ele>1566.61</ele>
        <time>2016-07-22T09:51:46Z</time>
      </trkpt>
      <trkpt lat="45.64479" lon="6.58315">
        <ele>1566.12</ele>
        <time>2016-07-22T09:51:54Z</time>
      </trkpt>
      <trkpt lat="45.6449" lon="6.58318">
        <ele>1564.68</ele>
        <time>2016-07-22T09:52:02Z</time>
      </trkpt>
      <trkpt lat="45.64501" lon="6.58315">
        <ele>1564.2</ele>
        <time>2016-07-22T09:52:11Z</time>
      </trkpt>
      <trkpt lat="45.64512" lon="6.58317">
        <ele>1563.72</ele>
        <time>2016-07-22T09:52:18Z</time>
      </trkpt>
      <trkpt lat="45.64523" lon="6.58315">
        <ele>1563.72</ele>
        <time>2016-07-22T09:52:26Z</time>
      </trkpt>
      <trkpt lat="45.64535" lon="6.58314">
        <ele>1565.64</ele>
        <time>2016-07-22T09:52:35Z</time>
      </trkpt>
      <trkpt lat="45.64548" lon="6.58315">
        <ele>1565.16</ele>
        <time>2016-07-22T09:52:43Z</time>
      </trkpt>
      <trkpt lat="45.64558" lon="6.58318">
        <ele>1565.16</ele>
        <time>2016-07-22T09:52:51Z</time>
      </trkpt>
      <trkpt lat="45.6457" lon="6.58317">
        <ele>1565.16</ele>
        <time>2016-07-22T09:52:59Z</time>
      </trkpt>
      <trkpt lat="45.6458" lon="6.58321">
        <ele>1563.72</ele>
        <time>2016-07-22T09:53:06Z</time>
      </trkpt>
      <trkpt lat="45.64589" lon="6.5833">
        <ele>1563.24</ele>
        <time>2016-07-22T09:53:13Z</time>
      </trkpt>
      <trkpt lat="45.64599" lon="6.58337">
        <ele>1563.24</ele>
        <time>2016-07-22T09:53:20Z</time>
      </trkpt>
      <trkpt lat="45.64616" lon="6.58333">
        <ele>1562.76</ele>
        <time>2016-07-22T09:53:27Z</time>
      </trkpt>
      <trkpt lat="45.64627" lon="6.58327">
        <ele>1562.76</ele>
        <time>2016-07-22T09:53:34Z</time>
      </trkpt>
      <trkpt lat="45.64636" lon="6.58331">
        <ele>1562.76</ele>
        <time>2016-07-22T09:53:41Z</time>
      </trkpt>
      <trkpt lat="45.64642" lon="6.58341">
        <ele>1562.76</ele>
        <time>2016-07-22T09:53:48Z</time>
      </trkpt>
      <trkpt lat="45.64648" lon="6.58352">
        <ele>1563.72</ele>
        <time>2016-07-22T09:53:55Z</time>
      </trkpt>
      <trkpt lat="45.64652" lon="6.58365">
        <ele>1565.16</ele>
        <time>2016-07-22T09:54:03Z</time>
      </trkpt>
      <trkpt lat="45.64649" lon="6.58376">
        <ele>1565.16</ele>
        <time>2016-07-22T09:54:11Z</time>
      </trkpt>
      <trkpt lat="45.6465" lon="6.58389">
        <ele>1565.16</ele>
        <time>2016-07-22T09:54:18Z</time>
      </trkpt>
      <trkpt lat="45.64656" lon="6.58401">
        <ele>1564.68</ele>
        <time>2016-07-22T09:54:26Z</time>
      </trkpt>
      <trkpt lat="45.64661" lon="6.58414">
        <ele>1564.68</ele>
        <time>2016-07-22T09:54:34Z</time>
      </trkpt>
      <trkpt lat="45.64668" lon="6.58425">
        <ele>1564.68</ele>
        <time>2016-07-22T09:54:41Z</time>
      </trkpt>
      <trkpt lat="45.64675" lon="6.58436">
        <ele>1564.68</ele>
        <time>2016-07-22T09:54:48Z</time>
      </trkpt>
      <trkpt lat="45.64683" lon="6.58448">
        <ele>1563.24</ele>
        <time>2016-07-22T09:54:55Z</time>
      </trkpt>
      <trkpt lat="45.6469" lon="6.58459">
        <ele>1562.28</ele>
        <time>2016-07-22T09:55:02Z</time>
      </trkpt>
      <trkpt lat="45.64699" lon="6.58469">
        <ele>1561.8</ele>
        <time>2016-07-22T09:55:08Z</time>
      </trkpt>
      <trkpt lat="45.64711" lon="6.5848">
        <ele>1561.8</ele>
        <time>2016-07-22T09:55:16Z</time>
      </trkpt>
      <trkpt lat="45.64729" lon="6.58494">
        <ele>1560.84</ele>
        <time>2016-07-22T09:59:35Z</time>
      </trkpt>
      <trkpt lat="45.64726" lon="6.58502">
        <ele>1559.88</ele>
        <time>2016-07-22T10:00:11Z</time>
      </trkpt>
      <trkpt lat="45.64729" lon="6.58505">
        <ele>1559.4</ele>
        <time>2016-07-22T10:00:36Z</time>
      </trkpt>
      <trkpt lat="45.64726" lon="6.58488">
        <ele>1557.95</ele>
        <time>2016-07-22T10:05:16Z</time>
      </trkpt>
      <trkpt lat="45.64719" lon="6.58488">
        <ele>1558.92</ele>
        <time>2016-07-22T10:05:37Z</time>
      </trkpt>
      <trkpt lat="45.64729" lon="6.58492">
        <ele>1557.95</ele>
        <time>2016-07-22T10:08:12Z</time>
      </trkpt>
      <trkpt lat="45.64731" lon="6.58488">
        <ele>1559.4</ele>
        <time>2016-07-22T10:08:55Z</time>
      </trkpt>
      <trkpt lat="45.64743" lon="6.58486">
        <ele>1559.4</ele>
        <time>2016-07-22T10:09:03Z</time>
      </trkpt>
      <trkpt lat="45.64752" lon="6.58481">
        <ele>1559.4</ele>
        <time>2016-07-22T10:09:10Z</time>
      </trkpt>
      <trkpt lat="45.6476" lon="6.58471">
        <ele>1559.4</ele>
        <time>2016-07-22T10:09:19Z</time>
      </trkpt>
      <trkpt lat="45.64769" lon="6.58457">
        <ele>1557.95</ele>
        <time>2016-07-22T10:09:27Z</time>
      </trkpt>
      <trkpt lat="45.64775" lon="6.58449">
        <ele>1556.99</ele>
        <time>2016-07-22T10:09:34Z</time>
      </trkpt>
      <trkpt lat="45.64782" lon="6.5844">
        <ele>1557.47</ele>
        <time>2016-07-22T10:09:41Z</time>
      </trkpt>
      <trkpt lat="45.64789" lon="6.5843">
        <ele>1557.47</ele>
        <time>2016-07-22T10:09:49Z</time>
      </trkpt>
      <trkpt lat="45.64796" lon="6.58418">
        <ele>1558.43</ele>
        <time>2016-07-22T10:09:56Z</time>
      </trkpt>
      <trkpt lat="45.64804" lon="6.58409">
        <ele>1558.43</ele>
        <time>2016-07-22T10:10:03Z</time>
      </trkpt>
      <trkpt lat="45.64812" lon="6.58401">
        <ele>1558.92</ele>
        <time>2016-07-22T10:10:10Z</time>
      </trkpt>
      <trkpt lat="45.64821" lon="6.58395">
        <ele>1559.88</ele>
        <time>2016-07-22T10:10:17Z</time>
      </trkpt>
      <trkpt lat="45.64831" lon="6.5839">
        <ele>1560.84</ele>
        <time>2016-07-22T10:10:24Z</time>
      </trkpt>
      <trkpt lat="45.64842" lon="6.58387">
        <ele>1561.8</ele>
        <time>2016-07-22T10:10:33Z</time>
      </trkpt>
      <trkpt lat="45.6485" lon="6.58379">
        <ele>1562.28</ele>
        <time>2016-07-22T10:10:41Z</time>
      </trkpt>
      <trkpt lat="45.64859" lon="6.58378">
        <ele>1563.24</ele>
        <time>2016-07-22T10:10:50Z</time>
      </trkpt>
      <trkpt lat="45.64871" lon="6.58381">
        <ele>1564.68</ele>
        <time>2016-07-22T10:10:59Z</time>
      </trkpt>
      <trkpt lat="45.64881" lon="6.58385">
        <ele>1565.64</ele>
        <time>2016-07-22T10:11:06Z</time>
      </trkpt>
      <trkpt lat="45.64891" lon="6.58387">
        <ele>1566.61</ele>
        <time>2016-07-22T10:11:13Z</time>
      </trkpt>
      <trkpt lat="45.64899" lon="6.58393">
        <ele>1567.09</ele>
        <time>2016-07-22T10:11:19Z</time>
      </trkpt>
      <trkpt lat="45.64909" lon="6.58394">
        <ele>1567.57</ele>
        <time>2016-07-22T10:11:24Z</time>
      </trkpt>
      <trkpt lat="45.64918" lon="6.58394">
        <ele>1568.53</ele>
        <time>2016-07-22T10:11:31Z</time>
      </trkpt>
      <trkpt lat="45.64928" lon="6.58394">
        <ele>1569.49</ele>
        <time>2016-07-22T10:11:38Z</time>
      </trkpt>
      <trkpt lat="45.64938" lon="6.58398">
        <ele>1570.45</ele>
        <time>2016-07-22T10:11:45Z</time>
      </trkpt>
      <trkpt lat="45.64946" lon="6.58399">
        <ele>1571.89</ele>
        <time>2016-07-22T10:11:52Z</time>
      </trkpt>
      <trkpt lat="45.64955" lon="6.58397">
        <ele>1572.85</ele>
        <time>2016-07-22T10:12:00Z</time>
      </trkpt>
      <trkpt lat="45.64965" lon="6.58394">
        <ele>1574.78</ele>
        <time>2016-07-22T10:12:08Z</time>
      </trkpt>
      <trkpt lat="45.64975" lon="6.58391">
        <ele>1574.78</ele>
        <time>2016-07-22T10:12:15Z</time>
      </trkpt>
      <trkpt lat="45.64987" lon="6.58387">
        <ele>1575.74</ele>
        <time>2016-07-22T10:12:22Z</time>
      </trkpt>
      <trkpt lat="45.64996" lon="6.58393">
        <ele>1576.22</ele>
        <time>2016-07-22T10:12:29Z</time>
      </trkpt>
      <trkpt lat="45.65" lon="6.58404">
        <ele>1577.18</ele>
        <time>2016-07-22T10:12:38Z</time>
      </trkpt>
      <trkpt lat="45.65007" lon="6.58418">
        <ele>1577.18</ele>
        <time>2016-07-22T10:12:46Z</time>
      </trkpt>
      <trkpt lat="45.65014" lon="6.58433">
        <ele>1577.18</ele>
        <time>2016-07-22T10:12:54Z</time>
      </trkpt>
      <trkpt lat="45.65021" lon="6.58442">
        <ele>1577.18</ele>
        <time>2016-07-22T10:13:01Z</time>
      </trkpt>
      <trkpt lat="45.65034" lon="6.58446">
        <ele>1577.18</ele>
        <time>2016-07-22T10:13:24Z</time>
      </trkpt>
      <trkpt lat="45.65043" lon="6.58437">
        <ele>1577.18</ele>
        <time>2016-07-22T10:13:32Z</time>
      </trkpt>
      <trkpt lat="45.65049" lon="6.58422">
        <ele>1577.18</ele>
        <time>2016-07-22T10:13:39Z</time>
      </trkpt>
      <trkpt lat="45.65053" lon="6.58409">
        <ele>1577.18</ele>
        <time>2016-07-22T10:13:46Z</time>
      </trkpt>
      <trkpt lat="45.65059" lon="6.58396">
        <ele>1577.18</ele>
        <time>2016-07-22T10:13:53Z</time>
      </trkpt>
      <trkpt lat="45.65066" lon="6.58383">
        <ele>1577.18</ele>
        <time>2016-07-22T10:14:00Z</time>
      </trkpt>
      <trkpt lat="45.65068" lon="6.58369">
        <ele>1577.18</ele>
        <time>2016-07-22T10:14:07Z</time>
      </trkpt>
      <trkpt lat="45.6507" lon="6.58354">
        <ele>1576.22</ele>
        <time>2016-07-22T10:14:14Z</time>
      </trkpt>
      <trkpt lat="45.6507" lon="6.5834">
        <ele>1576.22</ele>
        <time>2016-07-22T10:14:21Z</time>
      </trkpt>
      <trkpt lat="45.65072" lon="6.58326">
        <ele>1575.74</ele>
        <time>2016-07-22T10:14:28Z</time>
      </trkpt>
      <trkpt lat="45.65078" lon="6.58314">
        <ele>1575.26</ele>
        <time>2016-07-22T10:14:35Z</time>
      </trkpt>
      <trkpt lat="45.65085" lon="6.58303">
        <ele>1574.78</ele>
        <time>2016-07-22T10:14:42Z</time>
      </trkpt>
      <trkpt lat="45.65092" lon="6.58291">
        <ele>1574.3</ele>
        <time>2016-07-22T10:14:49Z</time>
      </trkpt>
      <trkpt lat="45.65099" lon="6.5828">
        <ele>1574.3</ele>
        <time>2016-07-22T10:14:57Z</time>
      </trkpt>
      <trkpt lat="45.65104" lon="6.58269">
        <ele>1574.3</ele>
        <time>2016-07-22T10:15:04Z</time>
      </trkpt>
      <trkpt lat="45.65101" lon="6.58255">
        <ele>1573.82</ele>
        <time>2016-07-22T10:15:11Z</time>
      </trkpt>
      <trkpt lat="45.65099" lon="6.58242">
        <ele>1572.37</ele>
        <time>2016-07-22T10:15:18Z</time>
      </trkpt>
      <trkpt lat="45.65097" lon="6.58228">
        <ele>1571.89</ele>
        <time>2016-07-22T10:15:25Z</time>
      </trkpt>
      <trkpt lat="45.65097" lon="6.58213">
        <ele>1570.93</ele>
        <time>2016-07-22T10:15:37Z</time>
      </trkpt>
      <trkpt lat="45.65096" lon="6.58198">
        <ele>1570.45</ele>
        <time>2016-07-22T10:15:44Z</time>
      </trkpt>
      <trkpt lat="45.65093" lon="6.58186">
        <ele>1569.97</ele>
        <time>2016-07-22T10:15:50Z</time>
      </trkpt>
      <trkpt lat="45.65089" lon="6.58172">
        <ele>1569.49</ele>
        <time>2016-07-22T10:15:57Z</time>
      </trkpt>
      <trkpt lat="45.65084" lon="6.58159">
        <ele>1569.01</ele>
        <time>2016-07-22T10:16:04Z</time>
      </trkpt>
      <trkpt lat="45.65079" lon="6.58145">
        <ele>1568.05</ele>
        <time>2016-07-22T10:16:11Z</time>
      </trkpt>
      <trkpt lat="45.65074" lon="6.58131">
        <ele>1566.61</ele>
        <time>2016-07-22T10:16:19Z</time>
      </trkpt>
      <trkpt lat="45.65069" lon="6.58117">
        <ele>1566.12</ele>
        <time>2016-07-22T10:16:26Z</time>
      </trkpt>
      <trkpt lat="45.65065" lon="6.58104">
        <ele>1564.68</ele>
        <time>2016-07-22T10:16:33Z</time>
      </trkpt>
      <trkpt lat="45.65061" lon="6.5809">
        <ele>1564.2</ele>
        <time>2016-07-22T10:16:39Z</time>
      </trkpt>
      <trkpt lat="45.65059" lon="6.58076">
        <ele>1563.24</ele>
        <time>2016-07-22T10:16:46Z</time>
      </trkpt>
      <trkpt lat="45.6506" lon="6.58059">
        <ele>1561.8</ele>
        <time>2016-07-22T10:16:53Z</time>
      </trkpt>
      <trkpt lat="45.65054" lon="6.58047">
        <ele>1563.72</ele>
        <time>2016-07-22T10:17:04Z</time>
      </trkpt>
      <trkpt lat="45.65047" lon="6.58037">
        <ele>1563.72</ele>
        <time>2016-07-22T10:17:11Z</time>
      </trkpt>
      <trkpt lat="45.65039" lon="6.58026">
        <ele>1562.28</ele>
        <time>2016-07-22T10:17:18Z</time>
      </trkpt>
      <trkpt lat="45.65032" lon="6.58016">
        <ele>1562.28</ele>
        <time>2016-07-22T10:17:24Z</time>
      </trkpt>
      <trkpt lat="45.65026" lon="6.58005">
        <ele>1562.28</ele>
        <time>2016-07-22T10:17:30Z</time>
      </trkpt>
      <trkpt lat="45.65021" lon="6.57993">
        <ele>1562.28</ele>
        <time>2016-07-22T10:17:36Z</time>
      </trkpt>
      <trkpt lat="45.65016" lon="6.57979">
        <ele>1562.28</ele>
        <time>2016-07-22T10:17:43Z</time>
      </trkpt>
      <trkpt lat="45.65013" lon="6.57966">
        <ele>1561.8</ele>
        <time>2016-07-22T10:17:49Z</time>
      </trkpt>
      <trkpt lat="45.6501" lon="6.57951">
        <ele>1561.8</ele>
        <time>2016-07-22T10:17:56Z</time>
      </trkpt>
      <trkpt lat="45.65009" lon="6.57936">
        <ele>1561.8</ele>
        <time>2016-07-22T10:18:03Z</time>
      </trkpt>
      <trkpt lat="45.65009" lon="6.57919">
        <ele>1561.8</ele>
        <time>2016-07-22T10:18:10Z</time>
      </trkpt>
      <trkpt lat="45.6501" lon="6.57904">
        <ele>1561.8</ele>
        <time>2016-07-22T10:18:17Z</time>
      </trkpt>
      <trkpt lat="45.65013" lon="6.57889">
        <ele>1561.8</ele>
        <time>2016-07-22T10:18:24Z</time>
      </trkpt>
      <trkpt lat="45.65015" lon="6.57873">
        <ele>1561.8</ele>
        <time>2016-07-22T10:18:31Z</time>
      </trkpt>
      <trkpt lat="45.6502" lon="6.57857">
        <ele>1561.8</ele>
        <time>2016-07-22T10:18:39Z</time>
      </trkpt>
      <trkpt lat="45.65026" lon="6.57844">
        <ele>1561.8</ele>
        <time>2016-07-22T10:18:46Z</time>
      </trkpt>
      <trkpt lat="45.65033" lon="6.57829">
        <ele>1561.8</ele>
        <time>2016-07-22T10:18:54Z</time>
      </trkpt>
      <trkpt lat="45.65041" lon="6.57815">
        <ele>1561.8</ele>
        <time>2016-07-22T10:19:03Z</time>
      </trkpt>
      <trkpt lat="45.65049" lon="6.57804">
        <ele>1561.8</ele>
        <time>2016-07-22T10:19:12Z</time>
      </trkpt>
      <trkpt lat="45.65057" lon="6.57793">
        <ele>1561.8</ele>
        <time>2016-07-22T10:20:03Z</time>
      </trkpt>
      <trkpt lat="45.65058" lon="6.57791">
        <ele>1562.28</ele>
        <time>2016-07-22T10:20:56Z</time>
      </trkpt>
      <trkpt lat="45.6505" lon="6.57793">
        <ele>1562.28</ele>
        <time>2016-07-22T10:21:27Z</time>
      </trkpt>
      <trkpt lat="45.65053" lon="6.5779">
        <ele>1562.28</ele>
        <time>2016-07-22T10:22:15Z</time>
      </trkpt>
      <trkpt lat="45.65046" lon="6.57794">
        <ele>1562.28</ele>
        <time>2016-07-22T10:23:22Z</time>
      </trkpt>
      <trkpt lat="45.65037" lon="6.57789">
        <ele>1562.28</ele>
        <time>2016-07-22T10:23:28Z</time>
      </trkpt>
      <trkpt lat="45.65027" lon="6.57786">
        <ele>1562.28</ele>
        <time>2016-07-22T10:23:35Z</time>
      </trkpt>
      <trkpt lat="45.65017" lon="6.57783">
        <ele>1562.28</ele>
        <time>2016-07-22T10:23:42Z</time>
      </trkpt>
      <trkpt lat="45.65006" lon="6.5778">
        <ele>1562.76</ele>
        <time>2016-07-22T10:23:50Z</time>
      </trkpt>
      <trkpt lat="45.64996" lon="6.57776">
        <ele>1562.76</ele>
        <time>2016-07-22T10:23:58Z</time>
      </trkpt>
      <trkpt lat="45.64987" lon="6.57776">
        <ele>1562.76</ele>
        <time>2016-07-22T10:24:05Z</time>
      </trkpt>
      <trkpt lat="45.64976" lon="6.57775">
        <ele>1562.76</ele>
        <time>2016-07-22T10:24:13Z</time>
      </trkpt>
      <trkpt lat="45.64966" lon="6.57773">
        <ele>1562.76</ele>
        <time>2016-07-22T10:24:21Z</time>
      </trkpt>
      <trkpt lat="45.64954" lon="6.57772">
        <ele>1562.28</ele>
        <time>2016-07-22T10:24:29Z</time>
      </trkpt>
      <trkpt lat="45.64943" lon="6.57769">
        <ele>1562.28</ele>
        <time>2016-07-22T10:24:36Z</time>
      </trkpt>
      <trkpt lat="45.64934" lon="6.57764">
        <ele>1562.28</ele>
        <time>2016-07-22T10:24:43Z</time>
      </trkpt>
      <trkpt lat="45.64924" lon="6.5776">
        <ele>1562.76</ele>
        <time>2016-07-22T10:24:49Z</time>
      </trkpt>
      <trkpt lat="45.64913" lon="6.57759">
        <ele>1563.24</ele>
        <time>2016-07-22T10:24:56Z</time>
      </trkpt>
      <trkpt lat="45.64903" lon="6.57754">
        <ele>1563.72</ele>
        <time>2016-07-22T10:25:03Z</time>
      </trkpt>
      <trkpt lat="45.64892" lon="6.5775">
        <ele>1564.2</ele>
        <time>2016-07-22T10:25:11Z</time>
      </trkpt>
      <trkpt lat="45.64882" lon="6.57747">
        <ele>1564.68</ele>
        <time>2016-07-22T10:25:18Z</time>
      </trkpt>
      <trkpt lat="45.64871" lon="6.57745">
        <ele>1564.68</ele>
        <time>2016-07-22T10:25:25Z</time>
      </trkpt>
      <trkpt lat="45.64861" lon="6.57742">
        <ele>1565.16</ele>
        <time>2016-07-22T10:25:32Z</time>
      </trkpt>
      <trkpt lat="45.64851" lon="6.5774">
        <ele>1565.64</ele>
        <time>2016-07-22T10:25:39Z</time>
      </trkpt>
      <trkpt lat="45.64839" lon="6.57737">
        <ele>1566.12</ele>
        <time>2016-07-22T10:25:46Z</time>
      </trkpt>
      <trkpt lat="45.6483" lon="6.57736">
        <ele>1566.12</ele>
        <time>2016-07-22T10:25:53Z</time>
      </trkpt>
      <trkpt lat="45.64817" lon="6.57736">
        <ele>1567.09</ele>
        <time>2016-07-22T10:26:00Z</time>
      </trkpt>
      <trkpt lat="45.64806" lon="6.57739">
        <ele>1567.57</ele>
        <time>2016-07-22T10:26:07Z</time>
      </trkpt>
      <trkpt lat="45.64793" lon="6.57744">
        <ele>1567.57</ele>
        <time>2016-07-22T10:26:14Z</time>
      </trkpt>
      <trkpt lat="45.64782" lon="6.57747">
        <ele>1567.57</ele>
        <time>2016-07-22T10:26:21Z</time>
      </trkpt>
      <trkpt lat="45.64772" lon="6.57745">
        <ele>1567.57</ele>
        <time>2016-07-22T10:26:28Z</time>
      </trkpt>
      <trkpt lat="45.64762" lon="6.57741">
        <ele>1567.57</ele>
        <time>2016-07-22T10:26:35Z</time>
      </trkpt>
      <trkpt lat="45.64751" lon="6.57739">
        <ele>1566.12</ele>
        <time>2016-07-22T10:26:42Z</time>
      </trkpt>
      <trkpt lat="45.64741" lon="6.57737">
        <ele>1565.16</ele>
        <time>2016-07-22T10:26:48Z</time>
      </trkpt>
      <trkpt lat="45.6473" lon="6.57739">
        <ele>1564.68</ele>
        <time>2016-07-22T10:26:54Z</time>
      </trkpt>
      <trkpt lat="45.64719" lon="6.57739">
        <ele>1564.68</ele>
        <time>2016-07-22T10:27:01Z</time>
      </trkpt>
      <trkpt lat="45.64709" lon="6.57736">
        <ele>1563.72</ele>
        <time>2016-07-22T10:27:09Z</time>
      </trkpt>
      <trkpt lat="45.64699" lon="6.57732">
        <ele>1563.24</ele>
        <time>2016-07-22T10:27:16Z</time>
      </trkpt>
      <trkpt lat="45.64689" lon="6.57732">
        <ele>1565.16</ele>
        <time>2016-07-22T10:27:23Z</time>
      </trkpt>
      <trkpt lat="45.64676" lon="6.5773">
        <ele>1563.72</ele>
        <time>2016-07-22T10:27:30Z</time>
      </trkpt>
      <trkpt lat="45.64665" lon="6.57731">
        <ele>1563.24</ele>
        <time>2016-07-22T10:27:37Z</time>
      </trkpt>
      <trkpt lat="45.64655" lon="6.57729">
        <ele>1563.24</ele>
        <time>2016-07-22T10:27:43Z</time>
      </trkpt>
      <trkpt lat="45.64645" lon="6.57728">
        <ele>1563.24</ele>
        <time>2016-07-22T10:27:50Z</time>
      </trkpt>
      <trkpt lat="45.64635" lon="6.57723">
        <ele>1563.24</ele>
        <time>2016-07-22T10:27:57Z</time>
      </trkpt>
      <trkpt lat="45.64625" lon="6.57723">
        <ele>1562.76</ele>
        <time>2016-07-22T10:28:04Z</time>
      </trkpt>
      <trkpt lat="45.64615" lon="6.57722">
        <ele>1562.28</ele>
        <time>2016-07-22T10:28:12Z</time>
      </trkpt>
      <trkpt lat="45.64603" lon="6.57722">
        <ele>1562.28</ele>
        <time>2016-07-22T10:28:19Z</time>
      </trkpt>
      <trkpt lat="45.64592" lon="6.57723">
        <ele>1561.8</ele>
        <time>2016-07-22T10:28:26Z</time>
      </trkpt>
      <trkpt lat="45.6458" lon="6.57723">
        <ele>1561.8</ele>
        <time>2016-07-22T10:28:35Z</time>
      </trkpt>
      <trkpt lat="45.64571" lon="6.5772">
        <ele>1561.8</ele>
        <time>2016-07-22T10:28:43Z</time>
      </trkpt>
      <trkpt lat="45.64561" lon="6.57717">
        <ele>1561.8</ele>
        <time>2016-07-22T10:28:50Z</time>
      </trkpt>
      <trkpt lat="45.6455" lon="6.57716">
        <ele>1561.32</ele>
        <time>2016-07-22T10:28:57Z</time>
      </trkpt>
      <trkpt lat="45.6454" lon="6.57712">
        <ele>1561.32</ele>
        <time>2016-07-22T10:29:05Z</time>
      </trkpt>
      <trkpt lat="45.6453" lon="6.57708">
        <ele>1561.32</ele>
        <time>2016-07-22T10:29:12Z</time>
      </trkpt>
      <trkpt lat="45.64519" lon="6.57707">
        <ele>1561.32</ele>
        <time>2016-07-22T10:29:19Z</time>
      </trkpt>
      <trkpt lat="45.64508" lon="6.57703">
        <ele>1561.32</ele>
        <time>2016-07-22T10:29:27Z</time>
      </trkpt>
      <trkpt lat="45.64497" lon="6.57699">
        <ele>1561.32</ele>
        <time>2016-07-22T10:29:35Z</time>
      </trkpt>
      <trkpt lat="45.64486" lon="6.57696">
        <ele>1562.28</ele>
        <time>2016-07-22T10:29:42Z</time>
      </trkpt>
      <trkpt lat="45.64475" lon="6.57695">
        <ele>1562.28</ele>
        <time>2016-07-22T10:29:50Z</time>
      </trkpt>
      <trkpt lat="45.64464" lon="6.57695">
        <ele>1562.76</ele>
        <time>2016-07-22T10:29:57Z</time>
      </trkpt>
      <trkpt lat="45.64453" lon="6.57695">
        <ele>1563.24</ele>
        <time>2016-07-22T10:30:05Z</time>
      </trkpt>
      <trkpt lat="45.6444" lon="6.57691">
        <ele>1563.24</ele>
        <time>2016-07-22T10:30:14Z</time>
      </trkpt>
      <trkpt lat="45.64426" lon="6.5769">
        <ele>1563.72</ele>
        <time>2016-07-22T10:30:23Z</time>
      </trkpt>
      <trkpt lat="45.64413" lon="6.5769">
        <ele>1563.72</ele>
        <time>2016-07-22T10:30:31Z</time>
      </trkpt>
      <trkpt lat="45.64401" lon="6.57688">
        <ele>1563.72</ele>
        <time>2016-07-22T10:30:39Z</time>
      </trkpt>
      <trkpt lat="45.64392" lon="6.57684">
        <ele>1564.2</ele>
        <time>2016-07-22T10:30:47Z</time>
      </trkpt>
      <trkpt lat="45.6438" lon="6.57685">
        <ele>1564.68</ele>
        <time>2016-07-22T10:30:54Z</time>
      </trkpt>
      <trkpt lat="45.64367" lon="6.57685">
        <ele>1564.68</ele>
        <time>2016-07-22T10:31:01Z</time>
      </trkpt>
      <trkpt lat="45.64354" lon="6.57682">
        <ele>1564.68</ele>
        <time>2016-07-22T10:31:09Z</time>
      </trkpt>
      <trkpt lat="45.64338" lon="6.57677">
        <ele>1564.68</ele>
        <time>2016-07-22T10:31:17Z</time>
      </trkpt>
      <trkpt lat="45.64326" lon="6.57672">
        <ele>1564.68</ele>
        <time>2016-07-22T10:31:25Z</time>
      </trkpt>
      <trkpt lat="45.64314" lon="6.57669">
        <ele>1564.68</ele>
        <time>2016-07-22T10:31:37Z</time>
      </trkpt>
      <trkpt lat="45.64299" lon="6.57661">
        <ele>1563.24</ele>
        <time>2016-07-22T10:31:45Z</time>
      </trkpt>
      <trkpt lat="45.64284" lon="6.57654">
        <ele>1562.76</ele>
        <time>2016-07-22T10:31:54Z</time>
      </trkpt>
      <trkpt lat="45.64274" lon="6.57648">
        <ele>1562.76</ele>
        <time>2016-07-22T10:32:01Z</time>
      </trkpt>
      <trkpt lat="45.64262" lon="6.57642">
        <ele>1562.76</ele>
        <time>2016-07-22T10:32:08Z</time>
      </trkpt>
      <trkpt lat="45.64251" lon="6.57638">
        <ele>1562.76</ele>
        <time>2016-07-22T10:32:15Z</time>
      </trkpt>
      <trkpt lat="45.64241" lon="6.57632">
        <ele>1562.76</ele>
        <time>2016-07-22T10:32:23Z</time>
      </trkpt>
      <trkpt lat="45.64234" lon="6.57622">
        <ele>1562.76</ele>
        <time>2016-07-22T10:32:30Z</time>
      </trkpt>
      <trkpt lat="45.64223" lon="6.57615">
        <ele>1562.28</ele>
        <time>2016-07-22T10:32:36Z</time>
      </trkpt>
      <trkpt lat="45.64214" lon="6.57605">
        <ele>1562.28</ele>
        <time>2016-07-22T10:32:43Z</time>
      </trkpt>
      <trkpt lat="45.64205" lon="6.57599">
        <ele>1562.28</ele>
        <time>2016-07-22T10:32:51Z</time>
      </trkpt>
      <trkpt lat="45.64195" lon="6.57593">
        <ele>1563.72</ele>
        <time>2016-07-22T10:32:59Z</time>
      </trkpt>
      <trkpt lat="45.64186" lon="6.57588">
        <ele>1563.72</ele>
        <time>2016-07-22T10:33:05Z</time>
      </trkpt>
      <trkpt lat="45.64175" lon="6.57585">
        <ele>1564.68</ele>
        <time>2016-07-22T10:33:18Z</time>
      </trkpt>
      <trkpt lat="45.64163" lon="6.57589">
        <ele>1564.68</ele>
        <time>2016-07-22T10:33:26Z</time>
      </trkpt>
      <trkpt lat="45.64154" lon="6.57586">
        <ele>1566.61</ele>
        <time>2016-07-22T10:33:37Z</time>
      </trkpt>
      <trkpt lat="45.64144" lon="6.5758">
        <ele>1569.01</ele>
        <time>2016-07-22T10:33:50Z</time>
      </trkpt>
      <trkpt lat="45.64155" lon="6.57575">
        <ele>1570.45</ele>
        <time>2016-07-22T10:37:13Z</time>
      </trkpt>
      <trkpt lat="45.64165" lon="6.57567">
        <ele>1569.97</ele>
        <time>2016-07-22T10:37:25Z</time>
      </trkpt>
      <trkpt lat="45.64175" lon="6.57558">
        <ele>1571.89</ele>
        <time>2016-07-22T10:37:37Z</time>
      </trkpt>
      <trkpt lat="45.64184" lon="6.5755">
        <ele>1574.3</ele>
        <time>2016-07-22T10:37:49Z</time>
      </trkpt>
      <trkpt lat="45.64193" lon="6.57543">
        <ele>1576.22</ele>
        <time>2016-07-22T10:38:00Z</time>
      </trkpt>
      <trkpt lat="45.64193" lon="6.5753">
        <ele>1579.1</ele>
        <time>2016-07-22T10:38:11Z</time>
      </trkpt>
      <trkpt lat="45.64196" lon="6.57514">
        <ele>1582.95</ele>
        <time>2016-07-22T10:38:29Z</time>
      </trkpt>
      <trkpt lat="45.64193" lon="6.575">
        <ele>1585.35</ele>
        <time>2016-07-22T10:39:43Z</time>
      </trkpt>
      <trkpt lat="45.64189" lon="6.57484">
        <ele>1588.24</ele>
        <time>2016-07-22T10:39:54Z</time>
      </trkpt>
      <trkpt lat="45.64181" lon="6.57472">
        <ele>1589.68</ele>
        <time>2016-07-22T10:40:02Z</time>
      </trkpt>
      <trkpt lat="45.64172" lon="6.57464">
        <ele>1590.16</ele>
        <time>2016-07-22T10:40:10Z</time>
      </trkpt>
      <trkpt lat="45.64163" lon="6.57459">
        <ele>1590.64</ele>
        <time>2016-07-22T10:40:16Z</time>
      </trkpt>
      <trkpt lat="45.64155" lon="6.5745">
        <ele>1592.08</ele>
        <time>2016-07-22T10:40:24Z</time>
      </trkpt>
      <trkpt lat="45.6415" lon="6.57438">
        <ele>1593.04</ele>
        <time>2016-07-22T10:40:32Z</time>
      </trkpt>
      <trkpt lat="45.64145" lon="6.57425">
        <ele>1594.96</ele>
        <time>2016-07-22T10:40:41Z</time>
      </trkpt>
      <trkpt lat="45.64138" lon="6.57414">
        <ele>1596.89</ele>
        <time>2016-07-22T10:40:50Z</time>
      </trkpt>
      <trkpt lat="45.6413" lon="6.57404">
        <ele>1598.33</ele>
        <time>2016-07-22T10:40:59Z</time>
      </trkpt>
      <trkpt lat="45.64124" lon="6.5739">
        <ele>1602.17</ele>
        <time>2016-07-22T10:41:13Z</time>
      </trkpt>
      <trkpt lat="45.64116" lon="6.5738">
        <ele>1604.1</ele>
        <time>2016-07-22T10:41:25Z</time>
      </trkpt>
      <trkpt lat="45.64116" lon="6.57365">
        <ele>1606.98</ele>
        <time>2016-07-22T10:41:39Z</time>
      </trkpt>
      <trkpt lat="45.64114" lon="6.57349">
        <ele>1608.9</ele>
        <time>2016-07-22T10:41:50Z</time>
      </trkpt>
      <trkpt lat="45.64117" lon="6.57334">
        <ele>1611.31</ele>
        <time>2016-07-22T10:42:02Z</time>
      </trkpt>
      <trkpt lat="45.6412" lon="6.57315">
        <ele>1615.15</ele>
        <time>2016-07-22T10:42:19Z</time>
      </trkpt>
      <trkpt lat="45.64121" lon="6.57295">
        <ele>1618.04</ele>
        <time>2016-07-22T10:42:36Z</time>
      </trkpt>
      <trkpt lat="45.64117" lon="6.5728">
        <ele>1620.44</ele>
        <time>2016-07-22T10:42:51Z</time>
      </trkpt>
      <trkpt lat="45.64116" lon="6.57261">
        <ele>1624.28</ele>
        <time>2016-07-22T10:43:13Z</time>
      </trkpt>
      <trkpt lat="45.64116" lon="6.57232">
        <ele>1630.05</ele>
        <time>2016-07-22T10:43:45Z</time>
      </trkpt>
      <trkpt lat="45.64111" lon="6.5722">
        <ele>1631.01</ele>
        <time>2016-07-22T10:43:58Z</time>
      </trkpt>
      <trkpt lat="45.64113" lon="6.57212">
        <ele>1633.42</ele>
        <time>2016-07-22T10:44:11Z</time>
      </trkpt>
      <trkpt lat="45.64114" lon="6.57196">
        <ele>1636.3</ele>
        <time>2016-07-22T10:44:29Z</time>
      </trkpt>
      <trkpt lat="45.64115" lon="6.57188">
        <ele>1638.7</ele>
        <time>2016-07-22T10:44:41Z</time>
      </trkpt>
      <trkpt lat="45.64137" lon="6.57156">
        <ele>1650.24</ele>
        <time>2016-07-22T10:45:41Z</time>
      </trkpt>
      <trkpt lat="45.64155" lon="6.57153">
        <ele>1655.53</ele>
        <time>2016-07-22T10:46:11Z</time>
      </trkpt>
      <trkpt lat="45.64156" lon="6.57133">
        <ele>1660.81</ele>
        <time>2016-07-22T10:46:44Z</time>
      </trkpt>
      <trkpt lat="45.64159" lon="6.57125">
        <ele>1664.66</ele>
        <time>2016-07-22T10:47:09Z</time>
      </trkpt>
      <trkpt lat="45.64151" lon="6.57113">
        <ele>1667.06</ele>
        <time>2016-07-22T10:47:23Z</time>
      </trkpt>
      <trkpt lat="45.64164" lon="6.57116">
        <ele>1670.43</ele>
        <time>2016-07-22T10:47:45Z</time>
      </trkpt>
      <trkpt lat="45.64249" lon="6.57154">
        <ele>1687.73</ele>
        <time>2016-07-22T10:49:48Z</time>
      </trkpt>
      <trkpt lat="45.64318" lon="6.57205">
        <ele>1697.83</ele>
        <time>2016-07-22T10:51:27Z</time>
      </trkpt>
      <trkpt lat="45.64335" lon="6.57225">
        <ele>1698.31</ele>
        <time>2016-07-22T10:51:47Z</time>
      </trkpt>
      <trkpt lat="45.64374" lon="6.57254">
        <ele>1706.48</ele>
        <time>2016-07-22T10:52:46Z</time>
      </trkpt>
      <trkpt lat="45.64422" lon="6.57297">
        <ele>1711.76</ele>
        <time>2016-07-22T10:53:50Z</time>
      </trkpt>
      <trkpt lat="45.64449" lon="6.57322">
        <ele>1717.05</ele>
        <time>2016-07-22T10:54:30Z</time>
      </trkpt>
      <trkpt lat="45.64475" lon="6.57335">
        <ele>1715.61</ele>
        <time>2016-07-22T10:54:51Z</time>
      </trkpt>
      <trkpt lat="45.64489" lon="6.57347">
        <ele>1715.61</ele>
        <time>2016-07-22T10:55:05Z</time>
      </trkpt>
      <trkpt lat="45.645" lon="6.57354">
        <ele>1717.05</ele>
        <time>2016-07-22T10:55:18Z</time>
      </trkpt>
      <trkpt lat="45.64539" lon="6.57348">
        <ele>1731.95</ele>
        <time>2016-07-22T10:56:45Z</time>
      </trkpt>
      <trkpt lat="45.64596" lon="6.57341">
        <ele>1748.29</ele>
        <time>2016-07-22T10:58:26Z</time>
      </trkpt>
      <trkpt lat="45.64615" lon="6.57344">
        <ele>1752.62</ele>
        <time>2016-07-22T10:58:54Z</time>
      </trkpt>
      <trkpt lat="45.64646" lon="6.57317">
        <ele>1769.92</ele>
        <time>2016-07-22T11:00:50Z</time>
      </trkpt>
      <trkpt lat="45.64672" lon="6.57315">
        <ele>1776.17</ele>
        <time>2016-07-22T11:01:23Z</time>
      </trkpt>
      <trkpt lat="45.64682" lon="6.57327">
        <ele>1777.13</ele>
        <time>2016-07-22T11:01:34Z</time>
      </trkpt>
      <trkpt lat="45.64693" lon="6.57337">
        <ele>1778.1</ele>
        <time>2016-07-22T11:01:43Z</time>
      </trkpt>
      <trkpt lat="45.64704" lon="6.57347">
        <ele>1778.58</ele>
        <time>2016-07-22T11:01:53Z</time>
      </trkpt>
      <trkpt lat="45.6473" lon="6.57362">
        <ele>1783.38</ele>
        <time>2016-07-22T11:02:20Z</time>
      </trkpt>
      <trkpt lat="45.64749" lon="6.57342">
        <ele>1791.55</ele>
        <time>2016-07-22T11:03:05Z</time>
      </trkpt>
      <trkpt lat="45.64842" lon="6.57329">
        <ele>1819.91</ele>
        <time>2016-07-22T11:05:49Z</time>
      </trkpt>
      <trkpt lat="45.6487" lon="6.57344">
        <ele>1825.68</ele>
        <time>2016-07-22T11:06:28Z</time>
      </trkpt>
      <trkpt lat="45.64888" lon="6.5734">
        <ele>1832.89</ele>
        <time>2016-07-22T11:07:01Z</time>
      </trkpt>
      <trkpt lat="45.64892" lon="6.57326">
        <ele>1836.26</ele>
        <time>2016-07-22T11:07:18Z</time>
      </trkpt>
      <trkpt lat="45.64892" lon="6.57316">
        <ele>1838.18</ele>
        <time>2016-07-22T11:07:31Z</time>
      </trkpt>
      <trkpt lat="45.64901" lon="6.57309">
        <ele>1839.62</ele>
        <time>2016-07-22T11:07:42Z</time>
      </trkpt>
      <trkpt lat="45.64909" lon="6.57303">
        <ele>1841.54</ele>
        <time>2016-07-22T11:07:53Z</time>
      </trkpt>
      <trkpt lat="45.64912" lon="6.57292">
        <ele>1843.95</ele>
        <time>2016-07-22T11:08:03Z</time>
      </trkpt>
      <trkpt lat="45.64906" lon="6.57282">
        <ele>1844.43</ele>
        <time>2016-07-22T11:08:12Z</time>
      </trkpt>
      <trkpt lat="45.64902" lon="6.57269">
        <ele>1844.91</ele>
        <time>2016-07-22T11:08:20Z</time>
      </trkpt>
      <trkpt lat="45.649" lon="6.57255">
        <ele>1845.39</ele>
        <time>2016-07-22T11:08:28Z</time>
      </trkpt>
      <trkpt lat="45.64901" lon="6.57241">
        <ele>1845.87</ele>
        <time>2016-07-22T11:08:36Z</time>
      </trkpt>
      <trkpt lat="45.64907" lon="6.57229">
        <ele>1847.31</ele>
        <time>2016-07-22T11:08:45Z</time>
      </trkpt>
      <trkpt lat="45.64915" lon="6.5722">
        <ele>1848.75</ele>
        <time>2016-07-22T11:08:53Z</time>
      </trkpt>
      <trkpt lat="45.64924" lon="6.57219">
        <ele>1851.64</ele>
        <time>2016-07-22T11:09:03Z</time>
      </trkpt>
      <trkpt lat="45.64931" lon="6.57223">
        <ele>1852.6</ele>
        <time>2016-07-22T11:09:36Z</time>
      </trkpt>
      <trkpt lat="45.64931" lon="6.57219">
        <ele>1873.27</ele>
        <time>2016-07-22T12:03:45Z</time>
      </trkpt>
      <trkpt lat="45.6493" lon="6.57209">
        <ele>1873.27</ele>
        <time>2016-07-22T12:05:22Z</time>
      </trkpt>
      <trkpt lat="45.64926" lon="6.57196">
        <ele>1870.38</ele>
        <time>2016-07-22T12:05:36Z</time>
      </trkpt>
      <trkpt lat="45.64922" lon="6.57182">
        <ele>1871.34</ele>
        <time>2016-07-22T12:05:51Z</time>
      </trkpt>
      <trkpt lat="45.64916" lon="6.57172">
        <ele>1873.75</ele>
        <time>2016-07-22T12:06:18Z</time>
      </trkpt>
      <trkpt lat="45.64911" lon="6.57162">
        <ele>1876.15</ele>
        <time>2016-07-22T12:06:38Z</time>
      </trkpt>
      <trkpt lat="45.64912" lon="6.57153">
        <ele>1879.03</ele>
        <time>2016-07-22T12:06:58Z</time>
      </trkpt>
      <trkpt lat="45.64918" lon="6.57144">
        <ele>1880</ele>
        <time>2016-07-22T12:07:18Z</time>
      </trkpt>
      <trkpt lat="45.64923" lon="6.57131">
        <ele>1881.92</ele>
        <time>2016-07-22T12:07:35Z</time>
      </trkpt>
      <trkpt lat="45.64921" lon="6.57117">
        <ele>1883.36</ele>
        <time>2016-07-22T12:07:51Z</time>
      </trkpt>
      <trkpt lat="45.64917" lon="6.57104">
        <ele>1885.28</ele>
        <time>2016-07-22T12:08:09Z</time>
      </trkpt>
      <trkpt lat="45.64911" lon="6.57104">
        <ele>1886.72</ele>
        <time>2016-07-22T12:08:26Z</time>
      </trkpt>
      <trkpt lat="45.64904" lon="6.57098">
        <ele>1888.65</ele>
        <time>2016-07-22T12:08:43Z</time>
      </trkpt>
      <trkpt lat="45.64905" lon="6.57087">
        <ele>1890.57</ele>
        <time>2016-07-22T12:09:04Z</time>
      </trkpt>
      <trkpt lat="45.64912" lon="6.57078">
        <ele>1892.49</ele>
        <time>2016-07-22T12:09:23Z</time>
      </trkpt>
      <trkpt lat="45.64918" lon="6.5707">
        <ele>1894.9</ele>
        <time>2016-07-22T12:09:43Z</time>
      </trkpt>
      <trkpt lat="45.64916" lon="6.5706">
        <ele>1899.22</ele>
        <time>2016-07-22T12:10:14Z</time>
      </trkpt>
      <trkpt lat="45.64907" lon="6.57062">
        <ele>1901.14</ele>
        <time>2016-07-22T12:10:34Z</time>
      </trkpt>
      <trkpt lat="45.64904" lon="6.57047">
        <ele>1902.59</ele>
        <time>2016-07-22T12:10:55Z</time>
      </trkpt>
      <trkpt lat="45.64903" lon="6.57033">
        <ele>1904.51</ele>
        <time>2016-07-22T12:11:17Z</time>
      </trkpt>
      <trkpt lat="45.64896" lon="6.57027">
        <ele>1906.43</ele>
        <time>2016-07-22T12:11:33Z</time>
      </trkpt>
      <trkpt lat="45.64888" lon="6.57027">
        <ele>1906.43</ele>
        <time>2016-07-22T12:11:48Z</time>
      </trkpt>
      <trkpt lat="45.6488" lon="6.57023">
        <ele>1907.39</ele>
        <time>2016-07-22T12:12:02Z</time>
      </trkpt>
      <trkpt lat="45.64873" lon="6.57019">
        <ele>1907.87</ele>
        <time>2016-07-22T12:12:16Z</time>
      </trkpt>
      <trkpt lat="45.64864" lon="6.57015">
        <ele>1908.83</ele>
        <time>2016-07-22T12:12:33Z</time>
      </trkpt>
      <trkpt lat="45.64857" lon="6.57016">
        <ele>1910.28</ele>
        <time>2016-07-22T12:12:48Z</time>
      </trkpt>
      <trkpt lat="45.64847" lon="6.57014">
        <ele>1912.2</ele>
        <time>2016-07-22T12:13:06Z</time>
      </trkpt>
      <trkpt lat="45.64839" lon="6.57008">
        <ele>1913.16</ele>
        <time>2016-07-22T12:13:22Z</time>
      </trkpt>
      <trkpt lat="45.6484" lon="6.57002">
        <ele>1914.12</ele>
        <time>2016-07-22T12:13:37Z</time>
      </trkpt>
      <trkpt lat="45.64844" lon="6.56996">
        <ele>1915.56</ele>
        <time>2016-07-22T12:13:53Z</time>
      </trkpt>
      <trkpt lat="45.64851" lon="6.5699">
        <ele>1916.53</ele>
        <time>2016-07-22T12:14:10Z</time>
      </trkpt>
      <trkpt lat="45.6486" lon="6.56988">
        <ele>1917.49</ele>
        <time>2016-07-22T12:14:25Z</time>
      </trkpt>
      <trkpt lat="45.64867" lon="6.56983">
        <ele>1918.45</ele>
        <time>2016-07-22T12:14:44Z</time>
      </trkpt>
      <trkpt lat="45.6486" lon="6.56973">
        <ele>1921.33</ele>
        <time>2016-07-22T12:15:06Z</time>
      </trkpt>
      <trkpt lat="45.64854" lon="6.56969">
        <ele>1923.25</ele>
        <time>2016-07-22T12:15:24Z</time>
      </trkpt>
      <trkpt lat="45.64846" lon="6.56961">
        <ele>1925.18</ele>
        <time>2016-07-22T12:15:44Z</time>
      </trkpt>
      <trkpt lat="45.64837" lon="6.56956">
        <ele>1926.14</ele>
        <time>2016-07-22T12:16:01Z</time>
      </trkpt>
      <trkpt lat="45.64829" lon="6.56949">
        <ele>1926.62</ele>
        <time>2016-07-22T12:16:32Z</time>
      </trkpt>
      <trkpt lat="45.64822" lon="6.56939">
        <ele>1928.06</ele>
        <time>2016-07-22T12:16:47Z</time>
      </trkpt>
      <trkpt lat="45.64817" lon="6.56928">
        <ele>1928.54</ele>
        <time>2016-07-22T12:16:59Z</time>
      </trkpt>
      <trkpt lat="45.64813" lon="6.56915">
        <ele>1929.5</ele>
        <time>2016-07-22T12:17:13Z</time>
      </trkpt>
      <trkpt lat="45.6481" lon="6.56903">
        <ele>1929.98</ele>
        <time>2016-07-22T12:17:25Z</time>
      </trkpt>
      <trkpt lat="45.64806" lon="6.56891">
        <ele>1929.98</ele>
        <time>2016-07-22T12:17:37Z</time>
      </trkpt>
      <trkpt lat="45.64802" lon="6.56881">
        <ele>1930.46</ele>
        <time>2016-07-22T12:17:50Z</time>
      </trkpt>
      <trkpt lat="45.64798" lon="6.56868">
        <ele>1930.46</ele>
        <time>2016-07-22T12:18:03Z</time>
      </trkpt>
      <trkpt lat="45.64798" lon="6.56853">
        <ele>1930.95</ele>
        <time>2016-07-22T12:18:16Z</time>
      </trkpt>
      <trkpt lat="45.6479" lon="6.56843">
        <ele>1932.39</ele>
        <time>2016-07-22T12:18:43Z</time>
      </trkpt>
      <trkpt lat="45.64783" lon="6.56835">
        <ele>1933.35</ele>
        <time>2016-07-22T12:18:56Z</time>
      </trkpt>
      <trkpt lat="45.64776" lon="6.56829">
        <ele>1934.31</ele>
        <time>2016-07-22T12:19:09Z</time>
      </trkpt>
      <trkpt lat="45.64769" lon="6.56824">
        <ele>1935.27</ele>
        <time>2016-07-22T12:19:23Z</time>
      </trkpt>
      <trkpt lat="45.64764" lon="6.56812">
        <ele>1936.23</ele>
        <time>2016-07-22T12:19:38Z</time>
      </trkpt>
      <trkpt lat="45.64764" lon="6.56799">
        <ele>1937.19</ele>
        <time>2016-07-22T12:19:50Z</time>
      </trkpt>
      <trkpt lat="45.64763" lon="6.56796">
        <ele>1938.16</ele>
        <time>2016-07-22T12:20:32Z</time>
      </trkpt>
      <trkpt lat="45.64762" lon="6.56787">
        <ele>1939.6</ele>
        <time>2016-07-22T12:21:13Z</time>
      </trkpt>
      <trkpt lat="45.6476" lon="6.56774">
        <ele>1941.52</ele>
        <time>2016-07-22T12:21:27Z</time>
      </trkpt>
      <trkpt lat="45.64756" lon="6.56762">
        <ele>1943.44</ele>
        <time>2016-07-22T12:21:43Z</time>
      </trkpt>
      <trkpt lat="45.6475" lon="6.56752">
        <ele>1944.88</ele>
        <time>2016-07-22T12:21:58Z</time>
      </trkpt>
      <trkpt lat="45.64746" lon="6.56739">
        <ele>1947.77</ele>
        <time>2016-07-22T12:22:18Z</time>
      </trkpt>
      <trkpt lat="45.64743" lon="6.56727">
        <ele>1951.13</ele>
        <time>2016-07-22T12:22:39Z</time>
      </trkpt>
      <trkpt lat="45.6474" lon="6.56712">
        <ele>1954.98</ele>
        <time>2016-07-22T12:23:06Z</time>
      </trkpt>
      <trkpt lat="45.6474" lon="6.56698">
        <ele>1954.98</ele>
        <time>2016-07-22T12:23:19Z</time>
      </trkpt>
      <trkpt lat="45.64741" lon="6.56683">
        <ele>1954.98</ele>
        <time>2016-07-22T12:23:32Z</time>
      </trkpt>
      <trkpt lat="45.64742" lon="6.56669">
        <ele>1954.98</ele>
        <time>2016-07-22T12:23:47Z</time>
      </trkpt>
      <trkpt lat="45.64742" lon="6.56655">
        <ele>1954.98</ele>
        <time>2016-07-22T12:23:58Z</time>
      </trkpt>
      <trkpt lat="45.64743" lon="6.56641">
        <ele>1954.98</ele>
        <time>2016-07-22T12:24:10Z</time>
      </trkpt>
      <trkpt lat="45.64744" lon="6.56626">
        <ele>1954.98</ele>
        <time>2016-07-22T12:24:23Z</time>
      </trkpt>
      <trkpt lat="45.64745" lon="6.5661">
        <ele>1955.46</ele>
        <time>2016-07-22T12:24:36Z</time>
      </trkpt>
      <trkpt lat="45.64745" lon="6.56605">
        <ele>1955.46</ele>
        <time>2016-07-22T12:24:50Z</time>
      </trkpt>
      <trkpt lat="45.64745" lon="6.56599">
        <ele>1955.46</ele>
        <time>2016-07-22T12:25:35Z</time>
      </trkpt>
      <trkpt lat="45.64742" lon="6.56586">
        <ele>1955.94</ele>
        <time>2016-07-22T12:25:46Z</time>
      </trkpt>
      <trkpt lat="45.64738" lon="6.56573">
        <ele>1956.42</ele>
        <time>2016-07-22T12:25:57Z</time>
      </trkpt>
      <trkpt lat="45.64733" lon="6.56562">
        <ele>1956.9</ele>
        <time>2016-07-22T12:26:08Z</time>
      </trkpt>
      <trkpt lat="45.64732" lon="6.56549">
        <ele>1957.86</ele>
        <time>2016-07-22T12:26:23Z</time>
      </trkpt>
      <trkpt lat="45.64738" lon="6.56545">
        <ele>1959.3</ele>
        <time>2016-07-22T12:27:06Z</time>
      </trkpt>
      <trkpt lat="45.64745" lon="6.56533">
        <ele>1963.15</ele>
        <time>2016-07-22T12:27:40Z</time>
      </trkpt>
      <trkpt lat="45.64746" lon="6.56515">
        <ele>1966.03</ele>
        <time>2016-07-22T12:28:11Z</time>
      </trkpt>
      <trkpt lat="45.6475" lon="6.56503">
        <ele>1968.44</ele>
        <time>2016-07-22T12:28:32Z</time>
      </trkpt>
      <trkpt lat="45.64748" lon="6.56494">
        <ele>1969.4</ele>
        <time>2016-07-22T12:28:46Z</time>
      </trkpt>
      <trkpt lat="45.64751" lon="6.56486">
        <ele>1970.84</ele>
        <time>2016-07-22T12:29:14Z</time>
      </trkpt>
      <trkpt lat="45.6476" lon="6.5648">
        <ele>1971.8</ele>
        <time>2016-07-22T12:29:30Z</time>
      </trkpt>
      <trkpt lat="45.64768" lon="6.56485">
        <ele>1972.76</ele>
        <time>2016-07-22T12:29:41Z</time>
      </trkpt>
      <trkpt lat="45.64778" lon="6.5649">
        <ele>1973.72</ele>
        <time>2016-07-22T12:29:51Z</time>
      </trkpt>
      <trkpt lat="45.64787" lon="6.56493">
        <ele>1974.69</ele>
        <time>2016-07-22T12:30:00Z</time>
      </trkpt>
      <trkpt lat="45.64796" lon="6.56494">
        <ele>1975.17</ele>
        <time>2016-07-22T12:30:08Z</time>
      </trkpt>
      <trkpt lat="45.64805" lon="6.56491">
        <ele>1975.65</ele>
        <time>2016-07-22T12:30:17Z</time>
      </trkpt>
      <trkpt lat="45.64813" lon="6.56485">
        <ele>1976.13</ele>
        <time>2016-07-22T12:30:26Z</time>
      </trkpt>
      <trkpt lat="45.64821" lon="6.56479">
        <ele>1977.57</ele>
        <time>2016-07-22T12:30:36Z</time>
      </trkpt>
      <trkpt lat="45.64831" lon="6.56474">
        <ele>1978.05</ele>
        <time>2016-07-22T12:30:47Z</time>
      </trkpt>
      <trkpt lat="45.6484" lon="6.56472">
        <ele>1979.01</ele>
        <time>2016-07-22T12:30:57Z</time>
      </trkpt>
      <trkpt lat="45.6485" lon="6.56473">
        <ele>1979.97</ele>
        <time>2016-07-22T12:31:07Z</time>
      </trkpt>
      <trkpt lat="45.64859" lon="6.56476">
        <ele>1980.45</ele>
        <time>2016-07-22T12:31:16Z</time>
      </trkpt>
      <trkpt lat="45.64868" lon="6.56478">
        <ele>1980.93</ele>
        <time>2016-07-22T12:31:25Z</time>
      </trkpt>
      <trkpt lat="45.64876" lon="6.56482">
        <ele>1981.9</ele>
        <time>2016-07-22T12:31:35Z</time>
      </trkpt>
      <trkpt lat="45.64885" lon="6.56487">
        <ele>1982.86</ele>
        <time>2016-07-22T12:31:45Z</time>
      </trkpt>
      <trkpt lat="45.64895" lon="6.56489">
        <ele>1983.82</ele>
        <time>2016-07-22T12:31:55Z</time>
      </trkpt>
      <trkpt lat="45.64904" lon="6.56488">
        <ele>1984.3</ele>
        <time>2016-07-22T12:32:06Z</time>
      </trkpt>
      <trkpt lat="45.64911" lon="6.56484">
        <ele>1985.26</ele>
        <time>2016-07-22T12:32:27Z</time>
      </trkpt>
      <trkpt lat="45.64918" lon="6.56478">
        <ele>1985.74</ele>
        <time>2016-07-22T12:33:09Z</time>
      </trkpt>
      <trkpt lat="45.64924" lon="6.56469">
        <ele>1985.74</ele>
        <time>2016-07-22T12:33:19Z</time>
      </trkpt>
      <trkpt lat="45.64932" lon="6.56459">
        <ele>1986.7</ele>
        <time>2016-07-22T12:33:29Z</time>
      </trkpt>
      <trkpt lat="45.64939" lon="6.56452">
        <ele>1987.66</ele>
        <time>2016-07-22T12:33:39Z</time>
      </trkpt>
      <trkpt lat="45.64946" lon="6.56442">
        <ele>1988.62</ele>
        <time>2016-07-22T12:33:48Z</time>
      </trkpt>
      <trkpt lat="45.64954" lon="6.56431">
        <ele>1988.62</ele>
        <time>2016-07-22T12:33:57Z</time>
      </trkpt>
      <trkpt lat="45.64961" lon="6.5642">
        <ele>1990.07</ele>
        <time>2016-07-22T12:34:06Z</time>
      </trkpt>
      <trkpt lat="45.64966" lon="6.56407">
        <ele>1991.03</ele>
        <time>2016-07-22T12:34:16Z</time>
      </trkpt>
      <trkpt lat="45.64971" lon="6.56397">
        <ele>1991.99</ele>
        <time>2016-07-22T12:34:25Z</time>
      </trkpt>
      <trkpt lat="45.64977" lon="6.56389">
        <ele>1992.95</ele>
        <time>2016-07-22T12:34:34Z</time>
      </trkpt>
      <trkpt lat="45.64983" lon="6.56378">
        <ele>1993.43</ele>
        <time>2016-07-22T12:34:43Z</time>
      </trkpt>
      <trkpt lat="45.64989" lon="6.56366">
        <ele>1994.87</ele>
        <time>2016-07-22T12:34:52Z</time>
      </trkpt>
      <trkpt lat="45.64993" lon="6.56354">
        <ele>1995.35</ele>
        <time>2016-07-22T12:35:01Z</time>
      </trkpt>
      <trkpt lat="45.64996" lon="6.56341">
        <ele>1995.83</ele>
        <time>2016-07-22T12:35:10Z</time>
      </trkpt>
      <trkpt lat="45.64999" lon="6.56328">
        <ele>1997.28</ele>
        <time>2016-07-22T12:35:20Z</time>
      </trkpt>
      <trkpt lat="45.65" lon="6.56314">
        <ele>1998.24</ele>
        <time>2016-07-22T12:35:30Z</time>
      </trkpt>
      <trkpt lat="45.64997" lon="6.563">
        <ele>1998.72</ele>
        <time>2016-07-22T12:35:39Z</time>
      </trkpt>
      <trkpt lat="45.64996" lon="6.56287">
        <ele>1999.68</ele>
        <time>2016-07-22T12:35:49Z</time>
      </trkpt>
      <trkpt lat="45.65" lon="6.56274">
        <ele>2000.16</ele>
        <time>2016-07-22T12:36:00Z</time>
      </trkpt>
      <trkpt lat="45.65009" lon="6.56266">
        <ele>2001.12</ele>
        <time>2016-07-22T12:36:12Z</time>
      </trkpt>
      <trkpt lat="45.65018" lon="6.56264">
        <ele>2002.08</ele>
        <time>2016-07-22T12:36:23Z</time>
      </trkpt>
      <trkpt lat="45.65027" lon="6.56266">
        <ele>2003.52</ele>
        <time>2016-07-22T12:36:33Z</time>
      </trkpt>
      <trkpt lat="45.65036" lon="6.56265">
        <ele>2003.52</ele>
        <time>2016-07-22T12:36:43Z</time>
      </trkpt>
      <trkpt lat="45.65046" lon="6.56263">
        <ele>2004.49</ele>
        <time>2016-07-22T12:36:54Z</time>
      </trkpt>
      <trkpt lat="45.65055" lon="6.56257">
        <ele>2005.45</ele>
        <time>2016-07-22T12:37:04Z</time>
      </trkpt>
      <trkpt lat="45.65064" lon="6.56251">
        <ele>2005.45</ele>
        <time>2016-07-22T12:37:14Z</time>
      </trkpt>
      <trkpt lat="45.65074" lon="6.56248">
        <ele>2006.89</ele>
        <time>2016-07-22T12:37:24Z</time>
      </trkpt>
      <trkpt lat="45.65084" lon="6.56249">
        <ele>2007.37</ele>
        <time>2016-07-22T12:37:35Z</time>
      </trkpt>
      <trkpt lat="45.65093" lon="6.56254">
        <ele>2008.33</ele>
        <time>2016-07-22T12:37:46Z</time>
      </trkpt>
      <trkpt lat="45.65101" lon="6.5626">
        <ele>2009.29</ele>
        <time>2016-07-22T12:37:57Z</time>
      </trkpt>
      <trkpt lat="45.65109" lon="6.56267">
        <ele>2009.77</ele>
        <time>2016-07-22T12:38:08Z</time>
      </trkpt>
      <trkpt lat="45.65118" lon="6.56271">
        <ele>2010.73</ele>
        <time>2016-07-22T12:38:20Z</time>
      </trkpt>
      <trkpt lat="45.65125" lon="6.56276">
        <ele>2011.22</ele>
        <time>2016-07-22T12:38:43Z</time>
      </trkpt>
      <trkpt lat="45.65133" lon="6.56283">
        <ele>2012.18</ele>
        <time>2016-07-22T12:38:52Z</time>
      </trkpt>
      <trkpt lat="45.65143" lon="6.56285">
        <ele>2013.14</ele>
        <time>2016-07-22T12:39:01Z</time>
      </trkpt>
      <trkpt lat="45.65154" lon="6.56285">
        <ele>2013.62</ele>
        <time>2016-07-22T12:39:10Z</time>
      </trkpt>
      <trkpt lat="45.65165" lon="6.56286">
        <ele>2014.1</ele>
        <time>2016-07-22T12:39:20Z</time>
      </trkpt>
      <trkpt lat="45.65175" lon="6.56289">
        <ele>2015.06</ele>
        <time>2016-07-22T12:39:30Z</time>
      </trkpt>
      <trkpt lat="45.65184" lon="6.56294">
        <ele>2016.02</ele>
        <time>2016-07-22T12:39:39Z</time>
      </trkpt>
      <trkpt lat="45.65195" lon="6.56298">
        <ele>2016.98</ele>
        <time>2016-07-22T12:39:49Z</time>
      </trkpt>
      <trkpt lat="45.65205" lon="6.56302">
        <ele>2017.94</ele>
        <time>2016-07-22T12:40:00Z</time>
      </trkpt>
      <trkpt lat="45.65214" lon="6.56305">
        <ele>2017.94</ele>
        <time>2016-07-22T12:40:10Z</time>
      </trkpt>
      <trkpt lat="45.65224" lon="6.56307">
        <ele>2018.91</ele>
        <time>2016-07-22T12:40:22Z</time>
      </trkpt>
      <trkpt lat="45.65234" lon="6.56304">
        <ele>2019.87</ele>
        <time>2016-07-22T12:40:34Z</time>
      </trkpt>
      <trkpt lat="45.65243" lon="6.56297">
        <ele>2020.83</ele>
        <time>2016-07-22T12:40:45Z</time>
      </trkpt>
      <trkpt lat="45.65251" lon="6.56287">
        <ele>2022.27</ele>
        <time>2016-07-22T12:40:56Z</time>
      </trkpt>
      <trkpt lat="45.65256" lon="6.56274">
        <ele>2023.23</ele>
        <time>2016-07-22T12:41:07Z</time>
      </trkpt>
      <trkpt lat="45.65255" lon="6.56262">
        <ele>2024.67</ele>
        <time>2016-07-22T12:41:20Z</time>
      </trkpt>
      <trkpt lat="45.65247" lon="6.56254">
        <ele>2026.12</ele>
        <time>2016-07-22T12:41:35Z</time>
      </trkpt>
      <trkpt lat="45.65239" lon="6.56247">
        <ele>2029</ele>
        <time>2016-07-22T12:41:55Z</time>
      </trkpt>
      <trkpt lat="45.65233" lon="6.56236">
        <ele>2032.36</ele>
        <time>2016-07-22T12:42:18Z</time>
      </trkpt>
      <trkpt lat="45.65225" lon="6.5623">
        <ele>2033.81</ele>
        <time>2016-07-22T12:42:36Z</time>
      </trkpt>
      <trkpt lat="45.65217" lon="6.56222">
        <ele>2035.25</ele>
        <time>2016-07-22T12:42:53Z</time>
      </trkpt>
      <trkpt lat="45.6521" lon="6.56213">
        <ele>2037.17</ele>
        <time>2016-07-22T12:43:11Z</time>
      </trkpt>
      <trkpt lat="45.65204" lon="6.56203">
        <ele>2039.09</ele>
        <time>2016-07-22T12:43:27Z</time>
      </trkpt>
      <trkpt lat="45.65197" lon="6.562">
        <ele>2041.02</ele>
        <time>2016-07-22T12:43:45Z</time>
      </trkpt>
      <trkpt lat="45.6519" lon="6.56192">
        <ele>2043.9</ele>
        <time>2016-07-22T12:44:05Z</time>
      </trkpt>
      <trkpt lat="45.65186" lon="6.56181">
        <ele>2047.75</ele>
        <time>2016-07-22T12:44:28Z</time>
      </trkpt>
      <trkpt lat="45.65184" lon="6.56166">
        <ele>2049.19</ele>
        <time>2016-07-22T12:44:48Z</time>
      </trkpt>
      <trkpt lat="45.65181" lon="6.56151">
        <ele>2049.19</ele>
        <time>2016-07-22T12:45:04Z</time>
      </trkpt>
      <trkpt lat="45.65176" lon="6.56139">
        <ele>2050.15</ele>
        <time>2016-07-22T12:45:16Z</time>
      </trkpt>
      <trkpt lat="45.65172" lon="6.56128">
        <ele>2051.11</ele>
        <time>2016-07-22T12:45:29Z</time>
      </trkpt>
      <trkpt lat="45.65169" lon="6.56117">
        <ele>2052.55</ele>
        <time>2016-07-22T12:45:44Z</time>
      </trkpt>
      <trkpt lat="45.65165" lon="6.56106">
        <ele>2053.03</ele>
        <time>2016-07-22T12:45:57Z</time>
      </trkpt>
      <trkpt lat="45.65161" lon="6.56096">
        <ele>2053.99</ele>
        <time>2016-07-22T12:46:10Z</time>
      </trkpt>
      <trkpt lat="45.65154" lon="6.56088">
        <ele>2054.96</ele>
        <time>2016-07-22T12:46:22Z</time>
      </trkpt>
      <trkpt lat="45.65148" lon="6.5608">
        <ele>2056.4</ele>
        <time>2016-07-22T12:46:37Z</time>
      </trkpt>
      <trkpt lat="45.6514" lon="6.56073">
        <ele>2057.84</ele>
        <time>2016-07-22T12:46:52Z</time>
      </trkpt>
      <trkpt lat="45.65139" lon="6.56059">
        <ele>2057.36</ele>
        <time>2016-07-22T12:47:04Z</time>
      </trkpt>
      <trkpt lat="45.65135" lon="6.56047">
        <ele>2058.32</ele>
        <time>2016-07-22T12:47:28Z</time>
      </trkpt>
      <trkpt lat="45.65126" lon="6.56039">
        <ele>2057.36</ele>
        <time>2016-07-22T12:47:39Z</time>
      </trkpt>
      <trkpt lat="45.65118" lon="6.56034">
        <ele>2055.92</ele>
        <time>2016-07-22T12:47:50Z</time>
      </trkpt>
      <trkpt lat="45.65113" lon="6.56024">
        <ele>2055.92</ele>
        <time>2016-07-22T12:48:01Z</time>
      </trkpt>
      <trkpt lat="45.65107" lon="6.56014">
        <ele>2056.88</ele>
        <time>2016-07-22T12:48:11Z</time>
      </trkpt>
      <trkpt lat="45.65101" lon="6.56005">
        <ele>2056.88</ele>
        <time>2016-07-22T12:48:21Z</time>
      </trkpt>
      <trkpt lat="45.65093" lon="6.55999">
        <ele>2057.84</ele>
        <time>2016-07-22T12:48:32Z</time>
      </trkpt>
      <trkpt lat="45.65086" lon="6.5599">
        <ele>2055.92</ele>
        <time>2016-07-22T12:48:54Z</time>
      </trkpt>
      <trkpt lat="45.65078" lon="6.55982">
        <ele>2055.44</ele>
        <time>2016-07-22T12:49:06Z</time>
      </trkpt>
      <trkpt lat="45.65071" lon="6.55972">
        <ele>2053.51</ele>
        <time>2016-07-22T12:49:20Z</time>
      </trkpt>
      <trkpt lat="45.65065" lon="6.55962">
        <ele>2052.55</ele>
        <time>2016-07-22T12:49:31Z</time>
      </trkpt>
      <trkpt lat="45.6506" lon="6.55951">
        <ele>2052.07</ele>
        <time>2016-07-22T12:49:44Z</time>
      </trkpt>
      <trkpt lat="45.65053" lon="6.55943">
        <ele>2053.51</ele>
        <time>2016-07-22T12:49:56Z</time>
      </trkpt>
      <trkpt lat="45.65045" lon="6.55941">
        <ele>2054.96</ele>
        <time>2016-07-22T12:50:11Z</time>
      </trkpt>
      <trkpt lat="45.65038" lon="6.55933">
        <ele>2055.44</ele>
        <time>2016-07-22T12:50:23Z</time>
      </trkpt>
      <trkpt lat="45.65031" lon="6.55926">
        <ele>2055.92</ele>
        <time>2016-07-22T12:50:35Z</time>
      </trkpt>
      <trkpt lat="45.6502" lon="6.5592">
        <ele>2056.88</ele>
        <time>2016-07-22T12:50:47Z</time>
      </trkpt>
      <trkpt lat="45.65011" lon="6.55912">
        <ele>2057.84</ele>
        <time>2016-07-22T12:51:02Z</time>
      </trkpt>
      <trkpt lat="45.65006" lon="6.55901">
        <ele>2057.84</ele>
        <time>2016-07-22T12:51:14Z</time>
      </trkpt>
      <trkpt lat="45.65005" lon="6.55888">
        <ele>2056.88</ele>
        <time>2016-07-22T12:51:27Z</time>
      </trkpt>
      <trkpt lat="45.65008" lon="6.55875">
        <ele>2057.36</ele>
        <time>2016-07-22T12:51:41Z</time>
      </trkpt>
      <trkpt lat="45.65006" lon="6.55862">
        <ele>2057.84</ele>
        <time>2016-07-22T12:51:53Z</time>
      </trkpt>
      <trkpt lat="45.65003" lon="6.55849">
        <ele>2058.32</ele>
        <time>2016-07-22T12:52:06Z</time>
      </trkpt>
      <trkpt lat="45.65003" lon="6.55835">
        <ele>2058.8</ele>
        <time>2016-07-22T12:52:19Z</time>
      </trkpt>
      <trkpt lat="45.65004" lon="6.55821">
        <ele>2058.8</ele>
        <time>2016-07-22T12:52:32Z</time>
      </trkpt>
      <trkpt lat="45.65006" lon="6.55808">
        <ele>2061.2</ele>
        <time>2016-07-22T12:52:43Z</time>
      </trkpt>
      <trkpt lat="45.65006" lon="6.55795">
        <ele>2061.2</ele>
        <time>2016-07-22T12:52:55Z</time>
      </trkpt>
      <trkpt lat="45.65003" lon="6.55778">
        <ele>2063.13</ele>
        <time>2016-07-22T12:53:16Z</time>
      </trkpt>
      <trkpt lat="45.65002" lon="6.55764">
        <ele>2064.57</ele>
        <time>2016-07-22T12:53:31Z</time>
      </trkpt>
      <trkpt lat="45.64998" lon="6.5575">
        <ele>2066.01</ele>
        <time>2016-07-22T12:53:46Z</time>
      </trkpt>
      <trkpt lat="45.64992" lon="6.5574">
        <ele>2066.49</ele>
        <time>2016-07-22T12:54:00Z</time>
      </trkpt>
      <trkpt lat="45.64987" lon="6.55728">
        <ele>2066.97</ele>
        <time>2016-07-22T12:54:15Z</time>
      </trkpt>
      <trkpt lat="45.64981" lon="6.55718">
        <ele>2069.86</ele>
        <time>2016-07-22T12:54:36Z</time>
      </trkpt>
      <trkpt lat="45.6498" lon="6.55703">
        <ele>2072.26</ele>
        <time>2016-07-22T12:54:57Z</time>
      </trkpt>
      <trkpt lat="45.64979" lon="6.5569">
        <ele>2072.74</ele>
        <time>2016-07-22T12:55:11Z</time>
      </trkpt>
      <trkpt lat="45.64974" lon="6.55677">
        <ele>2073.22</ele>
        <time>2016-07-22T12:55:26Z</time>
      </trkpt>
      <trkpt lat="45.64976" lon="6.55664">
        <ele>2074.18</ele>
        <time>2016-07-22T12:55:40Z</time>
      </trkpt>
      <trkpt lat="45.64979" lon="6.55649">
        <ele>2074.66</ele>
        <time>2016-07-22T12:55:55Z</time>
      </trkpt>
      <trkpt lat="45.64974" lon="6.55635">
        <ele>2075.62</ele>
        <time>2016-07-22T12:56:09Z</time>
      </trkpt>
      <trkpt lat="45.64977" lon="6.55622">
        <ele>2075.62</ele>
        <time>2016-07-22T12:56:23Z</time>
      </trkpt>
      <trkpt lat="45.64978" lon="6.55609">
        <ele>2074.66</ele>
        <time>2016-07-22T12:56:36Z</time>
      </trkpt>
      <trkpt lat="45.64976" lon="6.55594">
        <ele>2074.66</ele>
        <time>2016-07-22T12:56:48Z</time>
      </trkpt>
      <trkpt lat="45.64976" lon="6.5558">
        <ele>2076.1</ele>
        <time>2016-07-22T12:57:01Z</time>
      </trkpt>
      <trkpt lat="45.64973" lon="6.55568">
        <ele>2077.07</ele>
        <time>2016-07-22T12:57:15Z</time>
      </trkpt>
      <trkpt lat="45.64973" lon="6.55555">
        <ele>2078.99</ele>
        <time>2016-07-22T12:57:30Z</time>
      </trkpt>
      <trkpt lat="45.6497" lon="6.55543">
        <ele>2080.43</ele>
        <time>2016-07-22T12:57:46Z</time>
      </trkpt>
      <trkpt lat="45.64966" lon="6.55537">
        <ele>2083.31</ele>
        <time>2016-07-22T12:59:57Z</time>
      </trkpt>
      <trkpt lat="45.64962" lon="6.5553">
        <ele>2084.28</ele>
        <time>2016-07-22T13:01:53Z</time>
      </trkpt>
      <trkpt lat="45.64956" lon="6.55517">
        <ele>2085.72</ele>
        <time>2016-07-22T13:02:04Z</time>
      </trkpt>
      <trkpt lat="45.64948" lon="6.55508">
        <ele>2087.64</ele>
        <time>2016-07-22T13:02:17Z</time>
      </trkpt>
      <trkpt lat="45.64944" lon="6.55497">
        <ele>2088.12</ele>
        <time>2016-07-22T13:02:28Z</time>
      </trkpt>
      <trkpt lat="45.64935" lon="6.55489">
        <ele>2088.12</ele>
        <time>2016-07-22T13:02:39Z</time>
      </trkpt>
      <trkpt lat="45.64926" lon="6.55484">
        <ele>2084.28</ele>
        <time>2016-07-22T13:02:54Z</time>
      </trkpt>
      <trkpt lat="45.64916" lon="6.5548">
        <ele>2081.87</ele>
        <time>2016-07-22T13:03:07Z</time>
      </trkpt>
      <trkpt lat="45.64906" lon="6.55467">
        <ele>2080.91</ele>
        <time>2016-07-22T13:03:17Z</time>
      </trkpt>
      <trkpt lat="45.64899" lon="6.55457">
        <ele>2078.51</ele>
        <time>2016-07-22T13:03:32Z</time>
      </trkpt>
      <trkpt lat="45.64893" lon="6.55449">
        <ele>2076.59</ele>
        <time>2016-07-22T13:03:47Z</time>
      </trkpt>
      <trkpt lat="45.64888" lon="6.55436">
        <ele>2073.7</ele>
        <time>2016-07-22T13:04:27Z</time>
      </trkpt>
      <trkpt lat="45.64884" lon="6.55424">
        <ele>2072.26</ele>
        <time>2016-07-22T13:04:36Z</time>
      </trkpt>
      <trkpt lat="45.64878" lon="6.55413">
        <ele>2070.82</ele>
        <time>2016-07-22T13:04:47Z</time>
      </trkpt>
      <trkpt lat="45.64875" lon="6.55402">
        <ele>2069.38</ele>
        <time>2016-07-22T13:05:05Z</time>
      </trkpt>
      <trkpt lat="45.64858" lon="6.55402">
        <ele>2063.61</ele>
        <time>2016-07-22T13:05:42Z</time>
      </trkpt>
      <trkpt lat="45.6484" lon="6.5539">
        <ele>2055.92</ele>
        <time>2016-07-22T13:06:58Z</time>
      </trkpt>
      <trkpt lat="45.64829" lon="6.5539">
        <ele>2053.51</ele>
        <time>2016-07-22T13:07:10Z</time>
      </trkpt>
      <trkpt lat="45.64794" lon="6.55357">
        <ele>2041.5</ele>
        <time>2016-07-22T13:10:41Z</time>
      </trkpt>
      <trkpt lat="45.64781" lon="6.55353">
        <ele>2038.61</ele>
        <time>2016-07-22T13:18:36Z</time>
      </trkpt>
      <trkpt lat="45.64759" lon="6.55314">
        <ele>2034.77</ele>
        <time>2016-07-22T13:20:15Z</time>
      </trkpt>
      <trkpt lat="45.64749" lon="6.55294">
        <ele>2033.33</ele>
        <time>2016-07-22T13:20:44Z</time>
      </trkpt>
      <trkpt lat="45.6474" lon="6.55275">
        <ele>2032.36</ele>
        <time>2016-07-22T13:21:07Z</time>
      </trkpt>
      <trkpt lat="45.64728" lon="6.55251">
        <ele>2032.36</ele>
        <time>2016-07-22T13:21:40Z</time>
      </trkpt>
      <trkpt lat="45.64723" lon="6.55235">
        <ele>2032.36</ele>
        <time>2016-07-22T13:21:58Z</time>
      </trkpt>
      <trkpt lat="45.64724" lon="6.55207">
        <ele>2029.96</ele>
        <time>2016-07-22T13:22:42Z</time>
      </trkpt>
      <trkpt lat="45.64721" lon="6.55185">
        <ele>2029</ele>
        <time>2016-07-22T13:23:09Z</time>
      </trkpt>
      <trkpt lat="45.64719" lon="6.55168">
        <ele>2029</ele>
        <time>2016-07-22T13:23:22Z</time>
      </trkpt>
      <trkpt lat="45.64717" lon="6.55153">
        <ele>2027.56</ele>
        <time>2016-07-22T13:23:34Z</time>
      </trkpt>
      <trkpt lat="45.64716" lon="6.55138">
        <ele>2028.52</ele>
        <time>2016-07-22T13:23:48Z</time>
      </trkpt>
      <trkpt lat="45.64707" lon="6.55123">
        <ele>2027.56</ele>
        <time>2016-07-22T13:24:03Z</time>
      </trkpt>
      <trkpt lat="45.64706" lon="6.55105">
        <ele>2027.56</ele>
        <time>2016-07-22T13:24:30Z</time>
      </trkpt>
      <trkpt lat="45.64704" lon="6.55073">
        <ele>2027.56</ele>
        <time>2016-07-22T13:25:08Z</time>
      </trkpt>
      <trkpt lat="45.647" lon="6.55055">
        <ele>2026.6</ele>
        <time>2016-07-22T13:25:25Z</time>
      </trkpt>
      <trkpt lat="45.64702" lon="6.55038">
        <ele>2028.04</ele>
        <time>2016-07-22T13:25:51Z</time>
      </trkpt>
      <trkpt lat="45.64699" lon="6.55025">
        <ele>2029.96</ele>
        <time>2016-07-22T13:26:06Z</time>
      </trkpt>
      <trkpt lat="45.647" lon="6.55004">
        <ele>2034.29</ele>
        <time>2016-07-22T13:26:39Z</time>
      </trkpt>
      <trkpt lat="45.64698" lon="6.5499">
        <ele>2034.77</ele>
        <time>2016-07-22T13:26:52Z</time>
      </trkpt>
      <trkpt lat="45.64694" lon="6.54979">
        <ele>2031.88</ele>
        <time>2016-07-22T13:27:06Z</time>
      </trkpt>
      <trkpt lat="45.64688" lon="6.54967">
        <ele>2031.4</ele>
        <time>2016-07-22T13:27:18Z</time>
      </trkpt>
      <trkpt lat="45.64681" lon="6.54947">
        <ele>2033.81</ele>
        <time>2016-07-22T13:27:39Z</time>
      </trkpt>
      <trkpt lat="45.6467" lon="6.54935">
        <ele>2036.69</ele>
        <time>2016-07-22T13:27:58Z</time>
      </trkpt>
      <trkpt lat="45.64663" lon="6.5492">
        <ele>2037.17</ele>
        <time>2016-07-22T13:28:17Z</time>
      </trkpt>
      <trkpt lat="45.64653" lon="6.549">
        <ele>2040.54</ele>
        <time>2016-07-22T13:28:58Z</time>
      </trkpt>
      <trkpt lat="45.64648" lon="6.54891">
        <ele>2041.02</ele>
        <time>2016-07-22T13:29:11Z</time>
      </trkpt>
      <trkpt lat="45.64643" lon="6.5488">
        <ele>2041.98</ele>
        <time>2016-07-22T13:29:26Z</time>
      </trkpt>
      <trkpt lat="45.64636" lon="6.54867">
        <ele>2043.42</ele>
        <time>2016-07-22T13:29:40Z</time>
      </trkpt>
      <trkpt lat="45.64631" lon="6.54856">
        <ele>2041.98</ele>
        <time>2016-07-22T13:29:52Z</time>
      </trkpt>
      <trkpt lat="45.64625" lon="6.54848">
        <ele>2043.42</ele>
        <time>2016-07-22T13:30:04Z</time>
      </trkpt>
      <trkpt lat="45.6462" lon="6.54836">
        <ele>2044.38</ele>
        <time>2016-07-22T13:30:16Z</time>
      </trkpt>
      <trkpt lat="45.64614" lon="6.54825">
        <ele>2045.82</ele>
        <time>2016-07-22T13:30:30Z</time>
      </trkpt>
      <trkpt lat="45.64607" lon="6.54813">
        <ele>2046.3</ele>
        <time>2016-07-22T13:30:45Z</time>
      </trkpt>
      <trkpt lat="45.646" lon="6.54803">
        <ele>2047.26</ele>
        <time>2016-07-22T13:31:00Z</time>
      </trkpt>
      <trkpt lat="45.64594" lon="6.54792">
        <ele>2048.71</ele>
        <time>2016-07-22T13:31:15Z</time>
      </trkpt>
      <trkpt lat="45.64586" lon="6.5478">
        <ele>2049.67</ele>
        <time>2016-07-22T13:31:31Z</time>
      </trkpt>
      <trkpt lat="45.6458" lon="6.54766">
        <ele>2049.19</ele>
        <time>2016-07-22T13:31:48Z</time>
      </trkpt>
      <trkpt lat="45.64573" lon="6.54754">
        <ele>2050.63</ele>
        <time>2016-07-22T13:32:03Z</time>
      </trkpt>
      <trkpt lat="45.64568" lon="6.54742">
        <ele>2051.59</ele>
        <time>2016-07-22T13:32:18Z</time>
      </trkpt>
      <trkpt lat="45.64565" lon="6.54726">
        <ele>2051.59</ele>
        <time>2016-07-22T13:32:30Z</time>
      </trkpt>
      <trkpt lat="45.6456" lon="6.54715">
        <ele>2051.59</ele>
        <time>2016-07-22T13:32:46Z</time>
      </trkpt>
      <trkpt lat="45.64556" lon="6.547">
        <ele>2052.55</ele>
        <time>2016-07-22T13:33:01Z</time>
      </trkpt>
      <trkpt lat="45.64553" lon="6.54684">
        <ele>2052.55</ele>
        <time>2016-07-22T13:33:14Z</time>
      </trkpt>
      <trkpt lat="45.64549" lon="6.54671">
        <ele>2049.67</ele>
        <time>2016-07-22T13:33:29Z</time>
      </trkpt>
      <trkpt lat="45.64545" lon="6.54656">
        <ele>2049.19</ele>
        <time>2016-07-22T13:33:43Z</time>
      </trkpt>
      <trkpt lat="45.64543" lon="6.54642">
        <ele>2048.23</ele>
        <time>2016-07-22T13:33:55Z</time>
      </trkpt>
      <trkpt lat="45.64539" lon="6.54628">
        <ele>2045.34</ele>
        <time>2016-07-22T13:34:11Z</time>
      </trkpt>
      <trkpt lat="45.6454" lon="6.54614">
        <ele>2045.82</ele>
        <time>2016-07-22T13:34:27Z</time>
      </trkpt>
      <trkpt lat="45.64537" lon="6.54604">
        <ele>2049.19</ele>
        <time>2016-07-22T13:34:51Z</time>
      </trkpt>
      <trkpt lat="45.64536" lon="6.54591">
        <ele>2051.11</ele>
        <time>2016-07-22T13:35:08Z</time>
      </trkpt>
      <trkpt lat="45.64529" lon="6.54583">
        <ele>2052.07</ele>
        <time>2016-07-22T13:35:24Z</time>
      </trkpt>
      <trkpt lat="45.64526" lon="6.54571">
        <ele>2053.03</ele>
        <time>2016-07-22T13:35:42Z</time>
      </trkpt>
      <trkpt lat="45.6452" lon="6.5456">
        <ele>2053.99</ele>
        <time>2016-07-22T13:35:56Z</time>
      </trkpt>
      <trkpt lat="45.64517" lon="6.54546">
        <ele>2052.07</ele>
        <time>2016-07-22T13:36:09Z</time>
      </trkpt>
      <trkpt lat="45.64512" lon="6.54535">
        <ele>2051.59</ele>
        <time>2016-07-22T13:36:21Z</time>
      </trkpt>
      <trkpt lat="45.64509" lon="6.54521">
        <ele>2051.11</ele>
        <time>2016-07-22T13:36:35Z</time>
      </trkpt>
      <trkpt lat="45.64508" lon="6.54512">
        <ele>2047.75</ele>
        <time>2016-07-22T13:36:54Z</time>
      </trkpt>
      <trkpt lat="45.64501" lon="6.54503">
        <ele>2045.34</ele>
        <time>2016-07-22T13:37:13Z</time>
      </trkpt>
      <trkpt lat="45.64495" lon="6.54499">
        <ele>2043.42</ele>
        <time>2016-07-22T13:37:27Z</time>
      </trkpt>
      <trkpt lat="45.64486" lon="6.54491">
        <ele>2040.05</ele>
        <time>2016-07-22T13:37:46Z</time>
      </trkpt>
      <trkpt lat="45.64481" lon="6.54491">
        <ele>2038.61</ele>
        <time>2016-07-22T13:38:32Z</time>
      </trkpt>
      <trkpt lat="45.64475" lon="6.5448">
        <ele>2035.25</ele>
        <time>2016-07-22T13:38:49Z</time>
      </trkpt>
      <trkpt lat="45.64472" lon="6.54467">
        <ele>2032.84</ele>
        <time>2016-07-22T13:39:06Z</time>
      </trkpt>
      <trkpt lat="45.64468" lon="6.54457">
        <ele>2030.44</ele>
        <time>2016-07-22T13:39:33Z</time>
      </trkpt>
      <trkpt lat="45.64466" lon="6.54444">
        <ele>2027.08</ele>
        <time>2016-07-22T13:39:50Z</time>
      </trkpt>
      <trkpt lat="45.64464" lon="6.54433">
        <ele>2024.19</ele>
        <time>2016-07-22T13:40:02Z</time>
      </trkpt>
      <trkpt lat="45.64457" lon="6.54425">
        <ele>2023.71</ele>
        <time>2016-07-22T13:41:05Z</time>
      </trkpt>
      <trkpt lat="45.64452" lon="6.54416">
        <ele>2021.31</ele>
        <time>2016-07-22T13:41:14Z</time>
      </trkpt>
      <trkpt lat="45.64445" lon="6.54406">
        <ele>2020.35</ele>
        <time>2016-07-22T13:41:23Z</time>
      </trkpt>
      <trkpt lat="45.64438" lon="6.544">
        <ele>2018.91</ele>
        <time>2016-07-22T13:41:31Z</time>
      </trkpt>
      <trkpt lat="45.64431" lon="6.54392">
        <ele>2017.94</ele>
        <time>2016-07-22T13:41:39Z</time>
      </trkpt>
      <trkpt lat="45.64422" lon="6.54388">
        <ele>2016.02</ele>
        <time>2016-07-22T13:41:48Z</time>
      </trkpt>
      <trkpt lat="45.64413" lon="6.54375">
        <ele>2014.58</ele>
        <time>2016-07-22T13:42:05Z</time>
      </trkpt>
      <trkpt lat="45.6441" lon="6.54361">
        <ele>2012.66</ele>
        <time>2016-07-22T13:42:13Z</time>
      </trkpt>
      <trkpt lat="45.64406" lon="6.54348">
        <ele>2011.22</ele>
        <time>2016-07-22T13:42:21Z</time>
      </trkpt>
      <trkpt lat="45.644" lon="6.54343">
        <ele>2008.33</ele>
        <time>2016-07-22T13:42:33Z</time>
      </trkpt>
      <trkpt lat="45.64392" lon="6.54336">
        <ele>2005.45</ele>
        <time>2016-07-22T13:42:45Z</time>
      </trkpt>
      <trkpt lat="45.64388" lon="6.54325">
        <ele>2003.04</ele>
        <time>2016-07-22T13:42:56Z</time>
      </trkpt>
      <trkpt lat="45.64384" lon="6.54308">
        <ele>2002.08</ele>
        <time>2016-07-22T13:43:08Z</time>
      </trkpt>
      <trkpt lat="45.64384" lon="6.54291">
        <ele>2001.6</ele>
        <time>2016-07-22T13:43:16Z</time>
      </trkpt>
      <trkpt lat="45.64386" lon="6.54278">
        <ele>2001.12</ele>
        <time>2016-07-22T13:43:24Z</time>
      </trkpt>
      <trkpt lat="45.64387" lon="6.54262">
        <ele>2001.12</ele>
        <time>2016-07-22T13:43:33Z</time>
      </trkpt>
      <trkpt lat="45.64395" lon="6.54254">
        <ele>2001.12</ele>
        <time>2016-07-22T13:43:43Z</time>
      </trkpt>
      <trkpt lat="45.64403" lon="6.54246">
        <ele>2001.12</ele>
        <time>2016-07-22T13:44:08Z</time>
      </trkpt>
      <trkpt lat="45.64413" lon="6.54245">
        <ele>2001.12</ele>
        <time>2016-07-22T13:44:18Z</time>
      </trkpt>
      <trkpt lat="45.64422" lon="6.54239">
        <ele>1999.68</ele>
        <time>2016-07-22T13:44:30Z</time>
      </trkpt>
      <trkpt lat="45.64436" lon="6.54234">
        <ele>1998.24</ele>
        <time>2016-07-22T13:44:50Z</time>
      </trkpt>
      <trkpt lat="45.64451" lon="6.54236">
        <ele>1996.8</ele>
        <time>2016-07-22T13:45:07Z</time>
      </trkpt>
      <trkpt lat="45.64459" lon="6.5423">
        <ele>1994.87</ele>
        <time>2016-07-22T13:45:21Z</time>
      </trkpt>
      <trkpt lat="45.64468" lon="6.5422">
        <ele>1994.39</ele>
        <time>2016-07-22T13:45:52Z</time>
      </trkpt>
      <trkpt lat="45.64479" lon="6.54208">
        <ele>1991.51</ele>
        <time>2016-07-22T13:46:31Z</time>
      </trkpt>
      <trkpt lat="45.64487" lon="6.54203">
        <ele>1989.59</ele>
        <time>2016-07-22T13:46:50Z</time>
      </trkpt>
      <trkpt lat="45.6449" lon="6.54191">
        <ele>1986.7</ele>
        <time>2016-07-22T13:47:06Z</time>
      </trkpt>
      <trkpt lat="45.64498" lon="6.54177">
        <ele>1983.82</ele>
        <time>2016-07-22T13:49:29Z</time>
      </trkpt>
      <trkpt lat="45.64499" lon="6.5416">
        <ele>1979.01</ele>
        <time>2016-07-22T13:50:33Z</time>
      </trkpt>
      <trkpt lat="45.64507" lon="6.54165">
        <ele>1974.69</ele>
        <time>2016-07-22T13:51:12Z</time>
      </trkpt>
      <trkpt lat="45.64501" lon="6.54149">
        <ele>1971.8</ele>
        <time>2016-07-22T13:52:02Z</time>
      </trkpt>
      <trkpt lat="45.64499" lon="6.54135">
        <ele>1969.4</ele>
        <time>2016-07-22T13:52:17Z</time>
      </trkpt>
      <trkpt lat="45.64496" lon="6.54122">
        <ele>1966.51</ele>
        <time>2016-07-22T13:52:36Z</time>
      </trkpt>
      <trkpt lat="45.64498" lon="6.54109">
        <ele>1964.59</ele>
        <time>2016-07-22T13:52:51Z</time>
      </trkpt>
      <trkpt lat="45.64501" lon="6.54099">
        <ele>1963.63</ele>
        <time>2016-07-22T13:53:04Z</time>
      </trkpt>
      <trkpt lat="45.64499" lon="6.54081">
        <ele>1965.07</ele>
        <time>2016-07-22T13:53:21Z</time>
      </trkpt>
      <trkpt lat="45.64498" lon="6.54066">
        <ele>1963.63</ele>
        <time>2016-07-22T13:53:34Z</time>
      </trkpt>
      <trkpt lat="45.64494" lon="6.54052">
        <ele>1965.55</ele>
        <time>2016-07-22T13:53:46Z</time>
      </trkpt>
      <trkpt lat="45.64485" lon="6.54044">
        <ele>1966.51</ele>
        <time>2016-07-22T13:53:57Z</time>
      </trkpt>
      <trkpt lat="45.64477" lon="6.54036">
        <ele>1967.48</ele>
        <time>2016-07-22T13:54:12Z</time>
      </trkpt>
      <trkpt lat="45.64485" lon="6.54042">
        <ele>1966.51</ele>
        <time>2016-07-22T14:08:32Z</time>
      </trkpt>
      <trkpt lat="45.64488" lon="6.54051">
        <ele>1968.92</ele>
        <time>2016-07-22T14:12:31Z</time>
      </trkpt>
      <trkpt lat="45.64491" lon="6.54044">
        <ele>1971.8</ele>
        <time>2016-07-22T14:15:54Z</time>
      </trkpt>
      <trkpt lat="45.64492" lon="6.54031">
        <ele>1970.36</ele>
        <time>2016-07-22T14:16:06Z</time>
      </trkpt>
      <trkpt lat="45.64495" lon="6.54017">
        <ele>1971.8</ele>
        <time>2016-07-22T14:16:19Z</time>
      </trkpt>
      <trkpt lat="45.64492" lon="6.54001">
        <ele>1972.28</ele>
        <time>2016-07-22T14:16:30Z</time>
      </trkpt>
      <trkpt lat="45.64489" lon="6.53986">
        <ele>1974.2</ele>
        <time>2016-07-22T14:16:43Z</time>
      </trkpt>
      <trkpt lat="45.64492" lon="6.53971">
        <ele>1974.69</ele>
        <time>2016-07-22T14:16:56Z</time>
      </trkpt>
      <trkpt lat="45.64491" lon="6.53957">
        <ele>1975.17</ele>
        <time>2016-07-22T14:17:08Z</time>
      </trkpt>
      <trkpt lat="45.64493" lon="6.53944">
        <ele>1976.13</ele>
        <time>2016-07-22T14:17:21Z</time>
      </trkpt>
      <trkpt lat="45.64495" lon="6.53932">
        <ele>1978.05</ele>
        <time>2016-07-22T14:17:36Z</time>
      </trkpt>
      <trkpt lat="45.64499" lon="6.53919">
        <ele>1979.49</ele>
        <time>2016-07-22T14:17:53Z</time>
      </trkpt>
      <trkpt lat="45.64506" lon="6.53905">
        <ele>1981.41</ele>
        <time>2016-07-22T14:18:11Z</time>
      </trkpt>
      <trkpt lat="45.64508" lon="6.53892">
        <ele>1982.86</ele>
        <time>2016-07-22T14:18:25Z</time>
      </trkpt>
      <trkpt lat="45.64508" lon="6.5388">
        <ele>1983.34</ele>
        <time>2016-07-22T14:18:41Z</time>
      </trkpt>
      <trkpt lat="45.6451" lon="6.53864">
        <ele>1985.26</ele>
        <time>2016-07-22T14:19:04Z</time>
      </trkpt>
      <trkpt lat="45.64512" lon="6.53851">
        <ele>1989.1</ele>
        <time>2016-07-22T14:19:29Z</time>
      </trkpt>
      <trkpt lat="45.6451" lon="6.53839">
        <ele>1992.95</ele>
        <time>2016-07-22T14:19:58Z</time>
      </trkpt>
      <trkpt lat="45.64509" lon="6.53825">
        <ele>1994.87</ele>
        <time>2016-07-22T14:20:15Z</time>
      </trkpt>
      <trkpt lat="45.6451" lon="6.53822">
        <ele>1994.87</ele>
        <time>2016-07-22T14:22:01Z</time>
      </trkpt>
      <trkpt lat="45.64507" lon="6.53808">
        <ele>1994.87</ele>
        <time>2016-07-22T14:22:11Z</time>
      </trkpt>
      <trkpt lat="45.64505" lon="6.53795">
        <ele>1995.35</ele>
        <time>2016-07-22T14:22:21Z</time>
      </trkpt>
      <trkpt lat="45.64503" lon="6.53781">
        <ele>1995.35</ele>
        <time>2016-07-22T14:22:32Z</time>
      </trkpt>
      <trkpt lat="45.64499" lon="6.53769">
        <ele>1992.95</ele>
        <time>2016-07-22T14:22:47Z</time>
      </trkpt>
      <trkpt lat="45.64496" lon="6.53756">
        <ele>1992.47</ele>
        <time>2016-07-22T14:22:58Z</time>
      </trkpt>
      <trkpt lat="45.64494" lon="6.53743">
        <ele>1991.99</ele>
        <time>2016-07-22T14:23:10Z</time>
      </trkpt>
      <trkpt lat="45.64493" lon="6.53729">
        <ele>1990.55</ele>
        <time>2016-07-22T14:23:22Z</time>
      </trkpt>
      <trkpt lat="45.64493" lon="6.53716">
        <ele>1988.62</ele>
        <time>2016-07-22T14:23:33Z</time>
      </trkpt>
      <trkpt lat="45.64491" lon="6.53702">
        <ele>1986.7</ele>
        <time>2016-07-22T14:23:44Z</time>
      </trkpt>
      <trkpt lat="45.64487" lon="6.5369">
        <ele>1984.78</ele>
        <time>2016-07-22T14:23:59Z</time>
      </trkpt>
      <trkpt lat="45.64481" lon="6.53684">
        <ele>1983.34</ele>
        <time>2016-07-22T14:24:14Z</time>
      </trkpt>
      <trkpt lat="45.64479" lon="6.53669">
        <ele>1978.05</ele>
        <time>2016-07-22T14:25:00Z</time>
      </trkpt>
      <trkpt lat="45.64485" lon="6.53656">
        <ele>1974.69</ele>
        <time>2016-07-22T14:26:04Z</time>
      </trkpt>
      <trkpt lat="45.64488" lon="6.53641">
        <ele>1973.72</ele>
        <time>2016-07-22T14:26:17Z</time>
      </trkpt>
      <trkpt lat="45.64493" lon="6.53628">
        <ele>1972.28</ele>
        <time>2016-07-22T14:26:32Z</time>
      </trkpt>
      <trkpt lat="45.64497" lon="6.53614">
        <ele>1969.4</ele>
        <time>2016-07-22T14:26:47Z</time>
      </trkpt>
      <trkpt lat="45.64505" lon="6.53606">
        <ele>1967.96</ele>
        <time>2016-07-22T14:27:02Z</time>
      </trkpt>
      <trkpt lat="45.64514" lon="6.53604">
        <ele>1965.55</ele>
        <time>2016-07-22T14:27:19Z</time>
      </trkpt>
      <trkpt lat="45.64521" lon="6.53602">
        <ele>1962.19</ele>
        <time>2016-07-22T14:27:36Z</time>
      </trkpt>
      <trkpt lat="45.64526" lon="6.5359">
        <ele>1961.23</ele>
        <time>2016-07-22T14:27:54Z</time>
      </trkpt>
      <trkpt lat="45.64537" lon="6.5359">
        <ele>1959.78</ele>
        <time>2016-07-22T14:28:13Z</time>
      </trkpt>
      <trkpt lat="45.64546" lon="6.53594">
        <ele>1957.86</ele>
        <time>2016-07-22T14:28:29Z</time>
      </trkpt>
      <trkpt lat="45.64557" lon="6.53599">
        <ele>1955.46</ele>
        <time>2016-07-22T14:29:12Z</time>
      </trkpt>
      <trkpt lat="45.64566" lon="6.53602">
        <ele>1954.5</ele>
        <time>2016-07-22T14:29:24Z</time>
      </trkpt>
      <trkpt lat="45.64576" lon="6.53605">
        <ele>1953.06</ele>
        <time>2016-07-22T14:29:37Z</time>
      </trkpt>
      <trkpt lat="45.64584" lon="6.53613">
        <ele>1951.61</ele>
        <time>2016-07-22T14:29:51Z</time>
      </trkpt>
      <trkpt lat="45.64593" lon="6.53619">
        <ele>1950.65</ele>
        <time>2016-07-22T14:30:03Z</time>
      </trkpt>
      <trkpt lat="45.64603" lon="6.53622">
        <ele>1949.69</ele>
        <time>2016-07-22T14:30:13Z</time>
      </trkpt>
      <trkpt lat="45.64613" lon="6.53626">
        <ele>1948.25</ele>
        <time>2016-07-22T14:30:24Z</time>
      </trkpt>
      <trkpt lat="45.64622" lon="6.53632">
        <ele>1946.81</ele>
        <time>2016-07-22T14:30:33Z</time>
      </trkpt>
      <trkpt lat="45.64631" lon="6.53638">
        <ele>1945.85</ele>
        <time>2016-07-22T14:30:42Z</time>
      </trkpt>
      <trkpt lat="45.64641" lon="6.53641">
        <ele>1944.88</ele>
        <time>2016-07-22T14:30:51Z</time>
      </trkpt>
      <trkpt lat="45.64651" lon="6.53645">
        <ele>1944.4</ele>
        <time>2016-07-22T14:31:01Z</time>
      </trkpt>
      <trkpt lat="45.64661" lon="6.53648">
        <ele>1943.44</ele>
        <time>2016-07-22T14:31:10Z</time>
      </trkpt>
      <trkpt lat="45.64671" lon="6.53649">
        <ele>1942.48</ele>
        <time>2016-07-22T14:31:19Z</time>
      </trkpt>
      <trkpt lat="45.64682" lon="6.5365">
        <ele>1942</ele>
        <time>2016-07-22T14:31:28Z</time>
      </trkpt>
      <trkpt lat="45.64692" lon="6.53647">
        <ele>1942</ele>
        <time>2016-07-22T14:31:39Z</time>
      </trkpt>
      <trkpt lat="45.64703" lon="6.53648">
        <ele>1942</ele>
        <time>2016-07-22T14:31:52Z</time>
      </trkpt>
      <trkpt lat="45.64716" lon="6.53647">
        <ele>1941.52</ele>
        <time>2016-07-22T14:32:15Z</time>
      </trkpt>
      <trkpt lat="45.64724" lon="6.53656">
        <ele>1942.96</ele>
        <time>2016-07-22T14:32:28Z</time>
      </trkpt>
      <trkpt lat="45.64733" lon="6.5366">
        <ele>1945.36</ele>
        <time>2016-07-22T14:32:45Z</time>
      </trkpt>
      <trkpt lat="45.64742" lon="6.53666">
        <ele>1948.25</ele>
        <time>2016-07-22T14:33:02Z</time>
      </trkpt>
      <trkpt lat="45.6475" lon="6.53673">
        <ele>1949.21</ele>
        <time>2016-07-22T14:33:13Z</time>
      </trkpt>
      <trkpt lat="45.64759" lon="6.53679">
        <ele>1950.17</ele>
        <time>2016-07-22T14:33:27Z</time>
      </trkpt>
      <trkpt lat="45.64768" lon="6.53681">
        <ele>1950.17</ele>
        <time>2016-07-22T14:33:38Z</time>
      </trkpt>
      <trkpt lat="45.64777" lon="6.53684">
        <ele>1952.09</ele>
        <time>2016-07-22T14:33:56Z</time>
      </trkpt>
      <trkpt lat="45.64786" lon="6.53687">
        <ele>1952.57</ele>
        <time>2016-07-22T14:34:08Z</time>
      </trkpt>
      <trkpt lat="45.64796" lon="6.53687">
        <ele>1952.57</ele>
        <time>2016-07-22T14:34:21Z</time>
      </trkpt>
      <trkpt lat="45.64805" lon="6.53693">
        <ele>1952.57</ele>
        <time>2016-07-22T14:34:32Z</time>
      </trkpt>
      <trkpt lat="45.64814" lon="6.53697">
        <ele>1951.61</ele>
        <time>2016-07-22T14:34:43Z</time>
      </trkpt>
      <trkpt lat="45.64823" lon="6.53701">
        <ele>1951.13</ele>
        <time>2016-07-22T14:34:53Z</time>
      </trkpt>
      <trkpt lat="45.64832" lon="6.53706">
        <ele>1950.17</ele>
        <time>2016-07-22T14:35:04Z</time>
      </trkpt>
      <trkpt lat="45.64841" lon="6.53706">
        <ele>1949.69</ele>
        <time>2016-07-22T14:35:13Z</time>
      </trkpt>
      <trkpt lat="45.64851" lon="6.53707">
        <ele>1948.73</ele>
        <time>2016-07-22T14:35:24Z</time>
      </trkpt>
      <trkpt lat="45.64861" lon="6.53708">
        <ele>1948.25</ele>
        <time>2016-07-22T14:35:35Z</time>
      </trkpt>
      <trkpt lat="45.6487" lon="6.53711">
        <ele>1948.25</ele>
        <time>2016-07-22T14:35:46Z</time>
      </trkpt>
      <trkpt lat="45.64879" lon="6.53718">
        <ele>1949.21</ele>
        <time>2016-07-22T14:35:56Z</time>
      </trkpt>
      <trkpt lat="45.64888" lon="6.53724">
        <ele>1949.21</ele>
        <time>2016-07-22T14:36:05Z</time>
      </trkpt>
      <trkpt lat="45.64896" lon="6.53731">
        <ele>1947.29</ele>
        <time>2016-07-22T14:36:16Z</time>
      </trkpt>
      <trkpt lat="45.64902" lon="6.53741">
        <ele>1946.33</ele>
        <time>2016-07-22T14:36:27Z</time>
      </trkpt>
      <trkpt lat="45.64911" lon="6.53749">
        <ele>1945.36</ele>
        <time>2016-07-22T14:36:39Z</time>
      </trkpt>
      <trkpt lat="45.6492" lon="6.5375">
        <ele>1944.4</ele>
        <time>2016-07-22T14:36:51Z</time>
      </trkpt>
      <trkpt lat="45.64927" lon="6.53758">
        <ele>1944.4</ele>
        <time>2016-07-22T14:37:10Z</time>
      </trkpt>
      <trkpt lat="45.64936" lon="6.53763">
        <ele>1944.4</ele>
        <time>2016-07-22T14:37:23Z</time>
      </trkpt>
      <trkpt lat="45.64946" lon="6.53766">
        <ele>1942.96</ele>
        <time>2016-07-22T14:37:35Z</time>
      </trkpt>
      <trkpt lat="45.64953" lon="6.53775">
        <ele>1941.52</ele>
        <time>2016-07-22T14:37:46Z</time>
      </trkpt>
      <trkpt lat="45.64962" lon="6.53781">
        <ele>1940.56</ele>
        <time>2016-07-22T14:37:57Z</time>
      </trkpt>
      <trkpt lat="45.64971" lon="6.53788">
        <ele>1940.08</ele>
        <time>2016-07-22T14:38:08Z</time>
      </trkpt>
      <trkpt lat="45.6498" lon="6.53791">
        <ele>1938.64</ele>
        <time>2016-07-22T14:38:19Z</time>
      </trkpt>
      <trkpt lat="45.6499" lon="6.53791">
        <ele>1938.64</ele>
        <time>2016-07-22T14:38:31Z</time>
      </trkpt>
      <trkpt lat="45.65" lon="6.53795">
        <ele>1937.67</ele>
        <time>2016-07-22T14:38:42Z</time>
      </trkpt>
      <trkpt lat="45.65007" lon="6.53806">
        <ele>1937.67</ele>
        <time>2016-07-22T14:38:53Z</time>
      </trkpt>
      <trkpt lat="45.65012" lon="6.53816">
        <ele>1936.71</ele>
        <time>2016-07-22T14:39:03Z</time>
      </trkpt>
      <trkpt lat="45.6502" lon="6.53825">
        <ele>1935.75</ele>
        <time>2016-07-22T14:39:14Z</time>
      </trkpt>
      <trkpt lat="45.65028" lon="6.53832">
        <ele>1934.31</ele>
        <time>2016-07-22T14:39:26Z</time>
      </trkpt>
      <trkpt lat="45.65036" lon="6.53841">
        <ele>1932.39</ele>
        <time>2016-07-22T14:39:38Z</time>
      </trkpt>
      <trkpt lat="45.65043" lon="6.53851">
        <ele>1930.46</ele>
        <time>2016-07-22T14:39:51Z</time>
      </trkpt>
      <trkpt lat="45.65049" lon="6.53861">
        <ele>1929.98</ele>
        <time>2016-07-22T14:40:02Z</time>
      </trkpt>
      <trkpt lat="45.65058" lon="6.53869">
        <ele>1928.54</ele>
        <time>2016-07-22T14:40:14Z</time>
      </trkpt>
      <trkpt lat="45.65066" lon="6.53874">
        <ele>1926.62</ele>
        <time>2016-07-22T14:40:24Z</time>
      </trkpt>
      <trkpt lat="45.65083" lon="6.5388">
        <ele>1926.14</ele>
        <time>2016-07-22T14:40:46Z</time>
      </trkpt>
      <trkpt lat="45.65092" lon="6.53883">
        <ele>1925.18</ele>
        <time>2016-07-22T14:40:57Z</time>
      </trkpt>
      <trkpt lat="45.65102" lon="6.53886">
        <ele>1924.22</ele>
        <time>2016-07-22T14:41:09Z</time>
      </trkpt>
      <trkpt lat="45.65112" lon="6.53886">
        <ele>1923.74</ele>
        <time>2016-07-22T14:41:21Z</time>
      </trkpt>
      <trkpt lat="45.65122" lon="6.5389">
        <ele>1923.25</ele>
        <time>2016-07-22T14:41:36Z</time>
      </trkpt>
      <trkpt lat="45.65132" lon="6.53892">
        <ele>1921.81</ele>
        <time>2016-07-22T14:41:50Z</time>
      </trkpt>
      <trkpt lat="45.65142" lon="6.53896">
        <ele>1920.37</ele>
        <time>2016-07-22T14:42:03Z</time>
      </trkpt>
      <trkpt lat="45.6515" lon="6.53896">
        <ele>1919.89</ele>
        <time>2016-07-22T14:42:17Z</time>
      </trkpt>
      <trkpt lat="45.65159" lon="6.53899">
        <ele>1918.45</ele>
        <time>2016-07-22T14:42:29Z</time>
      </trkpt>
      <trkpt lat="45.65169" lon="6.53897">
        <ele>1917.49</ele>
        <time>2016-07-22T14:42:41Z</time>
      </trkpt>
      <trkpt lat="45.65176" lon="6.53895">
        <ele>1916.04</ele>
        <time>2016-07-22T14:42:54Z</time>
      </trkpt>
      <trkpt lat="45.65185" lon="6.53892">
        <ele>1914.12</ele>
        <time>2016-07-22T14:43:11Z</time>
      </trkpt>
      <trkpt lat="45.65191" lon="6.53899">
        <ele>1911.24</ele>
        <time>2016-07-22T14:43:31Z</time>
      </trkpt>
      <trkpt lat="45.65196" lon="6.53888">
        <ele>1909.32</ele>
        <time>2016-07-22T14:43:44Z</time>
      </trkpt>
      <trkpt lat="45.65196" lon="6.53873">
        <ele>1906.91</ele>
        <time>2016-07-22T14:43:59Z</time>
      </trkpt>
      <trkpt lat="45.65204" lon="6.53863">
        <ele>1907.39</ele>
        <time>2016-07-22T14:44:12Z</time>
      </trkpt>
      <trkpt lat="45.6521" lon="6.5385">
        <ele>1906.91</ele>
        <time>2016-07-22T14:44:24Z</time>
      </trkpt>
      <trkpt lat="45.65215" lon="6.53839">
        <ele>1904.99</ele>
        <time>2016-07-22T14:44:48Z</time>
      </trkpt>
      <trkpt lat="45.6522" lon="6.53844">
        <ele>1902.11</ele>
        <time>2016-07-22T14:45:21Z</time>
      </trkpt>
      <trkpt lat="45.65224" lon="6.5383">
        <ele>1900.66</ele>
        <time>2016-07-22T14:45:51Z</time>
      </trkpt>
      <trkpt lat="45.65232" lon="6.53823">
        <ele>1900.66</ele>
        <time>2016-07-22T14:46:06Z</time>
      </trkpt>
      <trkpt lat="45.65237" lon="6.53825">
        <ele>1898.74</ele>
        <time>2016-07-22T14:46:21Z</time>
      </trkpt>
      <trkpt lat="45.65241" lon="6.5383">
        <ele>1896.34</ele>
        <time>2016-07-22T14:46:35Z</time>
      </trkpt>
      <trkpt lat="45.65244" lon="6.53832">
        <ele>1896.34</ele>
        <time>2016-07-22T14:47:22Z</time>
      </trkpt>
      <trkpt lat="45.65257" lon="6.5384">
        <ele>1890.57</ele>
        <time>2016-07-22T14:47:48Z</time>
      </trkpt>
      <trkpt lat="45.65267" lon="6.53845">
        <ele>1887.69</ele>
        <time>2016-07-22T14:48:00Z</time>
      </trkpt>
      <trkpt lat="45.65278" lon="6.53843">
        <ele>1885.28</ele>
        <time>2016-07-22T14:48:11Z</time>
      </trkpt>
      <trkpt lat="45.65288" lon="6.53844">
        <ele>1882.88</ele>
        <time>2016-07-22T14:48:28Z</time>
      </trkpt>
      <trkpt lat="45.65298" lon="6.53846">
        <ele>1880.48</ele>
        <time>2016-07-22T14:48:41Z</time>
      </trkpt>
      <trkpt lat="45.65308" lon="6.5384">
        <ele>1879.03</ele>
        <time>2016-07-22T14:48:51Z</time>
      </trkpt>
      <trkpt lat="45.65315" lon="6.5383">
        <ele>1878.55</ele>
        <time>2016-07-22T14:49:02Z</time>
      </trkpt>
      <trkpt lat="45.65324" lon="6.53826">
        <ele>1876.63</ele>
        <time>2016-07-22T14:49:15Z</time>
      </trkpt>
      <trkpt lat="45.65333" lon="6.53832">
        <ele>1874.71</ele>
        <time>2016-07-22T14:49:26Z</time>
      </trkpt>
      <trkpt lat="45.65341" lon="6.53838">
        <ele>1872.3</ele>
        <time>2016-07-22T14:49:42Z</time>
      </trkpt>
      <trkpt lat="45.65352" lon="6.53841">
        <ele>1869.42</ele>
        <time>2016-07-22T14:50:07Z</time>
      </trkpt>
      <trkpt lat="45.65361" lon="6.53845">
        <ele>1865.58</ele>
        <time>2016-07-22T14:50:29Z</time>
      </trkpt>
      <trkpt lat="45.6537" lon="6.53852">
        <ele>1862.69</ele>
        <time>2016-07-22T14:50:48Z</time>
      </trkpt>
      <trkpt lat="45.65379" lon="6.53858">
        <ele>1858.37</ele>
        <time>2016-07-22T14:51:09Z</time>
      </trkpt>
      <trkpt lat="45.65386" lon="6.53861">
        <ele>1855.48</ele>
        <time>2016-07-22T14:51:30Z</time>
      </trkpt>
      <trkpt lat="45.65385" lon="6.5387">
        <ele>1852.6</ele>
        <time>2016-07-22T14:51:56Z</time>
      </trkpt>
      <trkpt lat="45.65389" lon="6.53878">
        <ele>1849.23</ele>
        <time>2016-07-22T14:52:18Z</time>
      </trkpt>
      <trkpt lat="45.65393" lon="6.53882">
        <ele>1846.83</ele>
        <time>2016-07-22T14:52:44Z</time>
      </trkpt>
      <trkpt lat="45.65399" lon="6.53887">
        <ele>1843.47</ele>
        <time>2016-07-22T14:53:02Z</time>
      </trkpt>
      <trkpt lat="45.65408" lon="6.53883">
        <ele>1840.58</ele>
        <time>2016-07-22T14:53:28Z</time>
      </trkpt>
      <trkpt lat="45.65415" lon="6.53877">
        <ele>1838.66</ele>
        <time>2016-07-22T14:53:41Z</time>
      </trkpt>
      <trkpt lat="45.65421" lon="6.53862">
        <ele>1840.1</ele>
        <time>2016-07-22T14:53:59Z</time>
      </trkpt>
      <trkpt lat="45.65433" lon="6.53858">
        <ele>1840.1</ele>
        <time>2016-07-22T14:54:13Z</time>
      </trkpt>
      <trkpt lat="45.65446" lon="6.5386">
        <ele>1837.22</ele>
        <time>2016-07-22T14:54:41Z</time>
      </trkpt>
      <trkpt lat="45.65456" lon="6.53864">
        <ele>1834.81</ele>
        <time>2016-07-22T14:55:19Z</time>
      </trkpt>
      <trkpt lat="45.65465" lon="6.53862">
        <ele>1834.33</ele>
        <time>2016-07-22T14:55:34Z</time>
      </trkpt>
      <trkpt lat="45.65474" lon="6.53858">
        <ele>1833.85</ele>
        <time>2016-07-22T14:55:50Z</time>
      </trkpt>
      <trkpt lat="45.65486" lon="6.53849">
        <ele>1830.97</ele>
        <time>2016-07-22T14:56:17Z</time>
      </trkpt>
      <trkpt lat="45.65506" lon="6.53835">
        <ele>1831.45</ele>
        <time>2016-07-22T14:57:30Z</time>
      </trkpt>
      <trkpt lat="45.65521" lon="6.53822">
        <ele>1829.53</ele>
        <time>2016-07-22T14:57:55Z</time>
      </trkpt>
      <trkpt lat="45.65529" lon="6.53808">
        <ele>1827.12</ele>
        <time>2016-07-22T14:58:24Z</time>
      </trkpt>
      <trkpt lat="45.6553" lon="6.53766">
        <ele>1826.64</ele>
        <time>2016-07-22T14:58:59Z</time>
      </trkpt>
      <trkpt lat="45.65518" lon="6.53709">
        <ele>1827.6</ele>
        <time>2016-07-22T15:00:30Z</time>
      </trkpt>
      <trkpt lat="45.65509" lon="6.5369">
        <ele>1830.01</ele>
        <time>2016-07-22T15:00:51Z</time>
      </trkpt>
      <trkpt lat="45.65501" lon="6.53653">
        <ele>1833.85</ele>
        <time>2016-07-22T15:01:29Z</time>
      </trkpt>
      <trkpt lat="45.65497" lon="6.53636">
        <ele>1835.77</ele>
        <time>2016-07-22T15:01:48Z</time>
      </trkpt>
      <trkpt lat="45.65491" lon="6.53587">
        <ele>1837.7</ele>
        <time>2016-07-22T15:02:48Z</time>
      </trkpt>
      <trkpt lat="45.65504" lon="6.5348">
        <ele>1842.5</ele>
        <time>2016-07-22T15:04:41Z</time>
      </trkpt>
      <trkpt lat="45.6551" lon="6.53457">
        <ele>1842.02</ele>
        <time>2016-07-22T15:05:07Z</time>
      </trkpt>
      <trkpt lat="45.65531" lon="6.53413">
        <ele>1847.79</ele>
        <time>2016-07-22T15:06:24Z</time>
      </trkpt>
      <trkpt lat="45.65546" lon="6.53407">
        <ele>1855</ele>
        <time>2016-07-22T15:07:31Z</time>
      </trkpt>
      <trkpt lat="45.65539" lon="6.53393">
        <ele>1856.44</ele>
        <time>2016-07-22T15:07:47Z</time>
      </trkpt>
      <trkpt lat="45.65547" lon="6.5338">
        <ele>1857.89</ele>
        <time>2016-07-22T15:08:03Z</time>
      </trkpt>
      <trkpt lat="45.65559" lon="6.53386">
        <ele>1857.89</ele>
        <time>2016-07-22T15:08:16Z</time>
      </trkpt>
      <trkpt lat="45.65569" lon="6.53396">
        <ele>1857.89</ele>
        <time>2016-07-22T15:08:30Z</time>
      </trkpt>
      <trkpt lat="45.6558" lon="6.53401">
        <ele>1857.89</ele>
        <time>2016-07-22T15:08:44Z</time>
      </trkpt>
      <trkpt lat="45.6559" lon="6.53397">
        <ele>1857.89</ele>
        <time>2016-07-22T15:08:57Z</time>
      </trkpt>
      <trkpt lat="45.65601" lon="6.53397">
        <ele>1858.85</ele>
        <time>2016-07-22T15:09:11Z</time>
      </trkpt>
      <trkpt lat="45.65612" lon="6.534">
        <ele>1859.81</ele>
        <time>2016-07-22T15:09:30Z</time>
      </trkpt>
      <trkpt lat="45.65617" lon="6.53385">
        <ele>1864.13</ele>
        <time>2016-07-22T15:10:13Z</time>
      </trkpt>
      <trkpt lat="45.65622" lon="6.53356">
        <ele>1874.71</ele>
        <time>2016-07-22T15:11:40Z</time>
      </trkpt>
      <trkpt lat="45.65635" lon="6.53342">
        <ele>1880.96</ele>
        <time>2016-07-22T15:12:38Z</time>
      </trkpt>
      <trkpt lat="45.65658" lon="6.53333">
        <ele>1890.57</ele>
        <time>2016-07-22T15:13:56Z</time>
      </trkpt>
      <trkpt lat="45.65673" lon="6.53329">
        <ele>1896.34</ele>
        <time>2016-07-22T15:14:40Z</time>
      </trkpt>
      <trkpt lat="45.65683" lon="6.5333">
        <ele>1896.82</ele>
        <time>2016-07-22T15:14:54Z</time>
      </trkpt>
      <trkpt lat="45.65689" lon="6.53338">
        <ele>1897.78</ele>
        <time>2016-07-22T15:15:19Z</time>
      </trkpt>
      <trkpt lat="45.65695" lon="6.5335">
        <ele>1897.78</ele>
        <time>2016-07-22T15:15:30Z</time>
      </trkpt>
      <trkpt lat="45.65696" lon="6.53354">
        <ele>1898.74</ele>
        <time>2016-07-22T15:15:53Z</time>
      </trkpt>
    </trkseg>
  </trk>
</gpx>